<?xml version="1.0" encoding="UTF-8" standalone="no" ?>
<gpx xmlns="http://www.topografix.com/GPX/1/1" xmlns:xsi="http://www.w3.org/2001/XMLSchema-instance" xsi:schemaLocation="http://www.topografix.com/GPX/1/1 http://www.topografix.com/GPX/1/1/gpx.xsd" version="1.1" creator="VisuGPX - https://www.visugpx.com">
  <metadata>
    <name>Les rochers blancs Naves</name>
    <desc><![CDATA[Les rochers blancs Naves
Refuge du nants du beurre]]></desc>
  </metadata>
  <trk>
    <name><![CDATA[20160920_083805.gpx]]></name>
    <trkseg>
      <trkpt lat="45.55902" lon="6.52347">
        <ele>1321.4</ele>
        <time>2016-09-20T06:38:06Z</time>
      </trkpt>
      <trkpt lat="45.55906" lon="6.52344">
        <ele>1313.218</ele>
        <time>2016-09-20T06:38:14Z</time>
      </trkpt>
      <trkpt lat="45.55906" lon="6.52344">
        <ele>1313.218</ele>
        <time>2016-09-20T06:38:14Z</time>
      </trkpt>
      <trkpt lat="45.55911" lon="6.52335">
        <ele>1311.1492</ele>
        <time>2016-09-20T06:40:29Z</time>
      </trkpt>
      <trkpt lat="45.55911" lon="6.52335">
        <ele>1311.1492</ele>
        <time>2016-09-20T06:40:29Z</time>
      </trkpt>
      <trkpt lat="45.55918" lon="6.52343">
        <ele>1311.971</ele>
        <time>2016-09-20T06:41:38Z</time>
      </trkpt>
      <trkpt lat="45.55926" lon="6.52347">
        <ele>1312.5337</ele>
        <time>2016-09-20T06:41:58Z</time>
      </trkpt>
      <trkpt lat="45.55926" lon="6.52347">
        <ele>1312.5337</ele>
        <time>2016-09-20T06:41:58Z</time>
      </trkpt>
      <trkpt lat="45.55917" lon="6.52342">
        <ele>1313.0701</ele>
        <time>2016-09-20T06:42:18Z</time>
      </trkpt>
      <trkpt lat="45.5591" lon="6.52351">
        <ele>1315.1178</ele>
        <time>2016-09-20T06:42:30Z</time>
      </trkpt>
      <trkpt lat="45.5591" lon="6.52366">
        <ele>1316.2751</ele>
        <time>2016-09-20T06:42:40Z</time>
      </trkpt>
      <trkpt lat="45.5591" lon="6.5238">
        <ele>1317.5646</ele>
        <time>2016-09-20T06:42:50Z</time>
      </trkpt>
      <trkpt lat="45.55912" lon="6.52393">
        <ele>1321.2241</ele>
        <time>2016-09-20T06:43:08Z</time>
      </trkpt>
      <trkpt lat="45.5592" lon="6.52401">
        <ele>1323.0869</ele>
        <time>2016-09-20T06:43:19Z</time>
      </trkpt>
      <trkpt lat="45.55915" lon="6.52415">
        <ele>1324.4794</ele>
        <time>2016-09-20T06:43:36Z</time>
      </trkpt>
      <trkpt lat="45.55916" lon="6.52429">
        <ele>1326.8495</ele>
        <time>2016-09-20T06:43:50Z</time>
      </trkpt>
      <trkpt lat="45.55917" lon="6.52443">
        <ele>1327.2697</ele>
        <time>2016-09-20T06:44:03Z</time>
      </trkpt>
      <trkpt lat="45.55918" lon="6.52457">
        <ele>1329.0875</ele>
        <time>2016-09-20T06:44:12Z</time>
      </trkpt>
      <trkpt lat="45.55918" lon="6.5247">
        <ele>1329.616</ele>
        <time>2016-09-20T06:44:22Z</time>
      </trkpt>
      <trkpt lat="45.55925" lon="6.52481">
        <ele>1331.9042</ele>
        <time>2016-09-20T06:44:33Z</time>
      </trkpt>
      <trkpt lat="45.55926" lon="6.52494">
        <ele>1333.0166</ele>
        <time>2016-09-20T06:44:42Z</time>
      </trkpt>
      <trkpt lat="45.55929" lon="6.52507">
        <ele>1333.7538</ele>
        <time>2016-09-20T06:44:54Z</time>
      </trkpt>
      <trkpt lat="45.55934" lon="6.52519">
        <ele>1334.8027</ele>
        <time>2016-09-20T06:45:03Z</time>
      </trkpt>
      <trkpt lat="45.55941" lon="6.52528">
        <ele>1336.0024</ele>
        <time>2016-09-20T06:45:14Z</time>
      </trkpt>
      <trkpt lat="45.55946" lon="6.5254">
        <ele>1338.6315</ele>
        <time>2016-09-20T06:45:27Z</time>
      </trkpt>
      <trkpt lat="45.55953" lon="6.5255">
        <ele>1339.432</ele>
        <time>2016-09-20T06:45:39Z</time>
      </trkpt>
      <trkpt lat="45.55959" lon="6.5256">
        <ele>1341.929</ele>
        <time>2016-09-20T06:45:51Z</time>
      </trkpt>
      <trkpt lat="45.55963" lon="6.52572">
        <ele>1343.5593</ele>
        <time>2016-09-20T06:46:02Z</time>
      </trkpt>
      <trkpt lat="45.55969" lon="6.52583">
        <ele>1345.2847</ele>
        <time>2016-09-20T06:46:12Z</time>
      </trkpt>
      <trkpt lat="45.5597" lon="6.52596">
        <ele>1348.1516</ele>
        <time>2016-09-20T06:46:29Z</time>
      </trkpt>
      <trkpt lat="45.55978" lon="6.52605">
        <ele>1350.3525</ele>
        <time>2016-09-20T06:46:41Z</time>
      </trkpt>
      <trkpt lat="45.55982" lon="6.52617">
        <ele>1354.1786</ele>
        <time>2016-09-20T06:47:00Z</time>
      </trkpt>
      <trkpt lat="45.55988" lon="6.52627">
        <ele>1355.3306</ele>
        <time>2016-09-20T06:47:15Z</time>
      </trkpt>
      <trkpt lat="45.55996" lon="6.52633">
        <ele>1358.9506</ele>
        <time>2016-09-20T06:47:31Z</time>
      </trkpt>
      <trkpt lat="45.56003" lon="6.52644">
        <ele>1362.4198</ele>
        <time>2016-09-20T06:47:49Z</time>
      </trkpt>
      <trkpt lat="45.5601" lon="6.52652">
        <ele>1363.4371</ele>
        <time>2016-09-20T06:48:01Z</time>
      </trkpt>
      <trkpt lat="45.56017" lon="6.5266">
        <ele>1365.4796</ele>
        <time>2016-09-20T06:48:14Z</time>
      </trkpt>
      <trkpt lat="45.56023" lon="6.52671">
        <ele>1366.555</ele>
        <time>2016-09-20T06:48:26Z</time>
      </trkpt>
      <trkpt lat="45.5603" lon="6.52678">
        <ele>1368.4918</ele>
        <time>2016-09-20T06:48:40Z</time>
      </trkpt>
      <trkpt lat="45.56037" lon="6.52687">
        <ele>1370.1617</ele>
        <time>2016-09-20T06:48:50Z</time>
      </trkpt>
      <trkpt lat="45.56044" lon="6.52697">
        <ele>1371.5621</ele>
        <time>2016-09-20T06:49:04Z</time>
      </trkpt>
      <trkpt lat="45.56052" lon="6.52707">
        <ele>1373.6521</ele>
        <time>2016-09-20T06:49:12Z</time>
      </trkpt>
      <trkpt lat="45.5606" lon="6.52716">
        <ele>1374.3735</ele>
        <time>2016-09-20T06:49:21Z</time>
      </trkpt>
      <trkpt lat="45.56062" lon="6.5273">
        <ele>1373.8662</ele>
        <time>2016-09-20T06:49:32Z</time>
      </trkpt>
      <trkpt lat="45.56069" lon="6.52738">
        <ele>1373.1792</ele>
        <time>2016-09-20T06:49:40Z</time>
      </trkpt>
      <trkpt lat="45.56078" lon="6.52746">
        <ele>1372.759</ele>
        <time>2016-09-20T06:49:50Z</time>
      </trkpt>
      <trkpt lat="45.56085" lon="6.52756">
        <ele>1374.7618</ele>
        <time>2016-09-20T06:50:00Z</time>
      </trkpt>
      <trkpt lat="45.56094" lon="6.52761">
        <ele>1375.8717</ele>
        <time>2016-09-20T06:50:06Z</time>
      </trkpt>
      <trkpt lat="45.56096" lon="6.52773">
        <ele>1377.6816</ele>
        <time>2016-09-20T06:50:20Z</time>
      </trkpt>
      <trkpt lat="45.56103" lon="6.52784">
        <ele>1380.3846</ele>
        <time>2016-09-20T06:50:35Z</time>
      </trkpt>
      <trkpt lat="45.56105" lon="6.52798">
        <ele>1380.0253</ele>
        <time>2016-09-20T06:50:48Z</time>
      </trkpt>
      <trkpt lat="45.56112" lon="6.52809">
        <ele>1385.656</ele>
        <time>2016-09-20T06:51:02Z</time>
      </trkpt>
      <trkpt lat="45.56121" lon="6.5282">
        <ele>1389.4238</ele>
        <time>2016-09-20T06:51:24Z</time>
      </trkpt>
      <trkpt lat="45.56127" lon="6.52832">
        <ele>1391.9208</ele>
        <time>2016-09-20T06:51:36Z</time>
      </trkpt>
      <trkpt lat="45.56131" lon="6.52844">
        <ele>1393.2578</ele>
        <time>2016-09-20T06:51:46Z</time>
      </trkpt>
      <trkpt lat="45.56136" lon="6.52855">
        <ele>1395.6544</ele>
        <time>2016-09-20T06:51:58Z</time>
      </trkpt>
      <trkpt lat="45.56144" lon="6.52863">
        <ele>1394.9119</ele>
        <time>2016-09-20T06:52:05Z</time>
      </trkpt>
      <trkpt lat="45.56152" lon="6.52869">
        <ele>1400.5585</ele>
        <time>2016-09-20T06:52:23Z</time>
      </trkpt>
      <trkpt lat="45.5616" lon="6.52876">
        <ele>1401.5176</ele>
        <time>2016-09-20T06:52:36Z</time>
      </trkpt>
      <trkpt lat="45.56167" lon="6.52884">
        <ele>1403.7556</ele>
        <time>2016-09-20T06:52:47Z</time>
      </trkpt>
      <trkpt lat="45.56171" lon="6.52896">
        <ele>1405.7083</ele>
        <time>2016-09-20T06:52:56Z</time>
      </trkpt>
      <trkpt lat="45.56174" lon="6.52909">
        <ele>1407.1694</ele>
        <time>2016-09-20T06:53:07Z</time>
      </trkpt>
      <trkpt lat="45.5618" lon="6.52919">
        <ele>1409.4418</ele>
        <time>2016-09-20T06:53:21Z</time>
      </trkpt>
      <trkpt lat="45.56187" lon="6.52927">
        <ele>1411.4155</ele>
        <time>2016-09-20T06:53:32Z</time>
      </trkpt>
      <trkpt lat="45.56196" lon="6.52936">
        <ele>1413.8676</ele>
        <time>2016-09-20T06:53:45Z</time>
      </trkpt>
      <trkpt lat="45.56201" lon="6.52947">
        <ele>1415.8599</ele>
        <time>2016-09-20T06:54:05Z</time>
      </trkpt>
      <trkpt lat="45.56206" lon="6.52959">
        <ele>1421.1549</ele>
        <time>2016-09-20T06:54:26Z</time>
      </trkpt>
      <trkpt lat="45.56207" lon="6.52972">
        <ele>1422.492</ele>
        <time>2016-09-20T06:54:36Z</time>
      </trkpt>
      <trkpt lat="45.56214" lon="6.52981">
        <ele>1425.3694</ele>
        <time>2016-09-20T06:54:49Z</time>
      </trkpt>
      <trkpt lat="45.56223" lon="6.52989">
        <ele>1432.1548</ele>
        <time>2016-09-20T06:55:30Z</time>
      </trkpt>
      <trkpt lat="45.56226" lon="6.53002">
        <ele>1434.0651</ele>
        <time>2016-09-20T06:55:35Z</time>
      </trkpt>
      <trkpt lat="45.56233" lon="6.53012">
        <ele>1434.3319</ele>
        <time>2016-09-20T06:55:42Z</time>
      </trkpt>
      <trkpt lat="45.56241" lon="6.53019">
        <ele>1436.2661</ele>
        <time>2016-09-20T06:55:49Z</time>
      </trkpt>
      <trkpt lat="45.56246" lon="6.53031">
        <ele>1436.2952</ele>
        <time>2016-09-20T06:55:59Z</time>
      </trkpt>
      <trkpt lat="45.56252" lon="6.53041">
        <ele>1439.1118</ele>
        <time>2016-09-20T06:56:08Z</time>
      </trkpt>
      <trkpt lat="45.56257" lon="6.53052">
        <ele>1440.8795</ele>
        <time>2016-09-20T06:56:15Z</time>
      </trkpt>
      <trkpt lat="45.56266" lon="6.53063">
        <ele>1446.0769</ele>
        <time>2016-09-20T06:56:54Z</time>
      </trkpt>
      <trkpt lat="45.56273" lon="6.53072">
        <ele>1448.0269</ele>
        <time>2016-09-20T06:57:00Z</time>
      </trkpt>
      <trkpt lat="45.56283" lon="6.53081">
        <ele>1448.8777</ele>
        <time>2016-09-20T06:57:08Z</time>
      </trkpt>
      <trkpt lat="45.56291" lon="6.53087">
        <ele>1450.1909</ele>
        <time>2016-09-20T06:57:17Z</time>
      </trkpt>
      <trkpt lat="45.56298" lon="6.53097">
        <ele>1450.8489</ele>
        <time>2016-09-20T06:57:25Z</time>
      </trkpt>
      <trkpt lat="45.56307" lon="6.53103">
        <ele>1452.6904</ele>
        <time>2016-09-20T06:57:41Z</time>
      </trkpt>
      <trkpt lat="45.56315" lon="6.53112">
        <ele>1454.4872</ele>
        <time>2016-09-20T06:57:49Z</time>
      </trkpt>
      <trkpt lat="45.56323" lon="6.53121">
        <ele>1456.4504</ele>
        <time>2016-09-20T06:58:01Z</time>
      </trkpt>
      <trkpt lat="45.56331" lon="6.53128">
        <ele>1457.2668</ele>
        <time>2016-09-20T06:58:09Z</time>
      </trkpt>
      <trkpt lat="45.56333" lon="6.53142">
        <ele>1460.4429</ele>
        <time>2016-09-20T06:58:24Z</time>
      </trkpt>
      <trkpt lat="45.56341" lon="6.53153">
        <ele>1463.7246</ele>
        <time>2016-09-20T06:58:41Z</time>
      </trkpt>
      <trkpt lat="45.56346" lon="6.53164">
        <ele>1465.059</ele>
        <time>2016-09-20T06:58:54Z</time>
      </trkpt>
      <trkpt lat="45.5635" lon="6.53178">
        <ele>1466.8372</ele>
        <time>2016-09-20T06:59:05Z</time>
      </trkpt>
      <trkpt lat="45.5635" lon="6.53193">
        <ele>1467.9205</ele>
        <time>2016-09-20T06:59:15Z</time>
      </trkpt>
      <trkpt lat="45.56354" lon="6.53206">
        <ele>1468.6498</ele>
        <time>2016-09-20T06:59:27Z</time>
      </trkpt>
      <trkpt lat="45.56359" lon="6.53217">
        <ele>1469.3263</ele>
        <time>2016-09-20T06:59:36Z</time>
      </trkpt>
      <trkpt lat="45.56364" lon="6.5323">
        <ele>1469.5878</ele>
        <time>2016-09-20T06:59:46Z</time>
      </trkpt>
      <trkpt lat="45.56369" lon="6.53241">
        <ele>1470.7557</ele>
        <time>2016-09-20T06:59:53Z</time>
      </trkpt>
      <trkpt lat="45.56375" lon="6.53251">
        <ele>1471.5907</ele>
        <time>2016-09-20T07:00:01Z</time>
      </trkpt>
      <trkpt lat="45.56379" lon="6.53264">
        <ele>1474.0321</ele>
        <time>2016-09-20T07:00:14Z</time>
      </trkpt>
      <trkpt lat="45.5638" lon="6.53278">
        <ele>1475.6439</ele>
        <time>2016-09-20T07:00:27Z</time>
      </trkpt>
      <trkpt lat="45.56388" lon="6.53287">
        <ele>1478.1593</ele>
        <time>2016-09-20T07:00:40Z</time>
      </trkpt>
      <trkpt lat="45.56388" lon="6.533">
        <ele>1479.9984</ele>
        <time>2016-09-20T07:00:52Z</time>
      </trkpt>
      <trkpt lat="45.56389" lon="6.53313">
        <ele>1482.0831</ele>
        <time>2016-09-20T07:01:01Z</time>
      </trkpt>
      <trkpt lat="45.5639" lon="6.53326">
        <ele>1484.4875</ele>
        <time>2016-09-20T07:01:18Z</time>
      </trkpt>
      <trkpt lat="45.56392" lon="6.5334">
        <ele>1485.9038</ele>
        <time>2016-09-20T07:01:27Z</time>
      </trkpt>
      <trkpt lat="45.56395" lon="6.53352">
        <ele>1488.2766</ele>
        <time>2016-09-20T07:01:43Z</time>
      </trkpt>
      <trkpt lat="45.56389" lon="6.53363">
        <ele>1491.82</ele>
        <time>2016-09-20T07:01:58Z</time>
      </trkpt>
      <trkpt lat="45.56394" lon="6.53373">
        <ele>1492.2136</ele>
        <time>2016-09-20T07:02:06Z</time>
      </trkpt>
      <trkpt lat="45.56397" lon="6.53387">
        <ele>1493.0935</ele>
        <time>2016-09-20T07:02:15Z</time>
      </trkpt>
      <trkpt lat="45.564" lon="6.53399">
        <ele>1492.9694</ele>
        <time>2016-09-20T07:02:33Z</time>
      </trkpt>
      <trkpt lat="45.56406" lon="6.53411">
        <ele>1493.1199</ele>
        <time>2016-09-20T07:02:40Z</time>
      </trkpt>
      <trkpt lat="45.56415" lon="6.53418">
        <ele>1494.6709</ele>
        <time>2016-09-20T07:02:52Z</time>
      </trkpt>
      <trkpt lat="45.56421" lon="6.5343">
        <ele>1495.6724</ele>
        <time>2016-09-20T07:03:03Z</time>
      </trkpt>
      <trkpt lat="45.56418" lon="6.53442">
        <ele>1499.7811</ele>
        <time>2016-09-20T07:03:13Z</time>
      </trkpt>
      <trkpt lat="45.56426" lon="6.53451">
        <ele>1499.575</ele>
        <time>2016-09-20T07:03:20Z</time>
      </trkpt>
      <trkpt lat="45.56428" lon="6.53464">
        <ele>1501.3928</ele>
        <time>2016-09-20T07:03:31Z</time>
      </trkpt>
      <trkpt lat="45.56432" lon="6.53476">
        <ele>1503.4407</ele>
        <time>2016-09-20T07:03:45Z</time>
      </trkpt>
      <trkpt lat="45.56438" lon="6.53487">
        <ele>1505.4778</ele>
        <time>2016-09-20T07:03:57Z</time>
      </trkpt>
      <trkpt lat="45.56442" lon="6.53499">
        <ele>1507.0499</ele>
        <time>2016-09-20T07:04:13Z</time>
      </trkpt>
      <trkpt lat="45.5645" lon="6.53506">
        <ele>1510.5536</ele>
        <time>2016-09-20T07:04:26Z</time>
      </trkpt>
      <trkpt lat="45.56455" lon="6.53518">
        <ele>1512.8577</ele>
        <time>2016-09-20T07:04:40Z</time>
      </trkpt>
      <trkpt lat="45.56459" lon="6.53531">
        <ele>1515.5713</ele>
        <time>2016-09-20T07:04:55Z</time>
      </trkpt>
      <trkpt lat="45.56462" lon="6.53543">
        <ele>1518.9243</ele>
        <time>2016-09-20T07:05:11Z</time>
      </trkpt>
      <trkpt lat="45.56463" lon="6.53556">
        <ele>1521.9683</ele>
        <time>2016-09-20T07:05:28Z</time>
      </trkpt>
      <trkpt lat="45.56465" lon="6.53569">
        <ele>1524.6792</ele>
        <time>2016-09-20T07:05:44Z</time>
      </trkpt>
      <trkpt lat="45.56466" lon="6.53583">
        <ele>1527.0098</ele>
        <time>2016-09-20T07:05:59Z</time>
      </trkpt>
      <trkpt lat="45.5647" lon="6.53594">
        <ele>1529.9796</ele>
        <time>2016-09-20T07:06:19Z</time>
      </trkpt>
      <trkpt lat="45.5647" lon="6.53608">
        <ele>1532.894</ele>
        <time>2016-09-20T07:06:35Z</time>
      </trkpt>
      <trkpt lat="45.56472" lon="6.53622">
        <ele>1535.8772</ele>
        <time>2016-09-20T07:06:55Z</time>
      </trkpt>
      <trkpt lat="45.56471" lon="6.53636">
        <ele>1537.3304</ele>
        <time>2016-09-20T07:07:04Z</time>
      </trkpt>
      <trkpt lat="45.56471" lon="6.5365">
        <ele>1538.1681</ele>
        <time>2016-09-20T07:07:14Z</time>
      </trkpt>
      <trkpt lat="45.56469" lon="6.53665">
        <ele>1540.3057</ele>
        <time>2016-09-20T07:07:26Z</time>
      </trkpt>
      <trkpt lat="45.5647" lon="6.53677">
        <ele>1542.4353</ele>
        <time>2016-09-20T07:07:38Z</time>
      </trkpt>
      <trkpt lat="45.56473" lon="6.53689">
        <ele>1544.4698</ele>
        <time>2016-09-20T07:07:52Z</time>
      </trkpt>
      <trkpt lat="45.56477" lon="6.53702">
        <ele>1547.4108</ele>
        <time>2016-09-20T07:08:12Z</time>
      </trkpt>
      <trkpt lat="45.56479" lon="6.53716">
        <ele>1549.395</ele>
        <time>2016-09-20T07:08:29Z</time>
      </trkpt>
      <trkpt lat="45.56484" lon="6.53727">
        <ele>1553.4536</ele>
        <time>2016-09-20T07:08:41Z</time>
      </trkpt>
      <trkpt lat="45.56487" lon="6.53739">
        <ele>1556.5239</ele>
        <time>2016-09-20T07:09:03Z</time>
      </trkpt>
      <trkpt lat="45.56488" lon="6.53752">
        <ele>1558.5294</ele>
        <time>2016-09-20T07:09:18Z</time>
      </trkpt>
      <trkpt lat="45.56492" lon="6.53763">
        <ele>1562.4374</ele>
        <time>2016-09-20T07:09:33Z</time>
      </trkpt>
      <trkpt lat="45.56497" lon="6.53775">
        <ele>1564.2235</ele>
        <time>2016-09-20T07:09:50Z</time>
      </trkpt>
      <trkpt lat="45.56498" lon="6.53796">
        <ele>1567.3573</ele>
        <time>2016-09-20T07:10:15Z</time>
      </trkpt>
      <trkpt lat="45.56493" lon="6.53807">
        <ele>1569.7009</ele>
        <time>2016-09-20T07:10:28Z</time>
      </trkpt>
      <trkpt lat="45.56497" lon="6.53818">
        <ele>1571.7856</ele>
        <time>2016-09-20T07:10:43Z</time>
      </trkpt>
      <trkpt lat="45.56504" lon="6.53829">
        <ele>1575.0093</ele>
        <time>2016-09-20T07:10:55Z</time>
      </trkpt>
      <trkpt lat="45.56501" lon="6.53842">
        <ele>1576.6792</ele>
        <time>2016-09-20T07:11:08Z</time>
      </trkpt>
      <trkpt lat="45.56507" lon="6.53852">
        <ele>1578.9885</ele>
        <time>2016-09-20T07:11:20Z</time>
      </trkpt>
      <trkpt lat="45.56515" lon="6.53859">
        <ele>1579.266</ele>
        <time>2016-09-20T07:11:29Z</time>
      </trkpt>
      <trkpt lat="45.56524" lon="6.53856">
        <ele>1581.7365</ele>
        <time>2016-09-20T07:11:48Z</time>
      </trkpt>
      <trkpt lat="45.56533" lon="6.53854">
        <ele>1584.7856</ele>
        <time>2016-09-20T07:12:02Z</time>
      </trkpt>
      <trkpt lat="45.56542" lon="6.5386">
        <ele>1587.1532</ele>
        <time>2016-09-20T07:12:21Z</time>
      </trkpt>
      <trkpt lat="45.56551" lon="6.53863">
        <ele>1589.8535</ele>
        <time>2016-09-20T07:12:38Z</time>
      </trkpt>
      <trkpt lat="45.5656" lon="6.5386">
        <ele>1590.8815</ele>
        <time>2016-09-20T07:12:52Z</time>
      </trkpt>
      <trkpt lat="45.56568" lon="6.53859">
        <ele>1593.455</ele>
        <time>2016-09-20T07:13:10Z</time>
      </trkpt>
      <trkpt lat="45.56574" lon="6.53869">
        <ele>1595.4473</ele>
        <time>2016-09-20T07:13:24Z</time>
      </trkpt>
      <trkpt lat="45.56583" lon="6.53873">
        <ele>1599.5057</ele>
        <time>2016-09-20T07:13:42Z</time>
      </trkpt>
      <trkpt lat="45.5659" lon="6.53881">
        <ele>1601.3448</ele>
        <time>2016-09-20T07:13:54Z</time>
      </trkpt>
      <trkpt lat="45.56598" lon="6.53889">
        <ele>1603.8259</ele>
        <time>2016-09-20T07:14:07Z</time>
      </trkpt>
      <trkpt lat="45.56612" lon="6.53894">
        <ele>1607.607</ele>
        <time>2016-09-20T07:14:38Z</time>
      </trkpt>
      <trkpt lat="45.5662" lon="6.53901">
        <ele>1608.9757</ele>
        <time>2016-09-20T07:14:49Z</time>
      </trkpt>
      <trkpt lat="45.56628" lon="6.53911">
        <ele>1609.5808</ele>
        <time>2016-09-20T07:15:02Z</time>
      </trkpt>
      <trkpt lat="45.56635" lon="6.5392">
        <ele>1610.9706</ele>
        <time>2016-09-20T07:15:10Z</time>
      </trkpt>
      <trkpt lat="45.56644" lon="6.53928">
        <ele>1612.0143</ele>
        <time>2016-09-20T07:15:19Z</time>
      </trkpt>
      <trkpt lat="45.56653" lon="6.53934">
        <ele>1611.0209</ele>
        <time>2016-09-20T07:15:29Z</time>
      </trkpt>
      <trkpt lat="45.56661" lon="6.5394">
        <ele>1613.7715</ele>
        <time>2016-09-20T07:15:39Z</time>
      </trkpt>
      <trkpt lat="45.56667" lon="6.53951">
        <ele>1615.5074</ele>
        <time>2016-09-20T07:15:50Z</time>
      </trkpt>
      <trkpt lat="45.56673" lon="6.53961">
        <ele>1616.0042</ele>
        <time>2016-09-20T07:16:01Z</time>
      </trkpt>
      <trkpt lat="45.56676" lon="6.53973">
        <ele>1620.903</ele>
        <time>2016-09-20T07:16:13Z</time>
      </trkpt>
      <trkpt lat="45.56679" lon="6.53986">
        <ele>1620.6361</ele>
        <time>2016-09-20T07:16:31Z</time>
      </trkpt>
      <trkpt lat="45.56684" lon="6.53998">
        <ele>1625.3921</ele>
        <time>2016-09-20T07:16:44Z</time>
      </trkpt>
      <trkpt lat="45.56688" lon="6.5401">
        <ele>1628.5735</ele>
        <time>2016-09-20T07:17:00Z</time>
      </trkpt>
      <trkpt lat="45.56694" lon="6.54022">
        <ele>1629.9421</ele>
        <time>2016-09-20T07:17:27Z</time>
      </trkpt>
      <trkpt lat="45.56698" lon="6.54034">
        <ele>1630.6185</ele>
        <time>2016-09-20T07:17:36Z</time>
      </trkpt>
      <trkpt lat="45.56704" lon="6.54046">
        <ele>1630.9938</ele>
        <time>2016-09-20T07:17:44Z</time>
      </trkpt>
      <trkpt lat="45.56712" lon="6.54052">
        <ele>1630.2804</ele>
        <time>2016-09-20T07:17:50Z</time>
      </trkpt>
      <trkpt lat="45.56719" lon="6.54062">
        <ele>1633.0996</ele>
        <time>2016-09-20T07:17:58Z</time>
      </trkpt>
      <trkpt lat="45.56727" lon="6.54071">
        <ele>1633.5356</ele>
        <time>2016-09-20T07:18:08Z</time>
      </trkpt>
      <trkpt lat="45.56732" lon="6.54081">
        <ele>1633.2661</ele>
        <time>2016-09-20T07:18:18Z</time>
      </trkpt>
      <trkpt lat="45.56736" lon="6.54094">
        <ele>1635.9084</ele>
        <time>2016-09-20T07:18:30Z</time>
      </trkpt>
      <trkpt lat="45.5674" lon="6.54106">
        <ele>1637.3458</ele>
        <time>2016-09-20T07:18:39Z</time>
      </trkpt>
      <trkpt lat="45.56747" lon="6.54114">
        <ele>1637.4119</ele>
        <time>2016-09-20T07:18:51Z</time>
      </trkpt>
      <trkpt lat="45.5676" lon="6.54131">
        <ele>1641.6368</ele>
        <time>2016-09-20T07:24:57Z</time>
      </trkpt>
      <trkpt lat="45.56765" lon="6.54142">
        <ele>1644.6094</ele>
        <time>2016-09-20T07:25:14Z</time>
      </trkpt>
      <trkpt lat="45.56774" lon="6.54148">
        <ele>1646.5674</ele>
        <time>2016-09-20T07:25:29Z</time>
      </trkpt>
      <trkpt lat="45.56773" lon="6.54135">
        <ele>1649.9495</ele>
        <time>2016-09-20T07:25:43Z</time>
      </trkpt>
      <trkpt lat="45.56778" lon="6.54123">
        <ele>1652.0977</ele>
        <time>2016-09-20T07:25:52Z</time>
      </trkpt>
      <trkpt lat="45.56782" lon="6.54111">
        <ele>1652.4993</ele>
        <time>2016-09-20T07:26:05Z</time>
      </trkpt>
      <trkpt lat="45.56788" lon="6.54101">
        <ele>1655.3344</ele>
        <time>2016-09-20T07:26:20Z</time>
      </trkpt>
      <trkpt lat="45.56794" lon="6.54111">
        <ele>1659.2582</ele>
        <time>2016-09-20T07:26:34Z</time>
      </trkpt>
      <trkpt lat="45.56799" lon="6.54122">
        <ele>1660.9678</ele>
        <time>2016-09-20T07:26:54Z</time>
      </trkpt>
      <trkpt lat="45.56806" lon="6.54132">
        <ele>1663.3167</ele>
        <time>2016-09-20T07:27:09Z</time>
      </trkpt>
      <trkpt lat="45.56811" lon="6.54143">
        <ele>1665.4015</ele>
        <time>2016-09-20T07:27:21Z</time>
      </trkpt>
      <trkpt lat="45.56816" lon="6.54154">
        <ele>1668.2869</ele>
        <time>2016-09-20T07:27:35Z</time>
      </trkpt>
      <trkpt lat="45.56821" lon="6.54165">
        <ele>1671.2303</ele>
        <time>2016-09-20T07:27:50Z</time>
      </trkpt>
      <trkpt lat="45.56824" lon="6.54173">
        <ele>1673.4868</ele>
        <time>2016-09-20T07:28:08Z</time>
      </trkpt>
      <trkpt lat="45.56824" lon="6.54173">
        <ele>1673.4868</ele>
        <time>2016-09-20T07:28:08Z</time>
      </trkpt>
      <trkpt lat="45.56829" lon="6.54187">
        <ele>1674.7366</ele>
        <time>2016-09-20T07:28:53Z</time>
      </trkpt>
      <trkpt lat="45.56839" lon="6.54193">
        <ele>1676.4647</ele>
        <time>2016-09-20T07:29:14Z</time>
      </trkpt>
      <trkpt lat="45.56852" lon="6.54198">
        <ele>1677.5745</ele>
        <time>2016-09-20T07:29:30Z</time>
      </trkpt>
      <trkpt lat="45.56861" lon="6.54201">
        <ele>1678.0844</ele>
        <time>2016-09-20T07:29:42Z</time>
      </trkpt>
      <trkpt lat="45.56868" lon="6.54211">
        <ele>1679.4716</ele>
        <time>2016-09-20T07:29:52Z</time>
      </trkpt>
      <trkpt lat="45.56873" lon="6.54222">
        <ele>1681.1045</ele>
        <time>2016-09-20T07:30:03Z</time>
      </trkpt>
      <trkpt lat="45.56881" lon="6.5423">
        <ele>1683.0571</ele>
        <time>2016-09-20T07:30:16Z</time>
      </trkpt>
      <trkpt lat="45.56891" lon="6.54234">
        <ele>1684.6425</ele>
        <time>2016-09-20T07:30:27Z</time>
      </trkpt>
      <trkpt lat="45.569" lon="6.54233">
        <ele>1686.7563</ele>
        <time>2016-09-20T07:30:39Z</time>
      </trkpt>
      <trkpt lat="45.56905" lon="6.54244">
        <ele>1687.6785</ele>
        <time>2016-09-20T07:30:51Z</time>
      </trkpt>
      <trkpt lat="45.5691" lon="6.54248">
        <ele>1689.7368</ele>
        <time>2016-09-20T07:31:09Z</time>
      </trkpt>
      <trkpt lat="45.56918" lon="6.54257">
        <ele>1692.2152</ele>
        <time>2016-09-20T07:31:25Z</time>
      </trkpt>
      <trkpt lat="45.56928" lon="6.5426">
        <ele>1695.46</ele>
        <time>2016-09-20T07:31:40Z</time>
      </trkpt>
      <trkpt lat="45.56936" lon="6.54267">
        <ele>1698.3083</ele>
        <time>2016-09-20T07:31:54Z</time>
      </trkpt>
      <trkpt lat="45.56945" lon="6.54272">
        <ele>1701.0669</ele>
        <time>2016-09-20T07:32:10Z</time>
      </trkpt>
      <trkpt lat="45.56957" lon="6.5427">
        <ele>1704.5758</ele>
        <time>2016-09-20T07:32:37Z</time>
      </trkpt>
      <trkpt lat="45.56966" lon="6.54267">
        <ele>1708.2485</ele>
        <time>2016-09-20T07:32:54Z</time>
      </trkpt>
      <trkpt lat="45.56975" lon="6.54267">
        <ele>1709.8419</ele>
        <time>2016-09-20T07:33:11Z</time>
      </trkpt>
      <trkpt lat="45.56984" lon="6.54268">
        <ele>1712.5925</ele>
        <time>2016-09-20T07:33:27Z</time>
      </trkpt>
      <trkpt lat="45.56988" lon="6.5427">
        <ele>1715.3246</ele>
        <time>2016-09-20T07:33:46Z</time>
      </trkpt>
      <trkpt lat="45.56996" lon="6.54278">
        <ele>1717.0394</ele>
        <time>2016-09-20T07:33:59Z</time>
      </trkpt>
      <trkpt lat="45.57005" lon="6.54283">
        <ele>1719.1611</ele>
        <time>2016-09-20T07:34:10Z</time>
      </trkpt>
      <trkpt lat="45.57012" lon="6.54291">
        <ele>1722.0624</ele>
        <time>2016-09-20T07:34:22Z</time>
      </trkpt>
      <trkpt lat="45.57019" lon="6.54301">
        <ele>1723.978</ele>
        <time>2016-09-20T07:34:35Z</time>
      </trkpt>
      <trkpt lat="45.57026" lon="6.54309">
        <ele>1724.5936</ele>
        <time>2016-09-20T07:34:49Z</time>
      </trkpt>
      <trkpt lat="45.57034" lon="6.54316">
        <ele>1728.75</ele>
        <time>2016-09-20T07:35:10Z</time>
      </trkpt>
      <trkpt lat="45.57042" lon="6.54324">
        <ele>1731.49</ele>
        <time>2016-09-20T07:35:36Z</time>
      </trkpt>
      <trkpt lat="45.5705" lon="6.5433">
        <ele>1735.641</ele>
        <time>2016-09-20T07:35:56Z</time>
      </trkpt>
      <trkpt lat="45.57057" lon="6.54339">
        <ele>1737.7944</ele>
        <time>2016-09-20T07:36:15Z</time>
      </trkpt>
      <trkpt lat="45.57065" lon="6.54347">
        <ele>1743.0685</ele>
        <time>2016-09-20T07:36:32Z</time>
      </trkpt>
      <trkpt lat="45.57074" lon="6.54355">
        <ele>1746.4426</ele>
        <time>2016-09-20T07:36:59Z</time>
      </trkpt>
      <trkpt lat="45.57082" lon="6.5436">
        <ele>1749.3915</ele>
        <time>2016-09-20T07:37:17Z</time>
      </trkpt>
      <trkpt lat="45.5709" lon="6.54368">
        <ele>1749.8406</ele>
        <time>2016-09-20T07:37:30Z</time>
      </trkpt>
      <trkpt lat="45.57098" lon="6.54375">
        <ele>1753.1329</ele>
        <time>2016-09-20T07:37:43Z</time>
      </trkpt>
      <trkpt lat="45.57106" lon="6.54382">
        <ele>1754.7764</ele>
        <time>2016-09-20T07:37:54Z</time>
      </trkpt>
      <trkpt lat="45.57113" lon="6.54392">
        <ele>1756.6498</ele>
        <time>2016-09-20T07:38:08Z</time>
      </trkpt>
      <trkpt lat="45.57122" lon="6.54399">
        <ele>1758.5945</ele>
        <time>2016-09-20T07:38:21Z</time>
      </trkpt>
      <trkpt lat="45.57128" lon="6.54408">
        <ele>1759.7253</ele>
        <time>2016-09-20T07:38:36Z</time>
      </trkpt>
      <trkpt lat="45.57136" lon="6.54414">
        <ele>1762.3015</ele>
        <time>2016-09-20T07:38:49Z</time>
      </trkpt>
      <trkpt lat="45.57145" lon="6.54419">
        <ele>1765.3428</ele>
        <time>2016-09-20T07:39:01Z</time>
      </trkpt>
      <trkpt lat="45.57154" lon="6.54425">
        <ele>1765.2239</ele>
        <time>2016-09-20T07:39:11Z</time>
      </trkpt>
      <trkpt lat="45.57163" lon="6.54429">
        <ele>1766.6058</ele>
        <time>2016-09-20T07:39:21Z</time>
      </trkpt>
      <trkpt lat="45.57171" lon="6.54438">
        <ele>1768.7117</ele>
        <time>2016-09-20T07:39:32Z</time>
      </trkpt>
      <trkpt lat="45.57177" lon="6.54448">
        <ele>1768.7672</ele>
        <time>2016-09-20T07:39:43Z</time>
      </trkpt>
      <trkpt lat="45.57184" lon="6.54457">
        <ele>1768.8993</ele>
        <time>2016-09-20T07:39:52Z</time>
      </trkpt>
      <trkpt lat="45.5719" lon="6.54468">
        <ele>1770.2178</ele>
        <time>2016-09-20T07:40:02Z</time>
      </trkpt>
      <trkpt lat="45.57198" lon="6.5448">
        <ele>1770.5376</ele>
        <time>2016-09-20T07:43:09Z</time>
      </trkpt>
      <trkpt lat="45.57205" lon="6.54489">
        <ele>1774.065</ele>
        <time>2016-09-20T07:43:20Z</time>
      </trkpt>
      <trkpt lat="45.57212" lon="6.54499">
        <ele>1775.0267</ele>
        <time>2016-09-20T07:43:30Z</time>
      </trkpt>
      <trkpt lat="45.57219" lon="6.54508">
        <ele>1773.0927</ele>
        <time>2016-09-20T07:43:38Z</time>
      </trkpt>
      <trkpt lat="45.57225" lon="6.54517">
        <ele>1773.3198</ele>
        <time>2016-09-20T07:43:46Z</time>
      </trkpt>
      <trkpt lat="45.57232" lon="6.54527">
        <ele>1773.7584</ele>
        <time>2016-09-20T07:43:55Z</time>
      </trkpt>
      <trkpt lat="45.57238" lon="6.54537">
        <ele>1775.3993</ele>
        <time>2016-09-20T07:44:03Z</time>
      </trkpt>
      <trkpt lat="45.57245" lon="6.54547">
        <ele>1775.9277</ele>
        <time>2016-09-20T07:44:11Z</time>
      </trkpt>
      <trkpt lat="45.57251" lon="6.54557">
        <ele>1775.4548</ele>
        <time>2016-09-20T07:44:21Z</time>
      </trkpt>
      <trkpt lat="45.5726" lon="6.54562">
        <ele>1776.0387</ele>
        <time>2016-09-20T07:44:29Z</time>
      </trkpt>
      <trkpt lat="45.57269" lon="6.54563">
        <ele>1777.2251</ele>
        <time>2016-09-20T07:44:38Z</time>
      </trkpt>
      <trkpt lat="45.57279" lon="6.54561">
        <ele>1777.9729</ele>
        <time>2016-09-20T07:44:46Z</time>
      </trkpt>
      <trkpt lat="45.57288" lon="6.54562">
        <ele>1777.3203</ele>
        <time>2016-09-20T07:44:53Z</time>
      </trkpt>
      <trkpt lat="45.57297" lon="6.54562">
        <ele>1777.6505</ele>
        <time>2016-09-20T07:45:00Z</time>
      </trkpt>
      <trkpt lat="45.57307" lon="6.54563">
        <ele>1778.2292</ele>
        <time>2016-09-20T07:45:08Z</time>
      </trkpt>
      <trkpt lat="45.57315" lon="6.54568">
        <ele>1778.5569</ele>
        <time>2016-09-20T07:45:15Z</time>
      </trkpt>
      <trkpt lat="45.57324" lon="6.54573">
        <ele>1779.1196</ele>
        <time>2016-09-20T07:45:24Z</time>
      </trkpt>
      <trkpt lat="45.57332" lon="6.54579">
        <ele>1778.6044</ele>
        <time>2016-09-20T07:45:32Z</time>
      </trkpt>
      <trkpt lat="45.57341" lon="6.54584">
        <ele>1779.2438</ele>
        <time>2016-09-20T07:45:40Z</time>
      </trkpt>
      <trkpt lat="45.57351" lon="6.54587">
        <ele>1780.1765</ele>
        <time>2016-09-20T07:45:48Z</time>
      </trkpt>
      <trkpt lat="45.57361" lon="6.5459">
        <ele>1782.005</ele>
        <time>2016-09-20T07:45:57Z</time>
      </trkpt>
      <trkpt lat="45.57369" lon="6.54594">
        <ele>1781.8094</ele>
        <time>2016-09-20T07:46:07Z</time>
      </trkpt>
      <trkpt lat="45.57377" lon="6.54601">
        <ele>1782.832</ele>
        <time>2016-09-20T07:46:17Z</time>
      </trkpt>
      <trkpt lat="45.57387" lon="6.54618">
        <ele>1785.3845</ele>
        <time>2016-09-20T07:47:04Z</time>
      </trkpt>
      <trkpt lat="45.57389" lon="6.54632">
        <ele>1784.6552</ele>
        <time>2016-09-20T07:47:17Z</time>
      </trkpt>
      <trkpt lat="45.57391" lon="6.54645">
        <ele>1787.9421</ele>
        <time>2016-09-20T07:47:29Z</time>
      </trkpt>
      <trkpt lat="45.57393" lon="6.54658">
        <ele>1790.1484</ele>
        <time>2016-09-20T07:47:40Z</time>
      </trkpt>
      <trkpt lat="45.57398" lon="6.5467">
        <ele>1790.8011</ele>
        <time>2016-09-20T07:47:50Z</time>
      </trkpt>
      <trkpt lat="45.57404" lon="6.5468">
        <ele>1792.0298</ele>
        <time>2016-09-20T07:48:01Z</time>
      </trkpt>
      <trkpt lat="45.5741" lon="6.5469">
        <ele>1792.5239</ele>
        <time>2016-09-20T07:48:13Z</time>
      </trkpt>
      <trkpt lat="45.57417" lon="6.54699">
        <ele>1794.7804</ele>
        <time>2016-09-20T07:48:23Z</time>
      </trkpt>
      <trkpt lat="45.57421" lon="6.5471">
        <ele>1796.2733</ele>
        <time>2016-09-20T07:48:31Z</time>
      </trkpt>
      <trkpt lat="45.57427" lon="6.54722">
        <ele>1796.9207</ele>
        <time>2016-09-20T07:48:40Z</time>
      </trkpt>
      <trkpt lat="45.57433" lon="6.54733">
        <ele>1797.1927</ele>
        <time>2016-09-20T07:48:51Z</time>
      </trkpt>
      <trkpt lat="45.57437" lon="6.54744">
        <ele>1799.1217</ele>
        <time>2016-09-20T07:49:04Z</time>
      </trkpt>
      <trkpt lat="45.57444" lon="6.54752">
        <ele>1801.9779</ele>
        <time>2016-09-20T07:49:18Z</time>
      </trkpt>
      <trkpt lat="45.57452" lon="6.54758">
        <ele>1804.1685</ele>
        <time>2016-09-20T07:49:34Z</time>
      </trkpt>
      <trkpt lat="45.5746" lon="6.54767">
        <ele>1806.166</ele>
        <time>2016-09-20T07:49:47Z</time>
      </trkpt>
      <trkpt lat="45.57468" lon="6.54772">
        <ele>1806.388</ele>
        <time>2016-09-20T07:49:58Z</time>
      </trkpt>
      <trkpt lat="45.57476" lon="6.54778">
        <ele>1809.8176</ele>
        <time>2016-09-20T07:50:09Z</time>
      </trkpt>
      <trkpt lat="45.5748" lon="6.5479">
        <ele>1810.4596</ele>
        <time>2016-09-20T07:50:27Z</time>
      </trkpt>
      <trkpt lat="45.57472" lon="6.54798">
        <ele>1813.6753</ele>
        <time>2016-09-20T07:50:40Z</time>
      </trkpt>
      <trkpt lat="45.57465" lon="6.54807">
        <ele>1812.6211</ele>
        <time>2016-09-20T07:50:50Z</time>
      </trkpt>
      <trkpt lat="45.57459" lon="6.54818">
        <ele>1814.3807</ele>
        <time>2016-09-20T07:51:02Z</time>
      </trkpt>
      <trkpt lat="45.5745" lon="6.54825">
        <ele>1815.2871</ele>
        <time>2016-09-20T07:51:12Z</time>
      </trkpt>
      <trkpt lat="45.5744" lon="6.54823">
        <ele>1818.0325</ele>
        <time>2016-09-20T07:51:24Z</time>
      </trkpt>
      <trkpt lat="45.57431" lon="6.54822">
        <ele>1817.7418</ele>
        <time>2016-09-20T07:51:36Z</time>
      </trkpt>
      <trkpt lat="45.57423" lon="6.54828">
        <ele>1820.3867</ele>
        <time>2016-09-20T07:51:50Z</time>
      </trkpt>
      <trkpt lat="45.57431" lon="6.54842">
        <ele>1824.4796</ele>
        <time>2016-09-20T07:52:26Z</time>
      </trkpt>
      <trkpt lat="45.57439" lon="6.54848">
        <ele>1826.448</ele>
        <time>2016-09-20T07:52:37Z</time>
      </trkpt>
      <trkpt lat="45.57446" lon="6.54855">
        <ele>1829.5765</ele>
        <time>2016-09-20T07:52:49Z</time>
      </trkpt>
      <trkpt lat="45.57452" lon="6.54866">
        <ele>1830.1604</ele>
        <time>2016-09-20T07:53:03Z</time>
      </trkpt>
      <trkpt lat="45.57457" lon="6.54877">
        <ele>1831.9413</ele>
        <time>2016-09-20T07:53:17Z</time>
      </trkpt>
      <trkpt lat="45.57462" lon="6.54888">
        <ele>1834.9905</ele>
        <time>2016-09-20T07:53:35Z</time>
      </trkpt>
      <trkpt lat="45.57468" lon="6.54898">
        <ele>1836.8085</ele>
        <time>2016-09-20T07:53:47Z</time>
      </trkpt>
      <trkpt lat="45.57473" lon="6.5491">
        <ele>1840.5208</ele>
        <time>2016-09-20T07:54:00Z</time>
      </trkpt>
      <trkpt lat="45.57476" lon="6.54923">
        <ele>1842.2859</ele>
        <time>2016-09-20T07:54:12Z</time>
      </trkpt>
      <trkpt lat="45.5748" lon="6.54935">
        <ele>1842.9094</ele>
        <time>2016-09-20T07:54:29Z</time>
      </trkpt>
      <trkpt lat="45.57483" lon="6.54948">
        <ele>1844.7908</ele>
        <time>2016-09-20T07:54:43Z</time>
      </trkpt>
      <trkpt lat="45.57487" lon="6.54962">
        <ele>1848.1464</ele>
        <time>2016-09-20T07:55:01Z</time>
      </trkpt>
      <trkpt lat="45.5749" lon="6.5497">
        <ele>1851.0714</ele>
        <time>2016-09-20T07:55:23Z</time>
      </trkpt>
      <trkpt lat="45.57494" lon="6.54981">
        <ele>1852.9342</ele>
        <time>2016-09-20T07:55:35Z</time>
      </trkpt>
      <trkpt lat="45.57498" lon="6.54994">
        <ele>1855.5553</ele>
        <time>2016-09-20T07:55:50Z</time>
      </trkpt>
      <trkpt lat="45.57503" lon="6.55005">
        <ele>1856.6625</ele>
        <time>2016-09-20T07:56:03Z</time>
      </trkpt>
      <trkpt lat="45.57507" lon="6.55017">
        <ele>1859.8279</ele>
        <time>2016-09-20T07:56:17Z</time>
      </trkpt>
      <trkpt lat="45.57512" lon="6.55028">
        <ele>1861.474</ele>
        <time>2016-09-20T07:56:32Z</time>
      </trkpt>
      <trkpt lat="45.57516" lon="6.55041">
        <ele>1864.7505</ele>
        <time>2016-09-20T07:56:46Z</time>
      </trkpt>
      <trkpt lat="45.57521" lon="6.55045">
        <ele>1866.0214</ele>
        <time>2016-09-20T07:57:08Z</time>
      </trkpt>
      <trkpt lat="45.57527" lon="6.55056">
        <ele>1867.7811</ele>
        <time>2016-09-20T07:57:21Z</time>
      </trkpt>
      <trkpt lat="45.57534" lon="6.55065">
        <ele>1870.2094</ele>
        <time>2016-09-20T07:57:35Z</time>
      </trkpt>
      <trkpt lat="45.5754" lon="6.55075">
        <ele>1871.919</ele>
        <time>2016-09-20T07:57:49Z</time>
      </trkpt>
      <trkpt lat="45.57547" lon="6.55083">
        <ele>1872.8807</ele>
        <time>2016-09-20T07:58:03Z</time>
      </trkpt>
      <trkpt lat="45.57553" lon="6.55093">
        <ele>1876.4847</ele>
        <time>2016-09-20T07:58:18Z</time>
      </trkpt>
      <trkpt lat="45.57558" lon="6.55104">
        <ele>1876.3289</ele>
        <time>2016-09-20T07:58:30Z</time>
      </trkpt>
      <trkpt lat="45.57563" lon="6.55115">
        <ele>1877.9486</ele>
        <time>2016-09-20T07:58:42Z</time>
      </trkpt>
      <trkpt lat="45.57571" lon="6.55123">
        <ele>1880.7362</ele>
        <time>2016-09-20T07:58:51Z</time>
      </trkpt>
      <trkpt lat="45.57579" lon="6.55131">
        <ele>1881.6213</ele>
        <time>2016-09-20T07:59:01Z</time>
      </trkpt>
      <trkpt lat="45.57587" lon="6.55137">
        <ele>1881.8539</ele>
        <time>2016-09-20T07:59:14Z</time>
      </trkpt>
      <trkpt lat="45.57597" lon="6.55138">
        <ele>1884.2716</ele>
        <time>2016-09-20T07:59:28Z</time>
      </trkpt>
      <trkpt lat="45.57605" lon="6.55131">
        <ele>1886.1687</ele>
        <time>2016-09-20T07:59:44Z</time>
      </trkpt>
      <trkpt lat="45.57617" lon="6.55133">
        <ele>1890.2273</ele>
        <time>2016-09-20T08:00:10Z</time>
      </trkpt>
      <trkpt lat="45.57624" lon="6.55142">
        <ele>1891.5828</ele>
        <time>2016-09-20T08:00:21Z</time>
      </trkpt>
      <trkpt lat="45.57629" lon="6.55154">
        <ele>1893.0333</ele>
        <time>2016-09-20T08:00:34Z</time>
      </trkpt>
      <trkpt lat="45.57634" lon="6.55165">
        <ele>1893.5935</ele>
        <time>2016-09-20T08:00:47Z</time>
      </trkpt>
      <trkpt lat="45.57639" lon="6.55176">
        <ele>1897.372</ele>
        <time>2016-09-20T08:01:02Z</time>
      </trkpt>
      <trkpt lat="45.57642" lon="6.55189">
        <ele>1899.1158</ele>
        <time>2016-09-20T08:01:20Z</time>
      </trkpt>
      <trkpt lat="45.57645" lon="6.55202">
        <ele>1902.5931</ele>
        <time>2016-09-20T08:01:35Z</time>
      </trkpt>
      <trkpt lat="45.5765" lon="6.55217">
        <ele>1905.6476</ele>
        <time>2016-09-20T08:02:11Z</time>
      </trkpt>
      <trkpt lat="45.57652" lon="6.5523">
        <ele>1905.9303</ele>
        <time>2016-09-20T08:02:25Z</time>
      </trkpt>
      <trkpt lat="45.57654" lon="6.55244">
        <ele>1909.4075</ele>
        <time>2016-09-20T08:02:38Z</time>
      </trkpt>
      <trkpt lat="45.57656" lon="6.55257">
        <ele>1910.8951</ele>
        <time>2016-09-20T08:02:49Z</time>
      </trkpt>
      <trkpt lat="45.57658" lon="6.5527">
        <ele>1912.0525</ele>
        <time>2016-09-20T08:03:00Z</time>
      </trkpt>
      <trkpt lat="45.57657" lon="6.55284">
        <ele>1911.8384</ele>
        <time>2016-09-20T08:03:11Z</time>
      </trkpt>
      <trkpt lat="45.57655" lon="6.55296">
        <ele>1914.9193</ele>
        <time>2016-09-20T08:03:22Z</time>
      </trkpt>
      <trkpt lat="45.57656" lon="6.55309">
        <ele>1916.6235</ele>
        <time>2016-09-20T08:03:34Z</time>
      </trkpt>
      <trkpt lat="45.57659" lon="6.55322">
        <ele>1917.5748</ele>
        <time>2016-09-20T08:03:46Z</time>
      </trkpt>
      <trkpt lat="45.57665" lon="6.55332">
        <ele>1918.4257</ele>
        <time>2016-09-20T08:03:56Z</time>
      </trkpt>
      <trkpt lat="45.57671" lon="6.55341">
        <ele>1917.736</ele>
        <time>2016-09-20T08:04:04Z</time>
      </trkpt>
      <trkpt lat="45.5768" lon="6.55346">
        <ele>1917.4031</ele>
        <time>2016-09-20T08:04:12Z</time>
      </trkpt>
      <trkpt lat="45.57689" lon="6.5535">
        <ele>1916.1136</ele>
        <time>2016-09-20T08:04:20Z</time>
      </trkpt>
      <trkpt lat="45.577" lon="6.5535">
        <ele>1915.173</ele>
        <time>2016-09-20T08:04:30Z</time>
      </trkpt>
      <trkpt lat="45.57708" lon="6.55341">
        <ele>1915.4716</ele>
        <time>2016-09-20T08:04:39Z</time>
      </trkpt>
      <trkpt lat="45.57713" lon="6.55331">
        <ele>1916.8112</ele>
        <time>2016-09-20T08:04:48Z</time>
      </trkpt>
      <trkpt lat="45.57722" lon="6.55323">
        <ele>1917.4823</ele>
        <time>2016-09-20T08:04:58Z</time>
      </trkpt>
      <trkpt lat="45.57732" lon="6.55323">
        <ele>1919.044</ele>
        <time>2016-09-20T08:05:12Z</time>
      </trkpt>
      <trkpt lat="45.57739" lon="6.5533">
        <ele>1919.6569</ele>
        <time>2016-09-20T08:05:21Z</time>
      </trkpt>
      <trkpt lat="45.57746" lon="6.55338">
        <ele>1921.7231</ele>
        <time>2016-09-20T08:05:32Z</time>
      </trkpt>
      <trkpt lat="45.5775" lon="6.5535">
        <ele>1923.9559</ele>
        <time>2016-09-20T08:05:45Z</time>
      </trkpt>
      <trkpt lat="45.57757" lon="6.55359">
        <ele>1926.2256</ele>
        <time>2016-09-20T08:05:56Z</time>
      </trkpt>
      <trkpt lat="45.57766" lon="6.55363">
        <ele>1927.9061</ele>
        <time>2016-09-20T08:06:08Z</time>
      </trkpt>
      <trkpt lat="45.57774" lon="6.55367">
        <ele>1929.2167</ele>
        <time>2016-09-20T08:06:18Z</time>
      </trkpt>
      <trkpt lat="45.57784" lon="6.55372">
        <ele>1931.0398</ele>
        <time>2016-09-20T08:06:31Z</time>
      </trkpt>
      <trkpt lat="45.57793" lon="6.5537">
        <ele>1932.7283</ele>
        <time>2016-09-20T08:06:42Z</time>
      </trkpt>
      <trkpt lat="45.57802" lon="6.55369">
        <ele>1933.1774</ele>
        <time>2016-09-20T08:06:51Z</time>
      </trkpt>
      <trkpt lat="45.57812" lon="6.55366">
        <ele>1934.7681</ele>
        <time>2016-09-20T08:07:03Z</time>
      </trkpt>
      <trkpt lat="45.5782" lon="6.5536">
        <ele>1935.5581</ele>
        <time>2016-09-20T08:07:14Z</time>
      </trkpt>
      <trkpt lat="45.5783" lon="6.55361">
        <ele>1937.2598</ele>
        <time>2016-09-20T08:07:24Z</time>
      </trkpt>
      <trkpt lat="45.57838" lon="6.55358">
        <ele>1938.4857</ele>
        <time>2016-09-20T08:07:34Z</time>
      </trkpt>
      <trkpt lat="45.57848" lon="6.55355">
        <ele>1939.8016</ele>
        <time>2016-09-20T08:07:45Z</time>
      </trkpt>
      <trkpt lat="45.57857" lon="6.55356">
        <ele>1941.2152</ele>
        <time>2016-09-20T08:07:56Z</time>
      </trkpt>
      <trkpt lat="45.57867" lon="6.55358">
        <ele>1942.7926</ele>
        <time>2016-09-20T08:08:08Z</time>
      </trkpt>
      <trkpt lat="45.57877" lon="6.55359">
        <ele>1943.6884</ele>
        <time>2016-09-20T08:08:21Z</time>
      </trkpt>
      <trkpt lat="45.57886" lon="6.55359">
        <ele>1944.7928</ele>
        <time>2016-09-20T08:08:31Z</time>
      </trkpt>
      <trkpt lat="45.57895" lon="6.5536">
        <ele>1946.875</ele>
        <time>2016-09-20T08:08:43Z</time>
      </trkpt>
      <trkpt lat="45.579" lon="6.55373">
        <ele>1948.1538</ele>
        <time>2016-09-20T08:08:56Z</time>
      </trkpt>
      <trkpt lat="45.57892" lon="6.55381">
        <ele>1950.2069</ele>
        <time>2016-09-20T08:09:11Z</time>
      </trkpt>
      <trkpt lat="45.57884" lon="6.55387">
        <ele>1951.2611</ele>
        <time>2016-09-20T08:09:24Z</time>
      </trkpt>
      <trkpt lat="45.57877" lon="6.55397">
        <ele>1952.4661</ele>
        <time>2016-09-20T08:09:33Z</time>
      </trkpt>
      <trkpt lat="45.57871" lon="6.55406">
        <ele>1954.1439</ele>
        <time>2016-09-20T08:09:44Z</time>
      </trkpt>
      <trkpt lat="45.57863" lon="6.55415">
        <ele>1954.9735</ele>
        <time>2016-09-20T08:09:55Z</time>
      </trkpt>
      <trkpt lat="45.57857" lon="6.55426">
        <ele>1957.2644</ele>
        <time>2016-09-20T08:10:05Z</time>
      </trkpt>
      <trkpt lat="45.57853" lon="6.55438">
        <ele>1958.3451</ele>
        <time>2016-09-20T08:10:15Z</time>
      </trkpt>
      <trkpt lat="45.57846" lon="6.55448">
        <ele>1959.4945</ele>
        <time>2016-09-20T08:10:28Z</time>
      </trkpt>
      <trkpt lat="45.57838" lon="6.55455">
        <ele>1961.5343</ele>
        <time>2016-09-20T08:10:43Z</time>
      </trkpt>
      <trkpt lat="45.5783" lon="6.55462">
        <ele>1963.1223</ele>
        <time>2016-09-20T08:10:54Z</time>
      </trkpt>
      <trkpt lat="45.57823" lon="6.55471">
        <ele>1964.4117</ele>
        <time>2016-09-20T08:11:05Z</time>
      </trkpt>
      <trkpt lat="45.57818" lon="6.55481">
        <ele>1965.4951</ele>
        <time>2016-09-20T08:11:15Z</time>
      </trkpt>
      <trkpt lat="45.57812" lon="6.55493">
        <ele>1966.1213</ele>
        <time>2016-09-20T08:11:26Z</time>
      </trkpt>
      <trkpt lat="45.57807" lon="6.55505">
        <ele>1967.4344</ele>
        <time>2016-09-20T08:11:36Z</time>
      </trkpt>
      <trkpt lat="45.57803" lon="6.55517">
        <ele>1968.1532</ele>
        <time>2016-09-20T08:11:46Z</time>
      </trkpt>
      <trkpt lat="45.578" lon="6.55529">
        <ele>1969.8601</ele>
        <time>2016-09-20T08:11:59Z</time>
      </trkpt>
      <trkpt lat="45.57805" lon="6.5554">
        <ele>1971.7546</ele>
        <time>2016-09-20T08:12:13Z</time>
      </trkpt>
      <trkpt lat="45.57808" lon="6.55553">
        <ele>1972.1166</ele>
        <time>2016-09-20T08:12:23Z</time>
      </trkpt>
      <trkpt lat="45.57811" lon="6.55568">
        <ele>1971.9316</ele>
        <time>2016-09-20T08:12:34Z</time>
      </trkpt>
      <trkpt lat="45.57813" lon="6.5558">
        <ele>1972.0955</ele>
        <time>2016-09-20T08:12:43Z</time>
      </trkpt>
      <trkpt lat="45.57816" lon="6.55593">
        <ele>1972.9991</ele>
        <time>2016-09-20T08:12:53Z</time>
      </trkpt>
      <trkpt lat="45.57819" lon="6.55606">
        <ele>1973.8446</ele>
        <time>2016-09-20T08:13:03Z</time>
      </trkpt>
      <trkpt lat="45.57822" lon="6.55618">
        <ele>1974.7008</ele>
        <time>2016-09-20T08:13:13Z</time>
      </trkpt>
      <trkpt lat="45.57826" lon="6.5563">
        <ele>1975.3058</ele>
        <time>2016-09-20T08:13:25Z</time>
      </trkpt>
      <trkpt lat="45.57833" lon="6.55638">
        <ele>1975.6599</ele>
        <time>2016-09-20T08:13:34Z</time>
      </trkpt>
      <trkpt lat="45.57838" lon="6.55649">
        <ele>1975.7577</ele>
        <time>2016-09-20T08:13:45Z</time>
      </trkpt>
      <trkpt lat="45.57844" lon="6.5566">
        <ele>1976.4658</ele>
        <time>2016-09-20T08:13:56Z</time>
      </trkpt>
      <trkpt lat="45.5785" lon="6.5567">
        <ele>1978.4607</ele>
        <time>2016-09-20T08:14:05Z</time>
      </trkpt>
      <trkpt lat="45.57854" lon="6.55682">
        <ele>1978.8834</ele>
        <time>2016-09-20T08:14:15Z</time>
      </trkpt>
      <trkpt lat="45.57855" lon="6.55696">
        <ele>1978.3894</ele>
        <time>2016-09-20T08:14:26Z</time>
      </trkpt>
      <trkpt lat="45.57858" lon="6.55709">
        <ele>1978.7461</ele>
        <time>2016-09-20T08:14:35Z</time>
      </trkpt>
      <trkpt lat="45.57859" lon="6.55722">
        <ele>1978.9521</ele>
        <time>2016-09-20T08:14:45Z</time>
      </trkpt>
      <trkpt lat="45.57862" lon="6.55736">
        <ele>1977.5967</ele>
        <time>2016-09-20T08:14:56Z</time>
      </trkpt>
      <trkpt lat="45.57859" lon="6.55748">
        <ele>1977.7816</ele>
        <time>2016-09-20T08:15:07Z</time>
      </trkpt>
      <trkpt lat="45.57853" lon="6.55758">
        <ele>1978.9521</ele>
        <time>2016-09-20T08:15:29Z</time>
      </trkpt>
      <trkpt lat="45.57852" lon="6.55771">
        <ele>1980.1254</ele>
        <time>2016-09-20T08:15:41Z</time>
      </trkpt>
      <trkpt lat="45.57849" lon="6.55776">
        <ele>1979.0764</ele>
        <time>2016-09-20T08:15:57Z</time>
      </trkpt>
      <trkpt lat="45.57843" lon="6.55786">
        <ele>1979.9906</ele>
        <time>2016-09-20T08:16:07Z</time>
      </trkpt>
      <trkpt lat="45.57837" lon="6.55796">
        <ele>1979.6418</ele>
        <time>2016-09-20T08:16:19Z</time>
      </trkpt>
      <trkpt lat="45.57828" lon="6.55798">
        <ele>1979.6656</ele>
        <time>2016-09-20T08:16:31Z</time>
      </trkpt>
      <trkpt lat="45.57832" lon="6.55805">
        <ele>1982.0621</ele>
        <time>2016-09-20T08:24:54Z</time>
      </trkpt>
      <trkpt lat="45.57841" lon="6.55807">
        <ele>1981.8375</ele>
        <time>2016-09-20T08:25:04Z</time>
      </trkpt>
      <trkpt lat="45.57851" lon="6.55807">
        <ele>1981.9089</ele>
        <time>2016-09-20T08:25:13Z</time>
      </trkpt>
      <trkpt lat="45.5786" lon="6.55804">
        <ele>1982.8179</ele>
        <time>2016-09-20T08:25:21Z</time>
      </trkpt>
      <trkpt lat="45.57869" lon="6.55804">
        <ele>1982.5007</ele>
        <time>2016-09-20T08:25:28Z</time>
      </trkpt>
      <trkpt lat="45.57877" lon="6.55795">
        <ele>1983.3754</ele>
        <time>2016-09-20T08:25:35Z</time>
      </trkpt>
      <trkpt lat="45.57887" lon="6.55795">
        <ele>1983.7584</ele>
        <time>2016-09-20T08:25:43Z</time>
      </trkpt>
      <trkpt lat="45.57896" lon="6.55797">
        <ele>1984.2975</ele>
        <time>2016-09-20T08:25:52Z</time>
      </trkpt>
      <trkpt lat="45.57904" lon="6.5579">
        <ele>1984.3635</ele>
        <time>2016-09-20T08:25:59Z</time>
      </trkpt>
      <trkpt lat="45.57913" lon="6.55768">
        <ele>1985.3174</ele>
        <time>2016-09-20T08:26:33Z</time>
      </trkpt>
      <trkpt lat="45.57917" lon="6.55755">
        <ele>1985.6001</ele>
        <time>2016-09-20T08:26:46Z</time>
      </trkpt>
      <trkpt lat="45.57922" lon="6.55744">
        <ele>1989.5187</ele>
        <time>2016-09-20T08:27:00Z</time>
      </trkpt>
      <trkpt lat="45.57932" lon="6.55742">
        <ele>1992.2164</ele>
        <time>2016-09-20T08:27:15Z</time>
      </trkpt>
      <trkpt lat="45.57941" lon="6.55744">
        <ele>1995.1018</ele>
        <time>2016-09-20T08:27:28Z</time>
      </trkpt>
      <trkpt lat="45.57951" lon="6.55747">
        <ele>1997.8788</ele>
        <time>2016-09-20T08:27:39Z</time>
      </trkpt>
      <trkpt lat="45.5796" lon="6.55754">
        <ele>1997.3794</ele>
        <time>2016-09-20T08:27:50Z</time>
      </trkpt>
      <trkpt lat="45.57967" lon="6.55765">
        <ele>1997.8445</ele>
        <time>2016-09-20T08:28:10Z</time>
      </trkpt>
      <trkpt lat="45.57972" lon="6.55775">
        <ele>1999.6174</ele>
        <time>2016-09-20T08:28:21Z</time>
      </trkpt>
      <trkpt lat="45.57978" lon="6.55784">
        <ele>2002.9308</ele>
        <time>2016-09-20T08:28:32Z</time>
      </trkpt>
      <trkpt lat="45.57983" lon="6.55795">
        <ele>2002.7855</ele>
        <time>2016-09-20T08:28:44Z</time>
      </trkpt>
      <trkpt lat="45.5799" lon="6.55805">
        <ele>2005.3115</ele>
        <time>2016-09-20T08:28:55Z</time>
      </trkpt>
      <trkpt lat="45.57995" lon="6.55816">
        <ele>2005.1292</ele>
        <time>2016-09-20T08:29:04Z</time>
      </trkpt>
      <trkpt lat="45.58001" lon="6.55828">
        <ele>2006.1068</ele>
        <time>2016-09-20T08:29:14Z</time>
      </trkpt>
      <trkpt lat="45.58007" lon="6.55838">
        <ele>2008.3898</ele>
        <time>2016-09-20T08:29:27Z</time>
      </trkpt>
      <trkpt lat="45.58012" lon="6.55848">
        <ele>2008.2365</ele>
        <time>2016-09-20T08:29:41Z</time>
      </trkpt>
      <trkpt lat="45.58019" lon="6.55857">
        <ele>2011.1377</ele>
        <time>2016-09-20T08:29:54Z</time>
      </trkpt>
      <trkpt lat="45.58027" lon="6.55865">
        <ele>2012.99</ele>
        <time>2016-09-20T08:30:07Z</time>
      </trkpt>
      <trkpt lat="45.58034" lon="6.55875">
        <ele>2013.5845</ele>
        <time>2016-09-20T08:30:19Z</time>
      </trkpt>
      <trkpt lat="45.58041" lon="6.55884">
        <ele>2017.6456</ele>
        <time>2016-09-20T08:30:33Z</time>
      </trkpt>
      <trkpt lat="45.58048" lon="6.55892">
        <ele>2017.1145</ele>
        <time>2016-09-20T08:30:45Z</time>
      </trkpt>
      <trkpt lat="45.58053" lon="6.55905">
        <ele>2022.0582</ele>
        <time>2016-09-20T08:31:08Z</time>
      </trkpt>
      <trkpt lat="45.58061" lon="6.55912">
        <ele>2024.2963</ele>
        <time>2016-09-20T08:31:20Z</time>
      </trkpt>
      <trkpt lat="45.58065" lon="6.55924">
        <ele>2025.62</ele>
        <time>2016-09-20T08:31:30Z</time>
      </trkpt>
      <trkpt lat="45.58069" lon="6.55936">
        <ele>2026.0295</ele>
        <time>2016-09-20T08:31:41Z</time>
      </trkpt>
      <trkpt lat="45.58075" lon="6.55947">
        <ele>2027.821</ele>
        <time>2016-09-20T08:31:51Z</time>
      </trkpt>
      <trkpt lat="45.58083" lon="6.55955">
        <ele>2028.9202</ele>
        <time>2016-09-20T08:32:03Z</time>
      </trkpt>
      <trkpt lat="45.58091" lon="6.55961">
        <ele>2030.8861</ele>
        <time>2016-09-20T08:32:15Z</time>
      </trkpt>
      <trkpt lat="45.58101" lon="6.55961">
        <ele>2031.4489</ele>
        <time>2016-09-20T08:32:26Z</time>
      </trkpt>
      <trkpt lat="45.58111" lon="6.55962">
        <ele>2031.1212</ele>
        <time>2016-09-20T08:32:35Z</time>
      </trkpt>
      <trkpt lat="45.5812" lon="6.55965">
        <ele>2033.2694</ele>
        <time>2016-09-20T08:32:46Z</time>
      </trkpt>
      <trkpt lat="45.5813" lon="6.55966">
        <ele>2035.1692</ele>
        <time>2016-09-20T08:32:58Z</time>
      </trkpt>
      <trkpt lat="45.58139" lon="6.5597">
        <ele>2035.0582</ele>
        <time>2016-09-20T08:33:09Z</time>
      </trkpt>
      <trkpt lat="45.58148" lon="6.55972">
        <ele>2035.8165</ele>
        <time>2016-09-20T08:33:18Z</time>
      </trkpt>
      <trkpt lat="45.58158" lon="6.55972">
        <ele>2038.7627</ele>
        <time>2016-09-20T08:33:29Z</time>
      </trkpt>
      <trkpt lat="45.58167" lon="6.55974">
        <ele>2040.2582</ele>
        <time>2016-09-20T08:33:40Z</time>
      </trkpt>
      <trkpt lat="45.58177" lon="6.55976">
        <ele>2041.1962</ele>
        <time>2016-09-20T08:33:51Z</time>
      </trkpt>
      <trkpt lat="45.58186" lon="6.5598">
        <ele>2041.7908</ele>
        <time>2016-09-20T08:34:01Z</time>
      </trkpt>
      <trkpt lat="45.58194" lon="6.55984">
        <ele>2044.0366</ele>
        <time>2016-09-20T08:34:12Z</time>
      </trkpt>
      <trkpt lat="45.58203" lon="6.55989">
        <ele>2044.1741</ele>
        <time>2016-09-20T08:34:23Z</time>
      </trkpt>
      <trkpt lat="45.58212" lon="6.55993">
        <ele>2045.6141</ele>
        <time>2016-09-20T08:34:35Z</time>
      </trkpt>
      <trkpt lat="45.58224" lon="6.55999">
        <ele>2049.0518</ele>
        <time>2016-09-20T08:34:57Z</time>
      </trkpt>
      <trkpt lat="45.58233" lon="6.56004">
        <ele>2050.1404</ele>
        <time>2016-09-20T08:35:07Z</time>
      </trkpt>
      <trkpt lat="45.58241" lon="6.56011">
        <ele>2050.4998</ele>
        <time>2016-09-20T08:35:16Z</time>
      </trkpt>
      <trkpt lat="45.5825" lon="6.56017">
        <ele>2051.6199</ele>
        <time>2016-09-20T08:35:26Z</time>
      </trkpt>
      <trkpt lat="45.58255" lon="6.56027">
        <ele>2052.0613</ele>
        <time>2016-09-20T08:35:37Z</time>
      </trkpt>
      <trkpt lat="45.58263" lon="6.56034">
        <ele>2053.1208</ele>
        <time>2016-09-20T08:35:47Z</time>
      </trkpt>
      <trkpt lat="45.5827" lon="6.56042">
        <ele>2054.3494</ele>
        <time>2016-09-20T08:35:58Z</time>
      </trkpt>
      <trkpt lat="45.58276" lon="6.56052">
        <ele>2055.7473</ele>
        <time>2016-09-20T08:36:08Z</time>
      </trkpt>
      <trkpt lat="45.58283" lon="6.5606">
        <ele>2057.9165</ele>
        <time>2016-09-20T08:36:20Z</time>
      </trkpt>
      <trkpt lat="45.58289" lon="6.56071">
        <ele>2061.0662</ele>
        <time>2016-09-20T08:36:36Z</time>
      </trkpt>
      <trkpt lat="45.58295" lon="6.5608">
        <ele>2060.136</ele>
        <time>2016-09-20T08:36:46Z</time>
      </trkpt>
      <trkpt lat="45.58301" lon="6.5609">
        <ele>2061.1455</ele>
        <time>2016-09-20T08:36:56Z</time>
      </trkpt>
      <trkpt lat="45.583" lon="6.56104">
        <ele>2063.9727</ele>
        <time>2016-09-20T08:37:06Z</time>
      </trkpt>
      <trkpt lat="45.58295" lon="6.56114">
        <ele>2062.6199</ele>
        <time>2016-09-20T08:37:32Z</time>
      </trkpt>
      <trkpt lat="45.58298" lon="6.56111">
        <ele>2064.5037</ele>
        <time>2016-09-20T08:43:26Z</time>
      </trkpt>
      <trkpt lat="45.58307" lon="6.56111">
        <ele>2063.217</ele>
        <time>2016-09-20T08:43:57Z</time>
      </trkpt>
      <trkpt lat="45.58316" lon="6.56106">
        <ele>2064.1392</ele>
        <time>2016-09-20T08:44:21Z</time>
      </trkpt>
      <trkpt lat="45.58323" lon="6.56105">
        <ele>2066.5647</ele>
        <time>2016-09-20T08:44:47Z</time>
      </trkpt>
      <trkpt lat="45.58332" lon="6.56107">
        <ele>2064.99</ele>
        <time>2016-09-20T08:44:55Z</time>
      </trkpt>
      <trkpt lat="45.58341" lon="6.56112">
        <ele>2066.3691</ele>
        <time>2016-09-20T08:45:03Z</time>
      </trkpt>
      <trkpt lat="45.58347" lon="6.56123">
        <ele>2066.171</ele>
        <time>2016-09-20T08:45:13Z</time>
      </trkpt>
      <trkpt lat="45.58353" lon="6.56133">
        <ele>2066.9082</ele>
        <time>2016-09-20T08:45:21Z</time>
      </trkpt>
      <trkpt lat="45.58362" lon="6.56139">
        <ele>2067.3442</ele>
        <time>2016-09-20T08:45:28Z</time>
      </trkpt>
      <trkpt lat="45.58372" lon="6.56146">
        <ele>2069.1672</ele>
        <time>2016-09-20T08:45:39Z</time>
      </trkpt>
      <trkpt lat="45.5838" lon="6.56154">
        <ele>2066.4563</ele>
        <time>2016-09-20T08:45:47Z</time>
      </trkpt>
      <trkpt lat="45.58389" lon="6.5616">
        <ele>2066.6414</ele>
        <time>2016-09-20T08:45:54Z</time>
      </trkpt>
      <trkpt lat="45.58395" lon="6.56168">
        <ele>2066.842</ele>
        <time>2016-09-20T08:46:04Z</time>
      </trkpt>
      <trkpt lat="45.58403" lon="6.56178">
        <ele>2066.9082</ele>
        <time>2016-09-20T08:46:13Z</time>
      </trkpt>
      <trkpt lat="45.58409" lon="6.56188">
        <ele>2068.6943</ele>
        <time>2016-09-20T08:46:23Z</time>
      </trkpt>
      <trkpt lat="45.58418" lon="6.56196">
        <ele>2068.8953</ele>
        <time>2016-09-20T08:46:32Z</time>
      </trkpt>
      <trkpt lat="45.58425" lon="6.56207">
        <ele>2069.4634</ele>
        <time>2016-09-20T08:46:42Z</time>
      </trkpt>
      <trkpt lat="45.58431" lon="6.56218">
        <ele>2071.112</ele>
        <time>2016-09-20T08:46:49Z</time>
      </trkpt>
      <trkpt lat="45.58437" lon="6.56227">
        <ele>2072.2615</ele>
        <time>2016-09-20T08:46:57Z</time>
      </trkpt>
      <trkpt lat="45.5844" lon="6.56236">
        <ele>2073.4346</ele>
        <time>2016-09-20T08:47:13Z</time>
      </trkpt>
      <trkpt lat="45.58448" lon="6.56243">
        <ele>2073.8071</ele>
        <time>2016-09-20T08:47:34Z</time>
      </trkpt>
      <trkpt lat="45.58456" lon="6.56247">
        <ele>2075.4402</ele>
        <time>2016-09-20T08:47:46Z</time>
      </trkpt>
      <trkpt lat="45.58466" lon="6.56246">
        <ele>2076.8484</ele>
        <time>2016-09-20T08:47:56Z</time>
      </trkpt>
      <trkpt lat="45.58476" lon="6.5625">
        <ele>2078.1697</ele>
        <time>2016-09-20T08:48:09Z</time>
      </trkpt>
      <trkpt lat="45.58484" lon="6.56255">
        <ele>2082.2493</ele>
        <time>2016-09-20T08:48:24Z</time>
      </trkpt>
      <trkpt lat="45.58494" lon="6.56259">
        <ele>2082.8174</ele>
        <time>2016-09-20T08:48:38Z</time>
      </trkpt>
      <trkpt lat="45.58503" lon="6.56257">
        <ele>2086.1255</ele>
        <time>2016-09-20T08:48:49Z</time>
      </trkpt>
      <trkpt lat="45.58511" lon="6.56264">
        <ele>2086.2654</ele>
        <time>2016-09-20T08:49:00Z</time>
      </trkpt>
      <trkpt lat="45.5852" lon="6.56269">
        <ele>2089.0398</ele>
        <time>2016-09-20T08:49:14Z</time>
      </trkpt>
      <trkpt lat="45.58524" lon="6.56273">
        <ele>2088.4111</ele>
        <time>2016-09-20T08:49:34Z</time>
      </trkpt>
      <trkpt lat="45.5853" lon="6.56283">
        <ele>2091.83</ele>
        <time>2016-09-20T08:49:50Z</time>
      </trkpt>
      <trkpt lat="45.58529" lon="6.56296">
        <ele>2094.5676</ele>
        <time>2016-09-20T08:50:03Z</time>
      </trkpt>
      <trkpt lat="45.58527" lon="6.56309">
        <ele>2096.98</ele>
        <time>2016-09-20T08:50:21Z</time>
      </trkpt>
      <trkpt lat="45.58538" lon="6.56312">
        <ele>2100.3381</ele>
        <time>2016-09-20T08:51:00Z</time>
      </trkpt>
      <trkpt lat="45.58546" lon="6.56319">
        <ele>2103.6938</ele>
        <time>2016-09-20T08:51:13Z</time>
      </trkpt>
      <trkpt lat="45.58553" lon="6.56328">
        <ele>2105.4272</ele>
        <time>2016-09-20T08:51:24Z</time>
      </trkpt>
      <trkpt lat="45.58559" lon="6.56339">
        <ele>2106.7668</ele>
        <time>2016-09-20T08:51:37Z</time>
      </trkpt>
      <trkpt lat="45.58566" lon="6.56347">
        <ele>2107.6653</ele>
        <time>2016-09-20T08:51:49Z</time>
      </trkpt>
      <trkpt lat="45.58574" lon="6.56356">
        <ele>2109.441</ele>
        <time>2016-09-20T08:52:02Z</time>
      </trkpt>
      <trkpt lat="45.58582" lon="6.5636">
        <ele>2110.77</ele>
        <time>2016-09-20T08:52:13Z</time>
      </trkpt>
      <trkpt lat="45.58591" lon="6.56368">
        <ele>2110.6113</ele>
        <time>2016-09-20T08:52:23Z</time>
      </trkpt>
      <trkpt lat="45.58598" lon="6.56376">
        <ele>2113.1719</ele>
        <time>2016-09-20T08:52:35Z</time>
      </trkpt>
      <trkpt lat="45.58609" lon="6.56384">
        <ele>2114.5615</ele>
        <time>2016-09-20T08:53:06Z</time>
      </trkpt>
      <trkpt lat="45.58617" lon="6.5639">
        <ele>2116.7468</ele>
        <time>2016-09-20T08:53:18Z</time>
      </trkpt>
      <trkpt lat="45.58626" lon="6.56397">
        <ele>2118.6755</ele>
        <time>2016-09-20T08:53:31Z</time>
      </trkpt>
      <trkpt lat="45.58635" lon="6.56402">
        <ele>2121.326</ele>
        <time>2016-09-20T08:53:43Z</time>
      </trkpt>
      <trkpt lat="45.58643" lon="6.56408">
        <ele>2122.9666</ele>
        <time>2016-09-20T08:53:53Z</time>
      </trkpt>
      <trkpt lat="45.58651" lon="6.56416">
        <ele>2124.1135</ele>
        <time>2016-09-20T08:54:06Z</time>
      </trkpt>
      <trkpt lat="45.58658" lon="6.56424">
        <ele>2124.6182</ele>
        <time>2016-09-20T08:54:16Z</time>
      </trkpt>
      <trkpt lat="45.58667" lon="6.56429">
        <ele>2126.531</ele>
        <time>2016-09-20T08:54:25Z</time>
      </trkpt>
      <trkpt lat="45.5867" lon="6.56438">
        <ele>2127.588</ele>
        <time>2016-09-20T08:54:55Z</time>
      </trkpt>
      <trkpt lat="45.58678" lon="6.56446">
        <ele>2129.1443</ele>
        <time>2016-09-20T08:55:05Z</time>
      </trkpt>
      <trkpt lat="45.58685" lon="6.56455">
        <ele>2130.5024</ele>
        <time>2016-09-20T08:55:15Z</time>
      </trkpt>
      <trkpt lat="45.58693" lon="6.56464">
        <ele>2133.0178</ele>
        <time>2016-09-20T08:55:30Z</time>
      </trkpt>
      <trkpt lat="45.58702" lon="6.56471">
        <ele>2134.4077</ele>
        <time>2016-09-20T08:55:43Z</time>
      </trkpt>
      <trkpt lat="45.58709" lon="6.56479">
        <ele>2135.7554</ele>
        <time>2016-09-20T08:55:53Z</time>
      </trkpt>
      <trkpt lat="45.58716" lon="6.56487">
        <ele>2137.6523</ele>
        <time>2016-09-20T08:56:04Z</time>
      </trkpt>
      <trkpt lat="45.58725" lon="6.56493">
        <ele>2138.881</ele>
        <time>2016-09-20T08:56:15Z</time>
      </trkpt>
      <trkpt lat="45.58733" lon="6.56499">
        <ele>2139.5522</ele>
        <time>2016-09-20T08:56:27Z</time>
      </trkpt>
      <trkpt lat="45.58741" lon="6.5651">
        <ele>2143.0215</ele>
        <time>2016-09-20T08:57:09Z</time>
      </trkpt>
      <trkpt lat="45.58748" lon="6.5652">
        <ele>2145.2754</ele>
        <time>2016-09-20T08:57:22Z</time>
      </trkpt>
      <trkpt lat="45.58754" lon="6.56529">
        <ele>2147.1594</ele>
        <time>2016-09-20T08:57:32Z</time>
      </trkpt>
      <trkpt lat="45.58758" lon="6.56541">
        <ele>2149.0776</ele>
        <time>2016-09-20T08:57:45Z</time>
      </trkpt>
      <trkpt lat="45.58763" lon="6.56552">
        <ele>2150.19</ele>
        <time>2016-09-20T08:57:58Z</time>
      </trkpt>
      <trkpt lat="45.58769" lon="6.56561">
        <ele>2151.873</ele>
        <time>2016-09-20T08:58:10Z</time>
      </trkpt>
      <trkpt lat="45.58777" lon="6.5657">
        <ele>2153.9817</ele>
        <time>2016-09-20T08:58:21Z</time>
      </trkpt>
      <trkpt lat="45.58782" lon="6.56578">
        <ele>2155.3477</ele>
        <time>2016-09-20T08:58:57Z</time>
      </trkpt>
      <trkpt lat="45.58791" lon="6.56583">
        <ele>2156.7534</ele>
        <time>2016-09-20T08:59:08Z</time>
      </trkpt>
      <trkpt lat="45.58799" lon="6.56588">
        <ele>2157.776</ele>
        <time>2016-09-20T08:59:17Z</time>
      </trkpt>
      <trkpt lat="45.58809" lon="6.56587">
        <ele>2159.3428</ele>
        <time>2016-09-20T08:59:27Z</time>
      </trkpt>
      <trkpt lat="45.58819" lon="6.56591">
        <ele>2160.862</ele>
        <time>2016-09-20T08:59:36Z</time>
      </trkpt>
      <trkpt lat="45.58828" lon="6.56592">
        <ele>2163.0447</ele>
        <time>2016-09-20T08:59:48Z</time>
      </trkpt>
      <trkpt lat="45.58838" lon="6.56595">
        <ele>2164.4082</ele>
        <time>2016-09-20T09:00:00Z</time>
      </trkpt>
      <trkpt lat="45.58847" lon="6.56597">
        <ele>2164.0566</ele>
        <time>2016-09-20T09:00:09Z</time>
      </trkpt>
      <trkpt lat="45.58844" lon="6.56585">
        <ele>2164.4397</ele>
        <time>2016-09-20T09:00:18Z</time>
      </trkpt>
      <trkpt lat="45.58846" lon="6.56572">
        <ele>2165.6023</ele>
        <time>2016-09-20T09:01:37Z</time>
      </trkpt>
      <trkpt lat="45.58856" lon="6.56574">
        <ele>2166.6594</ele>
        <time>2016-09-20T09:01:49Z</time>
      </trkpt>
      <trkpt lat="45.58865" lon="6.56578">
        <ele>2167.872</ele>
        <time>2016-09-20T09:02:04Z</time>
      </trkpt>
      <trkpt lat="45.58873" lon="6.56586">
        <ele>2169.8354</ele>
        <time>2016-09-20T09:02:15Z</time>
      </trkpt>
      <trkpt lat="45.5888" lon="6.56593">
        <ele>2171.3625</ele>
        <time>2016-09-20T09:02:30Z</time>
      </trkpt>
      <trkpt lat="45.58889" lon="6.56599">
        <ele>2172.0283</ele>
        <time>2016-09-20T09:02:42Z</time>
      </trkpt>
      <trkpt lat="45.58896" lon="6.56609">
        <ele>2173.7856</ele>
        <time>2016-09-20T09:02:54Z</time>
      </trkpt>
      <trkpt lat="45.58899" lon="6.56621">
        <ele>2174.9402</ele>
        <time>2016-09-20T09:03:04Z</time>
      </trkpt>
      <trkpt lat="45.58902" lon="6.56634">
        <ele>2175.8914</ele>
        <time>2016-09-20T09:03:16Z</time>
      </trkpt>
      <trkpt lat="45.58907" lon="6.56646">
        <ele>2176.5864</ele>
        <time>2016-09-20T09:03:30Z</time>
      </trkpt>
      <trkpt lat="45.58913" lon="6.56656">
        <ele>2180.534</ele>
        <time>2016-09-20T09:03:43Z</time>
      </trkpt>
      <trkpt lat="45.5892" lon="6.56665">
        <ele>2182.6318</ele>
        <time>2016-09-20T09:03:55Z</time>
      </trkpt>
      <trkpt lat="45.58926" lon="6.56676">
        <ele>2184.64</ele>
        <time>2016-09-20T09:04:11Z</time>
      </trkpt>
      <trkpt lat="45.58932" lon="6.56685">
        <ele>2185.01</ele>
        <time>2016-09-20T09:04:24Z</time>
      </trkpt>
      <trkpt lat="45.58939" lon="6.56694">
        <ele>2187.4011</ele>
        <time>2016-09-20T09:04:38Z</time>
      </trkpt>
      <trkpt lat="45.58943" lon="6.56701">
        <ele>2187.454</ele>
        <time>2016-09-20T09:05:03Z</time>
      </trkpt>
      <trkpt lat="45.58952" lon="6.56714">
        <ele>2190.2363</ele>
        <time>2016-09-20T09:05:36Z</time>
      </trkpt>
      <trkpt lat="45.58961" lon="6.56719">
        <ele>2190.4346</ele>
        <time>2016-09-20T09:05:48Z</time>
      </trkpt>
      <trkpt lat="45.58969" lon="6.56725">
        <ele>2194.3345</ele>
        <time>2016-09-20T09:06:05Z</time>
      </trkpt>
      <trkpt lat="45.58979" lon="6.56725">
        <ele>2199.0298</ele>
        <time>2016-09-20T09:06:27Z</time>
      </trkpt>
      <trkpt lat="45.58991" lon="6.56728">
        <ele>2203.432</ele>
        <time>2016-09-20T09:07:00Z</time>
      </trkpt>
      <trkpt lat="45.59004" lon="6.56734">
        <ele>2207.0754</ele>
        <time>2016-09-20T09:07:40Z</time>
      </trkpt>
      <trkpt lat="45.59007" lon="6.56737">
        <ele>2207.5828</ele>
        <time>2016-09-20T09:08:00Z</time>
      </trkpt>
      <trkpt lat="45.59016" lon="6.56733">
        <ele>2211.3455</ele>
        <time>2016-09-20T09:08:20Z</time>
      </trkpt>
      <trkpt lat="45.59019" lon="6.56726">
        <ele>2214.7988</ele>
        <time>2016-09-20T09:08:54Z</time>
      </trkpt>
      <trkpt lat="45.59026" lon="6.56721">
        <ele>2217.4358</ele>
        <time>2016-09-20T09:09:30Z</time>
      </trkpt>
      <trkpt lat="45.59029" lon="6.56726">
        <ele>2217.9167</ele>
        <time>2016-09-20T09:10:04Z</time>
      </trkpt>
      <trkpt lat="45.59036" lon="6.56734">
        <ele>2219.4255</ele>
        <time>2016-09-20T09:10:18Z</time>
      </trkpt>
      <trkpt lat="45.59043" lon="6.56745">
        <ele>2220.6172</ele>
        <time>2016-09-20T09:10:30Z</time>
      </trkpt>
      <trkpt lat="45.59049" lon="6.56755">
        <ele>2222.517</ele>
        <time>2016-09-20T09:10:39Z</time>
      </trkpt>
      <trkpt lat="45.59055" lon="6.56764">
        <ele>2221.423</ele>
        <time>2016-09-20T09:10:48Z</time>
      </trkpt>
      <trkpt lat="45.5906" lon="6.56776">
        <ele>2224.0388</ele>
        <time>2016-09-20T09:10:57Z</time>
      </trkpt>
      <trkpt lat="45.59059" lon="6.5679">
        <ele>2223.1035</ele>
        <time>2016-09-20T09:11:08Z</time>
      </trkpt>
      <trkpt lat="45.5906" lon="6.56804">
        <ele>2224.541</ele>
        <time>2016-09-20T09:11:19Z</time>
      </trkpt>
      <trkpt lat="45.59062" lon="6.56817">
        <ele>2224.7815</ele>
        <time>2016-09-20T09:11:30Z</time>
      </trkpt>
      <trkpt lat="45.59069" lon="6.56828">
        <ele>2227.2493</ele>
        <time>2016-09-20T09:11:39Z</time>
      </trkpt>
      <trkpt lat="45.59076" lon="6.56836">
        <ele>2227.3604</ele>
        <time>2016-09-20T09:11:48Z</time>
      </trkpt>
      <trkpt lat="45.59082" lon="6.56845">
        <ele>2226.2744</ele>
        <time>2016-09-20T09:11:58Z</time>
      </trkpt>
      <trkpt lat="45.59089" lon="6.56855">
        <ele>2227.17</ele>
        <time>2016-09-20T09:12:06Z</time>
      </trkpt>
      <trkpt lat="45.59097" lon="6.56863">
        <ele>2227.7698</ele>
        <time>2016-09-20T09:12:15Z</time>
      </trkpt>
      <trkpt lat="45.59102" lon="6.56873">
        <ele>2227.516</ele>
        <time>2016-09-20T09:12:25Z</time>
      </trkpt>
      <trkpt lat="45.59106" lon="6.56874">
        <ele>2229.1965</ele>
        <time>2016-09-20T09:12:47Z</time>
      </trkpt>
      <trkpt lat="45.59113" lon="6.56884">
        <ele>2230.4783</ele>
        <time>2016-09-20T09:13:14Z</time>
      </trkpt>
      <trkpt lat="45.59113" lon="6.56884">
        <ele>2228.2402</ele>
        <time>2016-09-20T09:13:14Z</time>
      </trkpt>
      <trkpt lat="45.59106" lon="6.56875">
        <ele>2228.3062</ele>
        <time>2016-09-20T09:13:27Z</time>
      </trkpt>
      <trkpt lat="45.591" lon="6.56878">
        <ele>2227.5374</ele>
        <time>2016-09-20T09:15:16Z</time>
      </trkpt>
      <trkpt lat="45.59102" lon="6.56881">
        <ele>2226.5227</ele>
        <time>2016-09-20T09:17:28Z</time>
      </trkpt>
      <trkpt lat="45.59094" lon="6.56879">
        <ele>2227.6614</ele>
        <time>2016-09-20T09:17:58Z</time>
      </trkpt>
      <trkpt lat="45.59102" lon="6.56879">
        <ele>2227.9548</ele>
        <time>2016-09-20T09:18:13Z</time>
      </trkpt>
      <trkpt lat="45.59103" lon="6.56879">
        <ele>2227.6748</ele>
        <time>2016-09-20T09:18:22Z</time>
      </trkpt>
      <trkpt lat="45.59103" lon="6.56879">
        <ele>2227.6748</ele>
        <time>2016-09-20T09:18:22Z</time>
      </trkpt>
      <trkpt lat="45.59113" lon="6.56884">
        <ele>2227.3286</ele>
        <time>2016-09-20T09:19:40Z</time>
      </trkpt>
      <trkpt lat="45.59113" lon="6.56884">
        <ele>2227.9653</ele>
        <time>2016-09-20T09:20:17Z</time>
      </trkpt>
      <trkpt lat="45.59104" lon="6.5688">
        <ele>2228.6287</ele>
        <time>2016-09-20T09:20:53Z</time>
      </trkpt>
      <trkpt lat="45.59105" lon="6.56879">
        <ele>2228.6628</ele>
        <time>2016-09-20T09:20:59Z</time>
      </trkpt>
      <trkpt lat="45.59105" lon="6.56879">
        <ele>2228.6628</ele>
        <time>2016-09-20T09:20:59Z</time>
      </trkpt>
      <trkpt lat="45.59095" lon="6.56878">
        <ele>2228.1926</ele>
        <time>2016-09-20T09:21:12Z</time>
      </trkpt>
      <trkpt lat="45.59102" lon="6.56877">
        <ele>2227.3867</ele>
        <time>2016-09-20T09:21:35Z</time>
      </trkpt>
      <trkpt lat="45.59098" lon="6.56875">
        <ele>2227.3022</ele>
        <time>2016-09-20T09:21:59Z</time>
      </trkpt>
      <trkpt lat="45.59095" lon="6.56868">
        <ele>2226.306</ele>
        <time>2016-09-20T09:22:18Z</time>
      </trkpt>
      <trkpt lat="45.59089" lon="6.56858">
        <ele>2225.7803</ele>
        <time>2016-09-20T09:22:30Z</time>
      </trkpt>
      <trkpt lat="45.59082" lon="6.56849">
        <ele>2225.5503</ele>
        <time>2016-09-20T09:22:40Z</time>
      </trkpt>
      <trkpt lat="45.59074" lon="6.5684">
        <ele>2225.8965</ele>
        <time>2016-09-20T09:22:49Z</time>
      </trkpt>
      <trkpt lat="45.59068" lon="6.56829">
        <ele>2224.998</ele>
        <time>2016-09-20T09:22:58Z</time>
      </trkpt>
      <trkpt lat="45.5906" lon="6.5682">
        <ele>2224.8923</ele>
        <time>2016-09-20T09:23:07Z</time>
      </trkpt>
      <trkpt lat="45.59058" lon="6.56807">
        <ele>2223.9067</ele>
        <time>2016-09-20T09:23:17Z</time>
      </trkpt>
      <trkpt lat="45.59058" lon="6.56803">
        <ele>2223.0085</ele>
        <time>2016-09-20T09:23:22Z</time>
      </trkpt>
      <trkpt lat="45.59058" lon="6.56803">
        <ele>2223.0085</ele>
        <time>2016-09-20T09:23:22Z</time>
      </trkpt>
      <trkpt lat="45.5906" lon="6.56788">
        <ele>2222.1787</ele>
        <time>2016-09-20T09:23:36Z</time>
      </trkpt>
      <trkpt lat="45.59057" lon="6.56774">
        <ele>2221.4495</ele>
        <time>2016-09-20T09:23:45Z</time>
      </trkpt>
      <trkpt lat="45.5905" lon="6.56763">
        <ele>2221.0083</ele>
        <time>2016-09-20T09:23:52Z</time>
      </trkpt>
      <trkpt lat="45.59044" lon="6.56752">
        <ele>2220.6992</ele>
        <time>2016-09-20T09:24:00Z</time>
      </trkpt>
      <trkpt lat="45.59037" lon="6.56741">
        <ele>2219.785</ele>
        <time>2016-09-20T09:24:08Z</time>
      </trkpt>
      <trkpt lat="45.59032" lon="6.56731">
        <ele>2218.4294</ele>
        <time>2016-09-20T09:24:17Z</time>
      </trkpt>
      <trkpt lat="45.59026" lon="6.56721">
        <ele>2216.881</ele>
        <time>2016-09-20T09:24:26Z</time>
      </trkpt>
      <trkpt lat="45.59019" lon="6.56713">
        <ele>2215.8716</ele>
        <time>2016-09-20T09:24:34Z</time>
      </trkpt>
      <trkpt lat="45.5901" lon="6.56704">
        <ele>2214.9734</ele>
        <time>2016-09-20T09:24:44Z</time>
      </trkpt>
      <trkpt lat="45.59002" lon="6.56699">
        <ele>2212.1118</ele>
        <time>2016-09-20T09:24:59Z</time>
      </trkpt>
      <trkpt lat="45.58994" lon="6.56693">
        <ele>2208.6133</ele>
        <time>2016-09-20T09:25:26Z</time>
      </trkpt>
      <trkpt lat="45.58988" lon="6.56703">
        <ele>2206.74</ele>
        <time>2016-09-20T09:25:36Z</time>
      </trkpt>
      <trkpt lat="45.5898" lon="6.56697">
        <ele>2203.165</ele>
        <time>2016-09-20T09:26:04Z</time>
      </trkpt>
      <trkpt lat="45.58973" lon="6.56705">
        <ele>2199.434</ele>
        <time>2016-09-20T09:26:23Z</time>
      </trkpt>
      <trkpt lat="45.58971" lon="6.56718">
        <ele>2197.825</ele>
        <time>2016-09-20T09:26:35Z</time>
      </trkpt>
      <trkpt lat="45.58964" lon="6.56726">
        <ele>2194.6384</ele>
        <time>2016-09-20T09:26:59Z</time>
      </trkpt>
      <trkpt lat="45.58956" lon="6.56718">
        <ele>2192.2498</ele>
        <time>2016-09-20T09:27:10Z</time>
      </trkpt>
      <trkpt lat="45.58947" lon="6.56713">
        <ele>2191</ele>
        <time>2016-09-20T09:27:19Z</time>
      </trkpt>
      <trkpt lat="45.58937" lon="6.56701">
        <ele>2187.7632</ele>
        <time>2016-09-20T09:27:50Z</time>
      </trkpt>
      <trkpt lat="45.58928" lon="6.56707">
        <ele>2186.1118</ele>
        <time>2016-09-20T09:28:00Z</time>
      </trkpt>
      <trkpt lat="45.58918" lon="6.56709">
        <ele>2185.9531</ele>
        <time>2016-09-20T09:28:07Z</time>
      </trkpt>
      <trkpt lat="45.5891" lon="6.56702">
        <ele>2185.4353</ele>
        <time>2016-09-20T09:28:15Z</time>
      </trkpt>
      <trkpt lat="45.58901" lon="6.56698">
        <ele>2184.2673</ele>
        <time>2016-09-20T09:28:23Z</time>
      </trkpt>
      <trkpt lat="45.58891" lon="6.56698">
        <ele>2183.3347</ele>
        <time>2016-09-20T09:28:31Z</time>
      </trkpt>
      <trkpt lat="45.58882" lon="6.56703">
        <ele>2182.6292</ele>
        <time>2016-09-20T09:28:40Z</time>
      </trkpt>
      <trkpt lat="45.58873" lon="6.56707">
        <ele>2182.2144</ele>
        <time>2016-09-20T09:28:48Z</time>
      </trkpt>
      <trkpt lat="45.58863" lon="6.56706">
        <ele>2180.7744</ele>
        <time>2016-09-20T09:28:57Z</time>
      </trkpt>
      <trkpt lat="45.58856" lon="6.56697">
        <ele>2179.316</ele>
        <time>2016-09-20T09:29:05Z</time>
      </trkpt>
      <trkpt lat="45.58852" lon="6.56683">
        <ele>2178.473</ele>
        <time>2016-09-20T09:29:13Z</time>
      </trkpt>
      <trkpt lat="45.58854" lon="6.56669">
        <ele>2176.9033</ele>
        <time>2016-09-20T09:29:22Z</time>
      </trkpt>
      <trkpt lat="45.58858" lon="6.56658">
        <ele>2175.6643</ele>
        <time>2016-09-20T09:29:31Z</time>
      </trkpt>
      <trkpt lat="45.58858" lon="6.56645">
        <ele>2174.4805</ele>
        <time>2016-09-20T09:29:39Z</time>
      </trkpt>
      <trkpt lat="45.58848" lon="6.56643">
        <ele>2173.421</ele>
        <time>2016-09-20T09:29:50Z</time>
      </trkpt>
      <trkpt lat="45.58836" lon="6.56643">
        <ele>2171.9016</ele>
        <time>2016-09-20T09:30:01Z</time>
      </trkpt>
      <trkpt lat="45.5883" lon="6.56653">
        <ele>2171.1882</ele>
        <time>2016-09-20T09:30:09Z</time>
      </trkpt>
      <trkpt lat="45.58823" lon="6.56662">
        <ele>2170.0388</ele>
        <time>2016-09-20T09:30:17Z</time>
      </trkpt>
      <trkpt lat="45.58815" lon="6.56669">
        <ele>2169.4363</ele>
        <time>2016-09-20T09:30:24Z</time>
      </trkpt>
      <trkpt lat="45.58807" lon="6.56676">
        <ele>2168.2288</ele>
        <time>2016-09-20T09:30:33Z</time>
      </trkpt>
      <trkpt lat="45.58798" lon="6.56683">
        <ele>2167.5789</ele>
        <time>2016-09-20T09:30:42Z</time>
      </trkpt>
      <trkpt lat="45.58789" lon="6.56688">
        <ele>2167.6606</ele>
        <time>2016-09-20T09:30:50Z</time>
      </trkpt>
      <trkpt lat="45.5878" lon="6.56689">
        <ele>2167.1191</ele>
        <time>2016-09-20T09:30:59Z</time>
      </trkpt>
      <trkpt lat="45.58771" lon="6.56683">
        <ele>2165.4438</ele>
        <time>2016-09-20T09:31:08Z</time>
      </trkpt>
      <trkpt lat="45.58764" lon="6.56675">
        <ele>2163.7263</ele>
        <time>2016-09-20T09:31:17Z</time>
      </trkpt>
      <trkpt lat="45.58755" lon="6.56667">
        <ele>2162.8835</ele>
        <time>2016-09-20T09:31:26Z</time>
      </trkpt>
      <trkpt lat="45.58749" lon="6.56658">
        <ele>2160.915</ele>
        <time>2016-09-20T09:31:34Z</time>
      </trkpt>
      <trkpt lat="45.58741" lon="6.56649">
        <ele>2159.06</ele>
        <time>2016-09-20T09:31:44Z</time>
      </trkpt>
      <trkpt lat="45.58735" lon="6.56638">
        <ele>2157.9478</ele>
        <time>2016-09-20T09:31:55Z</time>
      </trkpt>
      <trkpt lat="45.58728" lon="6.56628">
        <ele>2156.6926</ele>
        <time>2016-09-20T09:32:03Z</time>
      </trkpt>
      <trkpt lat="45.58722" lon="6.56618">
        <ele>2155.369</ele>
        <time>2016-09-20T09:32:11Z</time>
      </trkpt>
      <trkpt lat="45.58715" lon="6.56609">
        <ele>2154.0425</ele>
        <time>2016-09-20T09:32:20Z</time>
      </trkpt>
      <trkpt lat="45.58706" lon="6.56599">
        <ele>2153.0596</ele>
        <time>2016-09-20T09:32:39Z</time>
      </trkpt>
      <trkpt lat="45.58698" lon="6.56591">
        <ele>2153.2947</ele>
        <time>2016-09-20T09:32:46Z</time>
      </trkpt>
      <trkpt lat="45.58692" lon="6.56579">
        <ele>2152.6765</ele>
        <time>2016-09-20T09:32:54Z</time>
      </trkpt>
      <trkpt lat="45.58692" lon="6.56566">
        <ele>2151.0225</ele>
        <time>2016-09-20T09:33:02Z</time>
      </trkpt>
      <trkpt lat="45.5869" lon="6.56554">
        <ele>2148.8875</ele>
        <time>2016-09-20T09:33:09Z</time>
      </trkpt>
      <trkpt lat="45.58685" lon="6.56543">
        <ele>2147.302</ele>
        <time>2016-09-20T09:33:17Z</time>
      </trkpt>
      <trkpt lat="45.58675" lon="6.56538">
        <ele>2145.891</ele>
        <time>2016-09-20T09:33:28Z</time>
      </trkpt>
      <trkpt lat="45.58666" lon="6.56536">
        <ele>2143.6267</ele>
        <time>2016-09-20T09:33:40Z</time>
      </trkpt>
      <trkpt lat="45.58656" lon="6.56532">
        <ele>2141.0134</ele>
        <time>2016-09-20T09:33:51Z</time>
      </trkpt>
      <trkpt lat="45.58648" lon="6.56526">
        <ele>2139.3672</ele>
        <time>2016-09-20T09:34:01Z</time>
      </trkpt>
      <trkpt lat="45.58642" lon="6.56517">
        <ele>2137.832</ele>
        <time>2016-09-20T09:34:12Z</time>
      </trkpt>
      <trkpt lat="45.58636" lon="6.56506">
        <ele>2135.8054</ele>
        <time>2016-09-20T09:34:22Z</time>
      </trkpt>
      <trkpt lat="45.58629" lon="6.56497">
        <ele>2135.5308</ele>
        <time>2016-09-20T09:34:31Z</time>
      </trkpt>
      <trkpt lat="45.58622" lon="6.56488">
        <ele>2133.29</ele>
        <time>2016-09-20T09:34:43Z</time>
      </trkpt>
      <trkpt lat="45.58614" lon="6.5648">
        <ele>2130.846</ele>
        <time>2016-09-20T09:34:53Z</time>
      </trkpt>
      <trkpt lat="45.58605" lon="6.56474">
        <ele>2130.0823</ele>
        <time>2016-09-20T09:35:03Z</time>
      </trkpt>
      <trkpt lat="45.58596" lon="6.56469">
        <ele>2128.037</ele>
        <time>2016-09-20T09:35:14Z</time>
      </trkpt>
      <trkpt lat="45.58587" lon="6.56465">
        <ele>2124.6736</ele>
        <time>2016-09-20T09:35:24Z</time>
      </trkpt>
      <trkpt lat="45.58578" lon="6.5646">
        <ele>2124.3381</ele>
        <time>2016-09-20T09:35:34Z</time>
      </trkpt>
      <trkpt lat="45.58568" lon="6.56458">
        <ele>2121.7195</ele>
        <time>2016-09-20T09:35:43Z</time>
      </trkpt>
      <trkpt lat="45.58559" lon="6.56454">
        <ele>2121.3787</ele>
        <time>2016-09-20T09:35:52Z</time>
      </trkpt>
      <trkpt lat="45.58551" lon="6.56445">
        <ele>2120.3958</ele>
        <time>2016-09-20T09:36:01Z</time>
      </trkpt>
      <trkpt lat="45.58543" lon="6.56438">
        <ele>2119.7642</ele>
        <time>2016-09-20T09:36:09Z</time>
      </trkpt>
      <trkpt lat="45.58535" lon="6.56434">
        <ele>2119.9043</ele>
        <time>2016-09-20T09:36:17Z</time>
      </trkpt>
      <trkpt lat="45.58526" lon="6.5643">
        <ele>2119.088</ele>
        <time>2016-09-20T09:36:24Z</time>
      </trkpt>
      <trkpt lat="45.58518" lon="6.56425">
        <ele>2118.1313</ele>
        <time>2016-09-20T09:36:33Z</time>
      </trkpt>
      <trkpt lat="45.58508" lon="6.56421">
        <ele>2118.8738</ele>
        <time>2016-09-20T09:36:42Z</time>
      </trkpt>
      <trkpt lat="45.58499" lon="6.56424">
        <ele>2118.9292</ele>
        <time>2016-09-20T09:36:52Z</time>
      </trkpt>
      <trkpt lat="45.5849" lon="6.5642">
        <ele>2117.6187</ele>
        <time>2016-09-20T09:37:02Z</time>
      </trkpt>
      <trkpt lat="45.58481" lon="6.56416">
        <ele>2116.1443</ele>
        <time>2016-09-20T09:37:13Z</time>
      </trkpt>
      <trkpt lat="45.58472" lon="6.5641">
        <ele>2113.1875</ele>
        <time>2016-09-20T09:37:22Z</time>
      </trkpt>
      <trkpt lat="45.58463" lon="6.56412">
        <ele>2111.8506</ele>
        <time>2016-09-20T09:37:33Z</time>
      </trkpt>
      <trkpt lat="45.58456" lon="6.5642">
        <ele>2110.0962</ele>
        <time>2016-09-20T09:37:47Z</time>
      </trkpt>
      <trkpt lat="45.58452" lon="6.56432">
        <ele>2106.6665</ele>
        <time>2016-09-20T09:37:57Z</time>
      </trkpt>
      <trkpt lat="45.58447" lon="6.56443">
        <ele>2105.6147</ele>
        <time>2016-09-20T09:38:07Z</time>
      </trkpt>
      <trkpt lat="45.5844" lon="6.56453">
        <ele>2104.6636</ele>
        <time>2016-09-20T09:38:19Z</time>
      </trkpt>
      <trkpt lat="45.5843" lon="6.56455">
        <ele>2103.3901</ele>
        <time>2016-09-20T09:38:26Z</time>
      </trkpt>
      <trkpt lat="45.58421" lon="6.56452">
        <ele>2103.2183</ele>
        <time>2016-09-20T09:38:34Z</time>
      </trkpt>
      <trkpt lat="45.58413" lon="6.56446">
        <ele>2101.242</ele>
        <time>2016-09-20T09:38:42Z</time>
      </trkpt>
      <trkpt lat="45.58406" lon="6.56436">
        <ele>2100.1428</ele>
        <time>2016-09-20T09:38:50Z</time>
      </trkpt>
      <trkpt lat="45.58401" lon="6.56425">
        <ele>2098.1028</ele>
        <time>2016-09-20T09:38:58Z</time>
      </trkpt>
      <trkpt lat="45.58394" lon="6.56415">
        <ele>2098.4438</ele>
        <time>2016-09-20T09:39:06Z</time>
      </trkpt>
      <trkpt lat="45.58386" lon="6.56406">
        <ele>2098.6526</ele>
        <time>2016-09-20T09:39:15Z</time>
      </trkpt>
      <trkpt lat="45.58379" lon="6.56398">
        <ele>2098.2166</ele>
        <time>2016-09-20T09:39:22Z</time>
      </trkpt>
      <trkpt lat="45.58372" lon="6.56389">
        <ele>2096.5862</ele>
        <time>2016-09-20T09:39:31Z</time>
      </trkpt>
      <trkpt lat="45.58366" lon="6.56379">
        <ele>2094.5623</ele>
        <time>2016-09-20T09:39:38Z</time>
      </trkpt>
      <trkpt lat="45.58361" lon="6.56369">
        <ele>2094.2822</ele>
        <time>2016-09-20T09:39:46Z</time>
      </trkpt>
      <trkpt lat="45.58355" lon="6.56357">
        <ele>2091.8804</ele>
        <time>2016-09-20T09:39:54Z</time>
      </trkpt>
      <trkpt lat="45.5835" lon="6.56345">
        <ele>2090.118</ele>
        <time>2016-09-20T09:40:02Z</time>
      </trkpt>
      <trkpt lat="45.58344" lon="6.56337">
        <ele>2089.1958</ele>
        <time>2016-09-20T09:40:11Z</time>
      </trkpt>
      <trkpt lat="45.58339" lon="6.56324">
        <ele>2088.448</ele>
        <time>2016-09-20T09:40:20Z</time>
      </trkpt>
      <trkpt lat="45.58335" lon="6.56312">
        <ele>2086.3896</ele>
        <time>2016-09-20T09:40:30Z</time>
      </trkpt>
      <trkpt lat="45.58331" lon="6.563">
        <ele>2084.9814</ele>
        <time>2016-09-20T09:40:38Z</time>
      </trkpt>
      <trkpt lat="45.58332" lon="6.56287">
        <ele>2082.8623</ele>
        <time>2016-09-20T09:40:48Z</time>
      </trkpt>
      <trkpt lat="45.58337" lon="6.56276">
        <ele>2080.2173</ele>
        <time>2016-09-20T09:40:57Z</time>
      </trkpt>
      <trkpt lat="45.58347" lon="6.56271">
        <ele>2078.9912</ele>
        <time>2016-09-20T09:41:06Z</time>
      </trkpt>
      <trkpt lat="45.58354" lon="6.56264">
        <ele>2078.7534</ele>
        <time>2016-09-20T09:41:14Z</time>
      </trkpt>
      <trkpt lat="45.58363" lon="6.5626">
        <ele>2077.6016</ele>
        <time>2016-09-20T09:41:22Z</time>
      </trkpt>
      <trkpt lat="45.58374" lon="6.56257">
        <ele>2075.0386</ele>
        <time>2016-09-20T09:41:37Z</time>
      </trkpt>
      <trkpt lat="45.58383" lon="6.56254">
        <ele>2074.9329</ele>
        <time>2016-09-20T09:41:45Z</time>
      </trkpt>
      <trkpt lat="45.58391" lon="6.56244">
        <ele>2074.201</ele>
        <time>2016-09-20T09:41:54Z</time>
      </trkpt>
      <trkpt lat="45.58401" lon="6.5624">
        <ele>2073.4268</ele>
        <time>2016-09-20T09:42:03Z</time>
      </trkpt>
      <trkpt lat="45.58412" lon="6.5624">
        <ele>2072.7583</ele>
        <time>2016-09-20T09:42:11Z</time>
      </trkpt>
      <trkpt lat="45.58421" lon="6.56239">
        <ele>2072.1743</ele>
        <time>2016-09-20T09:42:19Z</time>
      </trkpt>
      <trkpt lat="45.5843" lon="6.56235">
        <ele>2070.0076</ele>
        <time>2016-09-20T09:42:26Z</time>
      </trkpt>
      <trkpt lat="45.58431" lon="6.56222">
        <ele>2070.4646</ele>
        <time>2016-09-20T09:42:41Z</time>
      </trkpt>
      <trkpt lat="45.58424" lon="6.56212">
        <ele>2069.9998</ele>
        <time>2016-09-20T09:42:48Z</time>
      </trkpt>
      <trkpt lat="45.58414" lon="6.56196">
        <ele>2069.7354</ele>
        <time>2016-09-20T09:43:10Z</time>
      </trkpt>
      <trkpt lat="45.58406" lon="6.56188">
        <ele>2067.4287</ele>
        <time>2016-09-20T09:43:18Z</time>
      </trkpt>
      <trkpt lat="45.58399" lon="6.5618">
        <ele>2066.9187</ele>
        <time>2016-09-20T09:43:25Z</time>
      </trkpt>
      <trkpt lat="45.58392" lon="6.5617">
        <ele>2066.578</ele>
        <time>2016-09-20T09:43:34Z</time>
      </trkpt>
      <trkpt lat="45.58385" lon="6.56161">
        <ele>2066.4644</ele>
        <time>2016-09-20T09:43:41Z</time>
      </trkpt>
      <trkpt lat="45.58377" lon="6.56153">
        <ele>2067.035</ele>
        <time>2016-09-20T09:43:48Z</time>
      </trkpt>
      <trkpt lat="45.58368" lon="6.56145">
        <ele>2068.2214</ele>
        <time>2016-09-20T09:43:55Z</time>
      </trkpt>
      <trkpt lat="45.5836" lon="6.5614">
        <ele>2067.3362</ele>
        <time>2016-09-20T09:44:02Z</time>
      </trkpt>
      <trkpt lat="45.58351" lon="6.56133">
        <ele>2065.13</ele>
        <time>2016-09-20T09:44:10Z</time>
      </trkpt>
      <trkpt lat="45.58344" lon="6.56122">
        <ele>2064.2817</ele>
        <time>2016-09-20T09:44:18Z</time>
      </trkpt>
      <trkpt lat="45.5834" lon="6.5611">
        <ele>2064.1125</ele>
        <time>2016-09-20T09:44:26Z</time>
      </trkpt>
      <trkpt lat="45.58332" lon="6.56104">
        <ele>2063.7717</ele>
        <time>2016-09-20T09:44:34Z</time>
      </trkpt>
      <trkpt lat="45.58323" lon="6.56101">
        <ele>2063.8933</ele>
        <time>2016-09-20T09:44:50Z</time>
      </trkpt>
      <trkpt lat="45.58313" lon="6.561">
        <ele>2063.3887</ele>
        <time>2016-09-20T09:45:00Z</time>
      </trkpt>
      <trkpt lat="45.58303" lon="6.56103">
        <ele>2062.0676</ele>
        <time>2016-09-20T09:45:10Z</time>
      </trkpt>
      <trkpt lat="45.58304" lon="6.56116">
        <ele>2062.7122</ele>
        <time>2016-09-20T09:45:20Z</time>
      </trkpt>
      <trkpt lat="45.58307" lon="6.56129">
        <ele>2062.8154</ele>
        <time>2016-09-20T09:45:43Z</time>
      </trkpt>
      <trkpt lat="45.58309" lon="6.56128">
        <ele>2063.357</ele>
        <time>2016-09-20T09:46:20Z</time>
      </trkpt>
      <trkpt lat="45.58297" lon="6.56118">
        <ele>2064.0757</ele>
        <time>2016-09-20T09:46:38Z</time>
      </trkpt>
      <trkpt lat="45.5829" lon="6.56111">
        <ele>2062.7017</ele>
        <time>2016-09-20T09:47:03Z</time>
      </trkpt>
      <trkpt lat="45.58291" lon="6.56119">
        <ele>2060.234</ele>
        <time>2016-09-20T10:28:41Z</time>
      </trkpt>
      <trkpt lat="45.58282" lon="6.56119">
        <ele>2057.018</ele>
        <time>2016-09-20T10:28:53Z</time>
      </trkpt>
      <trkpt lat="45.58272" lon="6.56121">
        <ele>2055.4512</ele>
        <time>2016-09-20T10:29:05Z</time>
      </trkpt>
      <trkpt lat="45.58274" lon="6.56135">
        <ele>2051.9238</ele>
        <time>2016-09-20T10:29:24Z</time>
      </trkpt>
      <trkpt lat="45.5827" lon="6.56147">
        <ele>2049.0095</ele>
        <time>2016-09-20T10:29:46Z</time>
      </trkpt>
      <trkpt lat="45.58262" lon="6.56153">
        <ele>2049.0754</ele>
        <time>2016-09-20T10:29:54Z</time>
      </trkpt>
      <trkpt lat="45.58255" lon="6.5616">
        <ele>2052.463</ele>
        <time>2016-09-20T10:30:09Z</time>
      </trkpt>
      <trkpt lat="45.58246" lon="6.56164">
        <ele>2049.0754</ele>
        <time>2016-09-20T10:30:17Z</time>
      </trkpt>
      <trkpt lat="45.58237" lon="6.56172">
        <ele>2048.9805</ele>
        <time>2016-09-20T10:30:26Z</time>
      </trkpt>
      <trkpt lat="45.5823" lon="6.56181">
        <ele>2049.0967</ele>
        <time>2016-09-20T10:30:35Z</time>
      </trkpt>
      <trkpt lat="45.58225" lon="6.56192">
        <ele>2048.0422</ele>
        <time>2016-09-20T10:30:43Z</time>
      </trkpt>
      <trkpt lat="45.58218" lon="6.56203">
        <ele>2049.8154</ele>
        <time>2016-09-20T10:30:51Z</time>
      </trkpt>
      <trkpt lat="45.5821" lon="6.5621">
        <ele>2049.604</ele>
        <time>2016-09-20T10:31:02Z</time>
      </trkpt>
      <trkpt lat="45.58201" lon="6.56217">
        <ele>2046.4543</ele>
        <time>2016-09-20T10:31:10Z</time>
      </trkpt>
      <trkpt lat="45.58192" lon="6.56223">
        <ele>2046.0791</ele>
        <time>2016-09-20T10:31:20Z</time>
      </trkpt>
      <trkpt lat="45.58187" lon="6.56234">
        <ele>2046.8005</ele>
        <time>2016-09-20T10:31:28Z</time>
      </trkpt>
      <trkpt lat="45.58182" lon="6.56244">
        <ele>2044.6576</ele>
        <time>2016-09-20T10:31:40Z</time>
      </trkpt>
      <trkpt lat="45.58172" lon="6.56253">
        <ele>2045.6643</ele>
        <time>2016-09-20T10:31:53Z</time>
      </trkpt>
      <trkpt lat="45.58164" lon="6.56257">
        <ele>2048.0925</ele>
        <time>2016-09-20T10:32:01Z</time>
      </trkpt>
      <trkpt lat="45.58155" lon="6.56252">
        <ele>2045.4529</ele>
        <time>2016-09-20T10:32:10Z</time>
      </trkpt>
      <trkpt lat="45.58145" lon="6.56251">
        <ele>2045.6854</ele>
        <time>2016-09-20T10:32:17Z</time>
      </trkpt>
      <trkpt lat="45.58136" lon="6.56253">
        <ele>2045.009</ele>
        <time>2016-09-20T10:32:26Z</time>
      </trkpt>
      <trkpt lat="45.58126" lon="6.56252">
        <ele>2044.2903</ele>
        <time>2016-09-20T10:32:34Z</time>
      </trkpt>
      <trkpt lat="45.58117" lon="6.56253">
        <ele>2044.2004</ele>
        <time>2016-09-20T10:32:42Z</time>
      </trkpt>
      <trkpt lat="45.58107" lon="6.56252">
        <ele>2044.5044</ele>
        <time>2016-09-20T10:32:54Z</time>
      </trkpt>
      <trkpt lat="45.58098" lon="6.56249">
        <ele>2043.8438</ele>
        <time>2016-09-20T10:33:02Z</time>
      </trkpt>
      <trkpt lat="45.58089" lon="6.56247">
        <ele>2044.3987</ele>
        <time>2016-09-20T10:33:16Z</time>
      </trkpt>
      <trkpt lat="45.58079" lon="6.56248">
        <ele>2044.9324</ele>
        <time>2016-09-20T10:33:27Z</time>
      </trkpt>
      <trkpt lat="45.58073" lon="6.56257">
        <ele>2045.7224</ele>
        <time>2016-09-20T10:33:32Z</time>
      </trkpt>
      <trkpt lat="45.58064" lon="6.56256">
        <ele>2046.634</ele>
        <time>2016-09-20T10:33:42Z</time>
      </trkpt>
      <trkpt lat="45.58059" lon="6.56245">
        <ele>2045.2336</ele>
        <time>2016-09-20T10:33:50Z</time>
      </trkpt>
      <trkpt lat="45.5805" lon="6.56238">
        <ele>2045.5402</ele>
        <time>2016-09-20T10:33:58Z</time>
      </trkpt>
      <trkpt lat="45.58041" lon="6.5623">
        <ele>2044.5123</ele>
        <time>2016-09-20T10:34:08Z</time>
      </trkpt>
      <trkpt lat="45.58033" lon="6.56225">
        <ele>2042.8899</ele>
        <time>2016-09-20T10:34:17Z</time>
      </trkpt>
      <trkpt lat="45.58024" lon="6.5622">
        <ele>2042.047</ele>
        <time>2016-09-20T10:34:27Z</time>
      </trkpt>
      <trkpt lat="45.58014" lon="6.56218">
        <ele>2040.57</ele>
        <time>2016-09-20T10:34:38Z</time>
      </trkpt>
      <trkpt lat="45.58005" lon="6.56213">
        <ele>2039.1908</ele>
        <time>2016-09-20T10:34:45Z</time>
      </trkpt>
      <trkpt lat="45.57997" lon="6.56207">
        <ele>2037.238</ele>
        <time>2016-09-20T10:34:57Z</time>
      </trkpt>
      <trkpt lat="45.57988" lon="6.56203">
        <ele>2037.2223</ele>
        <time>2016-09-20T10:35:03Z</time>
      </trkpt>
      <trkpt lat="45.5798" lon="6.56197">
        <ele>2036.892</ele>
        <time>2016-09-20T10:35:13Z</time>
      </trkpt>
      <trkpt lat="45.5797" lon="6.56198">
        <ele>2035.0979</ele>
        <time>2016-09-20T10:35:33Z</time>
      </trkpt>
      <trkpt lat="45.57959" lon="6.56196">
        <ele>2033.6499</ele>
        <time>2016-09-20T10:35:42Z</time>
      </trkpt>
      <trkpt lat="45.5795" lon="6.56201">
        <ele>2034.9763</ele>
        <time>2016-09-20T10:35:53Z</time>
      </trkpt>
      <trkpt lat="45.57943" lon="6.56193">
        <ele>2033.2272</ele>
        <time>2016-09-20T10:36:03Z</time>
      </trkpt>
      <trkpt lat="45.57935" lon="6.56185">
        <ele>2033.4517</ele>
        <time>2016-09-20T10:36:11Z</time>
      </trkpt>
      <trkpt lat="45.57927" lon="6.56177">
        <ele>2033.494</ele>
        <time>2016-09-20T10:36:20Z</time>
      </trkpt>
      <trkpt lat="45.57922" lon="6.56164">
        <ele>2037.5023</ele>
        <time>2016-09-20T10:36:45Z</time>
      </trkpt>
      <trkpt lat="45.5792" lon="6.56159">
        <ele>2036.6964</ele>
        <time>2016-09-20T10:36:54Z</time>
      </trkpt>
      <trkpt lat="45.5792" lon="6.56159">
        <ele>2036.6964</ele>
        <time>2016-09-20T10:36:54Z</time>
      </trkpt>
      <trkpt lat="45.57915" lon="6.56145">
        <ele>2035.341</ele>
        <time>2016-09-20T10:37:05Z</time>
      </trkpt>
      <trkpt lat="45.57909" lon="6.56135">
        <ele>2038.7257</ele>
        <time>2016-09-20T10:37:13Z</time>
      </trkpt>
      <trkpt lat="45.57903" lon="6.56125">
        <ele>2036.4666</ele>
        <time>2016-09-20T10:37:22Z</time>
      </trkpt>
      <trkpt lat="45.579" lon="6.56123">
        <ele>2037.7957</ele>
        <time>2016-09-20T10:37:42Z</time>
      </trkpt>
      <trkpt lat="45.57892" lon="6.56118">
        <ele>2036.7783</ele>
        <time>2016-09-20T10:37:50Z</time>
      </trkpt>
      <trkpt lat="45.57882" lon="6.56112">
        <ele>2036.9923</ele>
        <time>2016-09-20T10:37:59Z</time>
      </trkpt>
      <trkpt lat="45.57875" lon="6.56103">
        <ele>2033.7345</ele>
        <time>2016-09-20T10:38:11Z</time>
      </trkpt>
      <trkpt lat="45.57866" lon="6.56091">
        <ele>2034.9736</ele>
        <time>2016-09-20T10:38:32Z</time>
      </trkpt>
      <trkpt lat="45.5786" lon="6.56081">
        <ele>2034.3158</ele>
        <time>2016-09-20T10:38:39Z</time>
      </trkpt>
      <trkpt lat="45.57855" lon="6.5607">
        <ele>2034.2866</ele>
        <time>2016-09-20T10:38:45Z</time>
      </trkpt>
      <trkpt lat="45.5785" lon="6.56056">
        <ele>2033.8164</ele>
        <time>2016-09-20T10:38:59Z</time>
      </trkpt>
      <trkpt lat="45.57841" lon="6.56038">
        <ele>2032.3789</ele>
        <time>2016-09-20T10:39:18Z</time>
      </trkpt>
      <trkpt lat="45.57835" lon="6.56028">
        <ele>2032.3895</ele>
        <time>2016-09-20T10:39:25Z</time>
      </trkpt>
      <trkpt lat="45.57829" lon="6.56017">
        <ele>2030.5215</ele>
        <time>2016-09-20T10:39:32Z</time>
      </trkpt>
      <trkpt lat="45.57824" lon="6.56006">
        <ele>2030.5267</ele>
        <time>2016-09-20T10:39:39Z</time>
      </trkpt>
      <trkpt lat="45.5782" lon="6.55994">
        <ele>2031.6285</ele>
        <time>2016-09-20T10:39:47Z</time>
      </trkpt>
      <trkpt lat="45.57814" lon="6.55982">
        <ele>2032.5613</ele>
        <time>2016-09-20T10:39:57Z</time>
      </trkpt>
      <trkpt lat="45.57805" lon="6.55981">
        <ele>2030.2863</ele>
        <time>2016-09-20T10:40:19Z</time>
      </trkpt>
      <trkpt lat="45.57796" lon="6.55975">
        <ele>2026.7853</ele>
        <time>2016-09-20T10:40:28Z</time>
      </trkpt>
      <trkpt lat="45.57786" lon="6.55974">
        <ele>2024.5658</ele>
        <time>2016-09-20T10:40:40Z</time>
      </trkpt>
      <trkpt lat="45.57777" lon="6.55968">
        <ele>2024.365</ele>
        <time>2016-09-20T10:40:48Z</time>
      </trkpt>
      <trkpt lat="45.57769" lon="6.5596">
        <ele>2024.3121</ele>
        <time>2016-09-20T10:40:58Z</time>
      </trkpt>
      <trkpt lat="45.57763" lon="6.55948">
        <ele>2024.402</ele>
        <time>2016-09-20T10:41:08Z</time>
      </trkpt>
      <trkpt lat="45.57759" lon="6.55935">
        <ele>2022.7452</ele>
        <time>2016-09-20T10:41:18Z</time>
      </trkpt>
      <trkpt lat="45.57751" lon="6.55925">
        <ele>2021.5958</ele>
        <time>2016-09-20T10:41:27Z</time>
      </trkpt>
      <trkpt lat="45.57746" lon="6.55914">
        <ele>2023.1151</ele>
        <time>2016-09-20T10:41:35Z</time>
      </trkpt>
      <trkpt lat="45.5774" lon="6.55902">
        <ele>2021.942</ele>
        <time>2016-09-20T10:41:43Z</time>
      </trkpt>
      <trkpt lat="45.57735" lon="6.5589">
        <ele>2021.6539</ele>
        <time>2016-09-20T10:41:53Z</time>
      </trkpt>
      <trkpt lat="45.57727" lon="6.55882">
        <ele>2023.5167</ele>
        <time>2016-09-20T10:42:02Z</time>
      </trkpt>
      <trkpt lat="45.5772" lon="6.55869">
        <ele>2022.4784</ele>
        <time>2016-09-20T10:42:20Z</time>
      </trkpt>
      <trkpt lat="45.57713" lon="6.5586">
        <ele>2022.4889</ele>
        <time>2016-09-20T10:42:29Z</time>
      </trkpt>
      <trkpt lat="45.57705" lon="6.55851">
        <ele>2021.8574</ele>
        <time>2016-09-20T10:42:39Z</time>
      </trkpt>
      <trkpt lat="45.57698" lon="6.55842">
        <ele>2023.3265</ele>
        <time>2016-09-20T10:42:45Z</time>
      </trkpt>
      <trkpt lat="45.57692" lon="6.55832">
        <ele>2022.3806</ele>
        <time>2016-09-20T10:42:55Z</time>
      </trkpt>
      <trkpt lat="45.57686" lon="6.55821">
        <ele>2019.0487</ele>
        <time>2016-09-20T10:43:04Z</time>
      </trkpt>
      <trkpt lat="45.57681" lon="6.55812">
        <ele>2018.2982</ele>
        <time>2016-09-20T10:43:22Z</time>
      </trkpt>
      <trkpt lat="45.57674" lon="6.55802">
        <ele>2017.643</ele>
        <time>2016-09-20T10:43:29Z</time>
      </trkpt>
      <trkpt lat="45.57668" lon="6.55793">
        <ele>2015.5054</ele>
        <time>2016-09-20T10:43:36Z</time>
      </trkpt>
      <trkpt lat="45.5766" lon="6.55785">
        <ele>2013.6188</ele>
        <time>2016-09-20T10:43:45Z</time>
      </trkpt>
      <trkpt lat="45.57652" lon="6.55777">
        <ele>2012.7046</ele>
        <time>2016-09-20T10:43:55Z</time>
      </trkpt>
      <trkpt lat="45.57646" lon="6.55767">
        <ele>2011.1799</ele>
        <time>2016-09-20T10:44:07Z</time>
      </trkpt>
      <trkpt lat="45.57639" lon="6.55758">
        <ele>2011.1245</ele>
        <time>2016-09-20T10:44:15Z</time>
      </trkpt>
      <trkpt lat="45.57633" lon="6.55748">
        <ele>2009.3146</ele>
        <time>2016-09-20T10:44:23Z</time>
      </trkpt>
      <trkpt lat="45.57626" lon="6.55738">
        <ele>2010.4164</ele>
        <time>2016-09-20T10:44:33Z</time>
      </trkpt>
      <trkpt lat="45.5762" lon="6.55727">
        <ele>2006.083</ele>
        <time>2016-09-20T10:44:43Z</time>
      </trkpt>
      <trkpt lat="45.57611" lon="6.55721">
        <ele>2003.4064</ele>
        <time>2016-09-20T10:44:53Z</time>
      </trkpt>
      <trkpt lat="45.57598" lon="6.55709">
        <ele>2004.9548</ele>
        <time>2016-09-20T10:46:12Z</time>
      </trkpt>
      <trkpt lat="45.57594" lon="6.55697">
        <ele>2000.4338</ele>
        <time>2016-09-20T10:46:32Z</time>
      </trkpt>
      <trkpt lat="45.57593" lon="6.55688">
        <ele>1997.9185</ele>
        <time>2016-09-20T10:47:00Z</time>
      </trkpt>
      <trkpt lat="45.57585" lon="6.55679">
        <ele>1995.6407</ele>
        <time>2016-09-20T10:47:11Z</time>
      </trkpt>
      <trkpt lat="45.57577" lon="6.55671">
        <ele>1993.77</ele>
        <time>2016-09-20T10:47:21Z</time>
      </trkpt>
      <trkpt lat="45.57569" lon="6.5567">
        <ele>1993.4662</ele>
        <time>2016-09-20T10:47:46Z</time>
      </trkpt>
      <trkpt lat="45.5756" lon="6.55664">
        <ele>1990.7367</ele>
        <time>2016-09-20T10:47:54Z</time>
      </trkpt>
      <trkpt lat="45.57557" lon="6.55647">
        <ele>1986.2766</ele>
        <time>2016-09-20T10:48:17Z</time>
      </trkpt>
      <trkpt lat="45.57551" lon="6.55637">
        <ele>1984.5961</ele>
        <time>2016-09-20T10:48:25Z</time>
      </trkpt>
      <trkpt lat="45.57549" lon="6.55624">
        <ele>1981.0211</ele>
        <time>2016-09-20T10:48:37Z</time>
      </trkpt>
      <trkpt lat="45.57545" lon="6.55611">
        <ele>1980.8652</ele>
        <time>2016-09-20T10:48:49Z</time>
      </trkpt>
      <trkpt lat="45.57539" lon="6.55601">
        <ele>1975.7339</ele>
        <time>2016-09-20T10:48:58Z</time>
      </trkpt>
      <trkpt lat="45.57535" lon="6.55589">
        <ele>1975.253</ele>
        <time>2016-09-20T10:49:09Z</time>
      </trkpt>
      <trkpt lat="45.57529" lon="6.55579">
        <ele>1973.1736</ele>
        <time>2016-09-20T10:49:16Z</time>
      </trkpt>
      <trkpt lat="45.57523" lon="6.55569">
        <ele>1970.8008</ele>
        <time>2016-09-20T10:49:26Z</time>
      </trkpt>
      <trkpt lat="45.57518" lon="6.55558">
        <ele>1969.3555</ele>
        <time>2016-09-20T10:49:36Z</time>
      </trkpt>
      <trkpt lat="45.57512" lon="6.55546">
        <ele>1966.3802</ele>
        <time>2016-09-20T10:49:43Z</time>
      </trkpt>
      <trkpt lat="45.5751" lon="6.55533">
        <ele>1967.0249</ele>
        <time>2016-09-20T10:49:58Z</time>
      </trkpt>
      <trkpt lat="45.57505" lon="6.55522">
        <ele>1963.5292</ele>
        <time>2016-09-20T10:50:10Z</time>
      </trkpt>
      <trkpt lat="45.57499" lon="6.55513">
        <ele>1961.9254</ele>
        <time>2016-09-20T10:50:20Z</time>
      </trkpt>
      <trkpt lat="45.57493" lon="6.55502">
        <ele>1959.1034</ele>
        <time>2016-09-20T10:50:32Z</time>
      </trkpt>
      <trkpt lat="45.57481" lon="6.55493">
        <ele>1961.9597</ele>
        <time>2016-09-20T10:51:55Z</time>
      </trkpt>
      <trkpt lat="45.57473" lon="6.55486">
        <ele>1960.599</ele>
        <time>2016-09-20T10:52:05Z</time>
      </trkpt>
      <trkpt lat="45.57465" lon="6.55479">
        <ele>1962.3112</ele>
        <time>2016-09-20T10:52:14Z</time>
      </trkpt>
      <trkpt lat="45.57456" lon="6.55475">
        <ele>1962.7471</ele>
        <time>2016-09-20T10:52:32Z</time>
      </trkpt>
      <trkpt lat="45.57447" lon="6.55481">
        <ele>1958.1232</ele>
        <time>2016-09-20T10:52:41Z</time>
      </trkpt>
      <trkpt lat="45.57438" lon="6.55487">
        <ele>1957.8484</ele>
        <time>2016-09-20T10:52:49Z</time>
      </trkpt>
      <trkpt lat="45.5743" lon="6.5548">
        <ele>1958.2289</ele>
        <time>2016-09-20T10:52:57Z</time>
      </trkpt>
      <trkpt lat="45.57422" lon="6.55472">
        <ele>1957.3833</ele>
        <time>2016-09-20T10:53:04Z</time>
      </trkpt>
      <trkpt lat="45.57414" lon="6.55468">
        <ele>1955.7186</ele>
        <time>2016-09-20T10:53:12Z</time>
      </trkpt>
      <trkpt lat="45.57406" lon="6.55461">
        <ele>1955.2299</ele>
        <time>2016-09-20T10:53:19Z</time>
      </trkpt>
      <trkpt lat="45.57398" lon="6.55452">
        <ele>1954.4081</ele>
        <time>2016-09-20T10:53:26Z</time>
      </trkpt>
      <trkpt lat="45.57388" lon="6.5545">
        <ele>1953.4595</ele>
        <time>2016-09-20T10:53:39Z</time>
      </trkpt>
      <trkpt lat="45.57378" lon="6.55453">
        <ele>1954.667</ele>
        <time>2016-09-20T10:53:48Z</time>
      </trkpt>
      <trkpt lat="45.57369" lon="6.5545">
        <ele>1953.2745</ele>
        <time>2016-09-20T10:53:56Z</time>
      </trkpt>
      <trkpt lat="45.57359" lon="6.55447">
        <ele>1950.0801</ele>
        <time>2016-09-20T10:54:04Z</time>
      </trkpt>
      <trkpt lat="45.5735" lon="6.5545">
        <ele>1950.7458</ele>
        <time>2016-09-20T10:54:11Z</time>
      </trkpt>
      <trkpt lat="45.5734" lon="6.55449">
        <ele>1948.2675</ele>
        <time>2016-09-20T10:54:19Z</time>
      </trkpt>
      <trkpt lat="45.57331" lon="6.55449">
        <ele>1949.4142</ele>
        <time>2016-09-20T10:54:26Z</time>
      </trkpt>
      <trkpt lat="45.57321" lon="6.55444">
        <ele>1947.3268</ele>
        <time>2016-09-20T10:54:36Z</time>
      </trkpt>
      <trkpt lat="45.57312" lon="6.55444">
        <ele>1948.2727</ele>
        <time>2016-09-20T10:54:43Z</time>
      </trkpt>
      <trkpt lat="45.57302" lon="6.55444">
        <ele>1944.637</ele>
        <time>2016-09-20T10:54:51Z</time>
      </trkpt>
      <trkpt lat="45.57292" lon="6.55442">
        <ele>1946.7799</ele>
        <time>2016-09-20T10:54:59Z</time>
      </trkpt>
      <trkpt lat="45.57281" lon="6.55441">
        <ele>1944.8827</ele>
        <time>2016-09-20T10:55:07Z</time>
      </trkpt>
      <trkpt lat="45.57269" lon="6.5544">
        <ele>1946.0638</ele>
        <time>2016-09-20T10:55:49Z</time>
      </trkpt>
      <trkpt lat="45.57259" lon="6.55436">
        <ele>1944.6925</ele>
        <time>2016-09-20T10:55:56Z</time>
      </trkpt>
      <trkpt lat="45.5725" lon="6.55438">
        <ele>1943.4401</ele>
        <time>2016-09-20T10:56:04Z</time>
      </trkpt>
      <trkpt lat="45.5724" lon="6.55439">
        <ele>1945.6173</ele>
        <time>2016-09-20T10:56:11Z</time>
      </trkpt>
      <trkpt lat="45.57231" lon="6.55436">
        <ele>1941.8362</ele>
        <time>2016-09-20T10:56:19Z</time>
      </trkpt>
      <trkpt lat="45.57222" lon="6.55434">
        <ele>1941.4135</ele>
        <time>2016-09-20T10:56:27Z</time>
      </trkpt>
      <trkpt lat="45.57213" lon="6.55429">
        <ele>1939.4554</ele>
        <time>2016-09-20T10:56:34Z</time>
      </trkpt>
      <trkpt lat="45.57203" lon="6.5543">
        <ele>1941.6089</ele>
        <time>2016-09-20T10:56:41Z</time>
      </trkpt>
      <trkpt lat="45.57193" lon="6.55428">
        <ele>1940.6841</ele>
        <time>2016-09-20T10:56:47Z</time>
      </trkpt>
      <trkpt lat="45.57184" lon="6.55425">
        <ele>1937.738</ele>
        <time>2016-09-20T10:56:54Z</time>
      </trkpt>
      <trkpt lat="45.57175" lon="6.55425">
        <ele>1937.2836</ele>
        <time>2016-09-20T10:57:01Z</time>
      </trkpt>
      <trkpt lat="45.57165" lon="6.55422">
        <ele>1936.9242</ele>
        <time>2016-09-20T10:57:08Z</time>
      </trkpt>
      <trkpt lat="45.57156" lon="6.5542">
        <ele>1934.4827</ele>
        <time>2016-09-20T10:57:15Z</time>
      </trkpt>
      <trkpt lat="45.57147" lon="6.55418">
        <ele>1934.9979</ele>
        <time>2016-09-20T10:57:22Z</time>
      </trkpt>
      <trkpt lat="45.57136" lon="6.55415">
        <ele>1936.4723</ele>
        <time>2016-09-20T10:57:30Z</time>
      </trkpt>
      <trkpt lat="45.57127" lon="6.5541">
        <ele>1935.5872</ele>
        <time>2016-09-20T10:57:38Z</time>
      </trkpt>
      <trkpt lat="45.57118" lon="6.55403">
        <ele>1933.2858</ele>
        <time>2016-09-20T10:57:45Z</time>
      </trkpt>
      <trkpt lat="45.57109" lon="6.55395">
        <ele>1935.5924</ele>
        <time>2016-09-20T10:57:56Z</time>
      </trkpt>
      <trkpt lat="45.57104" lon="6.5539">
        <ele>1933.3729</ele>
        <time>2016-09-20T10:58:16Z</time>
      </trkpt>
      <trkpt lat="45.57104" lon="6.55393">
        <ele>1933.3518</ele>
        <time>2016-09-20T10:59:11Z</time>
      </trkpt>
      <trkpt lat="45.57105" lon="6.55403">
        <ele>1934.5382</ele>
        <time>2016-09-20T10:59:26Z</time>
      </trkpt>
      <trkpt lat="45.57105" lon="6.55403">
        <ele>1934.5382</ele>
        <time>2016-09-20T10:59:26Z</time>
      </trkpt>
      <trkpt lat="45.57087" lon="6.55395">
        <ele>1933.3096</ele>
        <time>2016-09-20T11:04:22Z</time>
      </trkpt>
      <trkpt lat="45.57076" lon="6.55395">
        <ele>1933.7429</ele>
        <time>2016-09-20T11:04:30Z</time>
      </trkpt>
      <trkpt lat="45.57068" lon="6.55391">
        <ele>1931.8563</ele>
        <time>2016-09-20T11:04:38Z</time>
      </trkpt>
      <trkpt lat="45.57058" lon="6.55389">
        <ele>1932.1654</ele>
        <time>2016-09-20T11:04:47Z</time>
      </trkpt>
      <trkpt lat="45.57048" lon="6.55385">
        <ele>1931.4758</ele>
        <time>2016-09-20T11:04:56Z</time>
      </trkpt>
      <trkpt lat="45.57039" lon="6.55384">
        <ele>1930.9209</ele>
        <time>2016-09-20T11:05:05Z</time>
      </trkpt>
      <trkpt lat="45.57029" lon="6.55384">
        <ele>1930.3</ele>
        <time>2016-09-20T11:05:13Z</time>
      </trkpt>
      <trkpt lat="45.57022" lon="6.55391">
        <ele>1928.1333</ele>
        <time>2016-09-20T11:05:25Z</time>
      </trkpt>
      <trkpt lat="45.57013" lon="6.55394">
        <ele>1923.6309</ele>
        <time>2016-09-20T11:05:36Z</time>
      </trkpt>
      <trkpt lat="45.57005" lon="6.55389">
        <ele>1926.2229</ele>
        <time>2016-09-20T11:05:46Z</time>
      </trkpt>
      <trkpt lat="45.56995" lon="6.55392">
        <ele>1925.4065</ele>
        <time>2016-09-20T11:05:54Z</time>
      </trkpt>
      <trkpt lat="45.56986" lon="6.55392">
        <ele>1924.5319</ele>
        <time>2016-09-20T11:06:02Z</time>
      </trkpt>
      <trkpt lat="45.56975" lon="6.55391">
        <ele>1921.562</ele>
        <time>2016-09-20T11:06:11Z</time>
      </trkpt>
      <trkpt lat="45.56966" lon="6.55391">
        <ele>1922.6427</ele>
        <time>2016-09-20T11:06:19Z</time>
      </trkpt>
      <trkpt lat="45.56957" lon="6.55396">
        <ele>1921.3903</ele>
        <time>2016-09-20T11:06:26Z</time>
      </trkpt>
      <trkpt lat="45.56948" lon="6.55397">
        <ele>1922.7246</ele>
        <time>2016-09-20T11:06:34Z</time>
      </trkpt>
      <trkpt lat="45.5694" lon="6.5539">
        <ele>1921.4087</ele>
        <time>2016-09-20T11:06:43Z</time>
      </trkpt>
      <trkpt lat="45.5693" lon="6.55387">
        <ele>1919.6992</ele>
        <time>2016-09-20T11:06:51Z</time>
      </trkpt>
      <trkpt lat="45.56921" lon="6.55386">
        <ele>1918.8167</ele>
        <time>2016-09-20T11:06:58Z</time>
      </trkpt>
      <trkpt lat="45.56915" lon="6.55375">
        <ele>1917.5907</ele>
        <time>2016-09-20T11:07:07Z</time>
      </trkpt>
      <trkpt lat="45.56908" lon="6.55365">
        <ele>1917.1204</ele>
        <time>2016-09-20T11:07:15Z</time>
      </trkpt>
      <trkpt lat="45.569" lon="6.55357">
        <ele>1917.3502</ele>
        <time>2016-09-20T11:07:25Z</time>
      </trkpt>
      <trkpt lat="45.56891" lon="6.55351">
        <ele>1916.2378</ele>
        <time>2016-09-20T11:07:35Z</time>
      </trkpt>
      <trkpt lat="45.56882" lon="6.55353">
        <ele>1915.5693</ele>
        <time>2016-09-20T11:07:43Z</time>
      </trkpt>
      <trkpt lat="45.56873" lon="6.55349">
        <ele>1913.4581</ele>
        <time>2016-09-20T11:07:52Z</time>
      </trkpt>
      <trkpt lat="45.56864" lon="6.55343">
        <ele>1911.6085</ele>
        <time>2016-09-20T11:08:01Z</time>
      </trkpt>
      <trkpt lat="45.56854" lon="6.55339">
        <ele>1911.0247</ele>
        <time>2016-09-20T11:08:10Z</time>
      </trkpt>
      <trkpt lat="45.56844" lon="6.55337">
        <ele>1911.2122</ele>
        <time>2016-09-20T11:08:19Z</time>
      </trkpt>
      <trkpt lat="45.56835" lon="6.5534">
        <ele>1912.1158</ele>
        <time>2016-09-20T11:08:26Z</time>
      </trkpt>
      <trkpt lat="45.56825" lon="6.55344">
        <ele>1911.0537</ele>
        <time>2016-09-20T11:08:34Z</time>
      </trkpt>
      <trkpt lat="45.56817" lon="6.5535">
        <ele>1911.3998</ele>
        <time>2016-09-20T11:08:43Z</time>
      </trkpt>
      <trkpt lat="45.56809" lon="6.55356">
        <ele>1911.0378</ele>
        <time>2016-09-20T11:08:53Z</time>
      </trkpt>
      <trkpt lat="45.568" lon="6.55364">
        <ele>1911.5319</ele>
        <time>2016-09-20T11:09:03Z</time>
      </trkpt>
      <trkpt lat="45.56791" lon="6.55371">
        <ele>1910.5886</ele>
        <time>2016-09-20T11:09:13Z</time>
      </trkpt>
      <trkpt lat="45.56783" lon="6.55377">
        <ele>1908.3163</ele>
        <time>2016-09-20T11:09:23Z</time>
      </trkpt>
      <trkpt lat="45.56773" lon="6.55377">
        <ele>1908.0653</ele>
        <time>2016-09-20T11:09:33Z</time>
      </trkpt>
      <trkpt lat="45.56764" lon="6.55383">
        <ele>1907.4628</ele>
        <time>2016-09-20T11:09:42Z</time>
      </trkpt>
      <trkpt lat="45.56755" lon="6.55391">
        <ele>1907.595</ele>
        <time>2016-09-20T11:09:55Z</time>
      </trkpt>
      <trkpt lat="45.56746" lon="6.55388">
        <ele>1906.7124</ele>
        <time>2016-09-20T11:10:22Z</time>
      </trkpt>
      <trkpt lat="45.56752" lon="6.55378">
        <ele>1903.3832</ele>
        <time>2016-09-20T11:10:31Z</time>
      </trkpt>
      <trkpt lat="45.56757" lon="6.55368">
        <ele>1902.6195</ele>
        <time>2016-09-20T11:10:39Z</time>
      </trkpt>
      <trkpt lat="45.56765" lon="6.5536">
        <ele>1902.2126</ele>
        <time>2016-09-20T11:10:47Z</time>
      </trkpt>
      <trkpt lat="45.56769" lon="6.55348">
        <ele>1902.5033</ele>
        <time>2016-09-20T11:10:55Z</time>
      </trkpt>
      <trkpt lat="45.56772" lon="6.55334">
        <ele>1900.3022</ele>
        <time>2016-09-20T11:11:04Z</time>
      </trkpt>
      <trkpt lat="45.56771" lon="6.55321">
        <ele>1899.055</ele>
        <time>2016-09-20T11:11:13Z</time>
      </trkpt>
      <trkpt lat="45.56767" lon="6.55309">
        <ele>1897.4143</ele>
        <time>2016-09-20T11:11:21Z</time>
      </trkpt>
      <trkpt lat="45.56771" lon="6.55296">
        <ele>1895.7866</ele>
        <time>2016-09-20T11:11:29Z</time>
      </trkpt>
      <trkpt lat="45.56775" lon="6.55283">
        <ele>1894.0507</ele>
        <time>2016-09-20T11:11:38Z</time>
      </trkpt>
      <trkpt lat="45.56776" lon="6.5527">
        <ele>1892.4309</ele>
        <time>2016-09-20T11:11:46Z</time>
      </trkpt>
      <trkpt lat="45.56767" lon="6.55269">
        <ele>1889.9208</ele>
        <time>2016-09-20T11:11:57Z</time>
      </trkpt>
      <trkpt lat="45.5676" lon="6.5528">
        <ele>1887.0671</ele>
        <time>2016-09-20T11:12:05Z</time>
      </trkpt>
      <trkpt lat="45.56753" lon="6.55289">
        <ele>1885.7936</ele>
        <time>2016-09-20T11:12:14Z</time>
      </trkpt>
      <trkpt lat="45.56744" lon="6.55297">
        <ele>1884.594</ele>
        <time>2016-09-20T11:12:23Z</time>
      </trkpt>
      <trkpt lat="45.56734" lon="6.55301">
        <ele>1882.1075</ele>
        <time>2016-09-20T11:12:32Z</time>
      </trkpt>
      <trkpt lat="45.56727" lon="6.55286">
        <ele>1878.4691</ele>
        <time>2016-09-20T11:13:07Z</time>
      </trkpt>
      <trkpt lat="45.56723" lon="6.55274">
        <ele>1876.0541</ele>
        <time>2016-09-20T11:13:17Z</time>
      </trkpt>
      <trkpt lat="45.56719" lon="6.55261">
        <ele>1872.8701</ele>
        <time>2016-09-20T11:13:28Z</time>
      </trkpt>
      <trkpt lat="45.56717" lon="6.55247">
        <ele>1869.9028</ele>
        <time>2016-09-20T11:13:41Z</time>
      </trkpt>
      <trkpt lat="45.56716" lon="6.55234">
        <ele>1868.3016</ele>
        <time>2016-09-20T11:13:50Z</time>
      </trkpt>
      <trkpt lat="45.56714" lon="6.55221">
        <ele>1865.7361</ele>
        <time>2016-09-20T11:14:00Z</time>
      </trkpt>
      <trkpt lat="45.56712" lon="6.55207">
        <ele>1863.8389</ele>
        <time>2016-09-20T11:14:09Z</time>
      </trkpt>
      <trkpt lat="45.5671" lon="6.55192">
        <ele>1862.1213</ele>
        <time>2016-09-20T11:14:16Z</time>
      </trkpt>
      <trkpt lat="45.56708" lon="6.5518">
        <ele>1858.261</ele>
        <time>2016-09-20T11:14:24Z</time>
      </trkpt>
      <trkpt lat="45.56707" lon="6.55166">
        <ele>1856.9135</ele>
        <time>2016-09-20T11:14:32Z</time>
      </trkpt>
      <trkpt lat="45.56705" lon="6.55152">
        <ele>1855.6796</ele>
        <time>2016-09-20T11:14:40Z</time>
      </trkpt>
      <trkpt lat="45.56702" lon="6.55139">
        <ele>1856.7919</ele>
        <time>2016-09-20T11:14:48Z</time>
      </trkpt>
      <trkpt lat="45.56701" lon="6.55125">
        <ele>1855.1299</ele>
        <time>2016-09-20T11:14:55Z</time>
      </trkpt>
      <trkpt lat="45.567" lon="6.5511">
        <ele>1853.5498</ele>
        <time>2016-09-20T11:15:04Z</time>
      </trkpt>
      <trkpt lat="45.56701" lon="6.55097">
        <ele>1851.518</ele>
        <time>2016-09-20T11:15:13Z</time>
      </trkpt>
      <trkpt lat="45.56697" lon="6.55085">
        <ele>1850.5562</ele>
        <time>2016-09-20T11:15:19Z</time>
      </trkpt>
      <trkpt lat="45.56693" lon="6.55073">
        <ele>1849.671</ele>
        <time>2016-09-20T11:15:30Z</time>
      </trkpt>
      <trkpt lat="45.56688" lon="6.55061">
        <ele>1847.9984</ele>
        <time>2016-09-20T11:15:37Z</time>
      </trkpt>
      <trkpt lat="45.56683" lon="6.5505">
        <ele>1847.1292</ele>
        <time>2016-09-20T11:15:46Z</time>
      </trkpt>
      <trkpt lat="45.56676" lon="6.5504">
        <ele>1844.2385</ele>
        <time>2016-09-20T11:15:54Z</time>
      </trkpt>
      <trkpt lat="45.5667" lon="6.55029">
        <ele>1842.2964</ele>
        <time>2016-09-20T11:16:02Z</time>
      </trkpt>
      <trkpt lat="45.56666" lon="6.55016">
        <ele>1841.4879</ele>
        <time>2016-09-20T11:16:09Z</time>
      </trkpt>
      <trkpt lat="45.56659" lon="6.55004">
        <ele>1839.5828</ele>
        <time>2016-09-20T11:16:18Z</time>
      </trkpt>
      <trkpt lat="45.56651" lon="6.54997">
        <ele>1838.8218</ele>
        <time>2016-09-20T11:16:26Z</time>
      </trkpt>
      <trkpt lat="45.56641" lon="6.54998">
        <ele>1837.3342</ele>
        <time>2016-09-20T11:16:33Z</time>
      </trkpt>
      <trkpt lat="45.56631" lon="6.54994">
        <ele>1836.1716</ele>
        <time>2016-09-20T11:16:43Z</time>
      </trkpt>
      <trkpt lat="45.56621" lon="6.54995">
        <ele>1834.6787</ele>
        <time>2016-09-20T11:16:51Z</time>
      </trkpt>
      <trkpt lat="45.56614" lon="6.54987">
        <ele>1833.4686</ele>
        <time>2016-09-20T11:16:59Z</time>
      </trkpt>
      <trkpt lat="45.56604" lon="6.54982">
        <ele>1829.8593</ele>
        <time>2016-09-20T11:17:08Z</time>
      </trkpt>
      <trkpt lat="45.56596" lon="6.54975">
        <ele>1829.233</ele>
        <time>2016-09-20T11:17:18Z</time>
      </trkpt>
      <trkpt lat="45.56587" lon="6.54969">
        <ele>1827.83</ele>
        <time>2016-09-20T11:17:26Z</time>
      </trkpt>
      <trkpt lat="45.56577" lon="6.54971">
        <ele>1826.0808</ele>
        <time>2016-09-20T11:17:35Z</time>
      </trkpt>
      <trkpt lat="45.56574" lon="6.5497">
        <ele>1822.3129</ele>
        <time>2016-09-20T11:18:16Z</time>
      </trkpt>
      <trkpt lat="45.56564" lon="6.54967">
        <ele>1821.1741</ele>
        <time>2016-09-20T11:18:20Z</time>
      </trkpt>
      <trkpt lat="45.56555" lon="6.5497">
        <ele>1818.5873</ele>
        <time>2016-09-20T11:18:28Z</time>
      </trkpt>
      <trkpt lat="45.56546" lon="6.54971">
        <ele>1816.5845</ele>
        <time>2016-09-20T11:18:34Z</time>
      </trkpt>
      <trkpt lat="45.56535" lon="6.54972">
        <ele>1814.098</ele>
        <time>2016-09-20T11:18:41Z</time>
      </trkpt>
      <trkpt lat="45.56524" lon="6.54972">
        <ele>1811.6989</ele>
        <time>2016-09-20T11:18:48Z</time>
      </trkpt>
      <trkpt lat="45.56516" lon="6.54965">
        <ele>1809.7462</ele>
        <time>2016-09-20T11:19:03Z</time>
      </trkpt>
      <trkpt lat="45.56516" lon="6.54951">
        <ele>1808.6841</ele>
        <time>2016-09-20T11:19:08Z</time>
      </trkpt>
      <trkpt lat="45.56509" lon="6.54943">
        <ele>1806.0206</ele>
        <time>2016-09-20T11:19:15Z</time>
      </trkpt>
      <trkpt lat="45.56503" lon="6.54931">
        <ele>1804.9901</ele>
        <time>2016-09-20T11:19:21Z</time>
      </trkpt>
      <trkpt lat="45.56494" lon="6.54927">
        <ele>1803.9993</ele>
        <time>2016-09-20T11:19:28Z</time>
      </trkpt>
      <trkpt lat="45.56495" lon="6.54913">
        <ele>1803.2357</ele>
        <time>2016-09-20T11:19:33Z</time>
      </trkpt>
      <trkpt lat="45.56495" lon="6.5491">
        <ele>1804.0363</ele>
        <time>2016-09-20T11:19:41Z</time>
      </trkpt>
      <trkpt lat="45.56495" lon="6.5491">
        <ele>1804.0363</ele>
        <time>2016-09-20T11:19:41Z</time>
      </trkpt>
      <trkpt lat="45.56493" lon="6.54901">
        <ele>1801.7085</ele>
        <time>2016-09-20T11:22:17Z</time>
      </trkpt>
      <trkpt lat="45.5649" lon="6.54888">
        <ele>1799.7875</ele>
        <time>2016-09-20T11:22:30Z</time>
      </trkpt>
      <trkpt lat="45.5648" lon="6.54878">
        <ele>1796.3684</ele>
        <time>2016-09-20T11:22:49Z</time>
      </trkpt>
      <trkpt lat="45.56473" lon="6.5487">
        <ele>1793.269</ele>
        <time>2016-09-20T11:22:58Z</time>
      </trkpt>
      <trkpt lat="45.56463" lon="6.54873">
        <ele>1791.3877</ele>
        <time>2016-09-20T11:23:05Z</time>
      </trkpt>
      <trkpt lat="45.56454" lon="6.54877">
        <ele>1789.1497</ele>
        <time>2016-09-20T11:23:16Z</time>
      </trkpt>
      <trkpt lat="45.56444" lon="6.54878">
        <ele>1786.8008</ele>
        <time>2016-09-20T11:23:23Z</time>
      </trkpt>
      <trkpt lat="45.56443" lon="6.54864">
        <ele>1784.2245</ele>
        <time>2016-09-20T11:23:29Z</time>
      </trkpt>
      <trkpt lat="45.56438" lon="6.54852">
        <ele>1781.2599</ele>
        <time>2016-09-20T11:23:39Z</time>
      </trkpt>
      <trkpt lat="45.56434" lon="6.54839">
        <ele>1778.438</ele>
        <time>2016-09-20T11:23:49Z</time>
      </trkpt>
      <trkpt lat="45.56432" lon="6.54826">
        <ele>1776.8024</ele>
        <time>2016-09-20T11:23:58Z</time>
      </trkpt>
      <trkpt lat="45.5643" lon="6.54813">
        <ele>1773.9011</ele>
        <time>2016-09-20T11:24:08Z</time>
      </trkpt>
      <trkpt lat="45.56424" lon="6.54802">
        <ele>1772.6434</ele>
        <time>2016-09-20T11:24:18Z</time>
      </trkpt>
      <trkpt lat="45.56421" lon="6.5479">
        <ele>1770.3895</ele>
        <time>2016-09-20T11:24:29Z</time>
      </trkpt>
      <trkpt lat="45.56414" lon="6.54779">
        <ele>1768.5109</ele>
        <time>2016-09-20T11:24:38Z</time>
      </trkpt>
      <trkpt lat="45.5641" lon="6.54766">
        <ele>1766.5927</ele>
        <time>2016-09-20T11:24:47Z</time>
      </trkpt>
      <trkpt lat="45.56403" lon="6.54756">
        <ele>1764.9994</ele>
        <time>2016-09-20T11:24:56Z</time>
      </trkpt>
      <trkpt lat="45.56398" lon="6.54746">
        <ele>1763.081</ele>
        <time>2016-09-20T11:25:04Z</time>
      </trkpt>
      <trkpt lat="45.56392" lon="6.54736">
        <ele>1760.5524</ele>
        <time>2016-09-20T11:25:11Z</time>
      </trkpt>
      <trkpt lat="45.56383" lon="6.54732">
        <ele>1760.1031</ele>
        <time>2016-09-20T11:25:24Z</time>
      </trkpt>
      <trkpt lat="45.56374" lon="6.54724">
        <ele>1758.0475</ele>
        <time>2016-09-20T11:25:38Z</time>
      </trkpt>
      <trkpt lat="45.56366" lon="6.54718">
        <ele>1755.6985</ele>
        <time>2016-09-20T11:25:47Z</time>
      </trkpt>
      <trkpt lat="45.56358" lon="6.54713">
        <ele>1752.5437</ele>
        <time>2016-09-20T11:25:54Z</time>
      </trkpt>
      <trkpt lat="45.56348" lon="6.54708">
        <ele>1750.665</ele>
        <time>2016-09-20T11:26:01Z</time>
      </trkpt>
      <trkpt lat="45.5634" lon="6.54702">
        <ele>1749.2039</ele>
        <time>2016-09-20T11:26:08Z</time>
      </trkpt>
      <trkpt lat="45.56332" lon="6.54694">
        <ele>1748.1892</ele>
        <time>2016-09-20T11:26:15Z</time>
      </trkpt>
      <trkpt lat="45.56323" lon="6.5469">
        <ele>1747.7928</ele>
        <time>2016-09-20T11:26:22Z</time>
      </trkpt>
      <trkpt lat="45.56313" lon="6.54689">
        <ele>1745.1929</ele>
        <time>2016-09-20T11:26:30Z</time>
      </trkpt>
      <trkpt lat="45.56303" lon="6.54691">
        <ele>1742.9945</ele>
        <time>2016-09-20T11:26:39Z</time>
      </trkpt>
      <trkpt lat="45.56293" lon="6.54688">
        <ele>1740.2307</ele>
        <time>2016-09-20T11:26:51Z</time>
      </trkpt>
      <trkpt lat="45.56292" lon="6.54675">
        <ele>1738.6294</ele>
        <time>2016-09-20T11:26:58Z</time>
      </trkpt>
      <trkpt lat="45.56288" lon="6.54663">
        <ele>1736.6398</ele>
        <time>2016-09-20T11:27:07Z</time>
      </trkpt>
      <trkpt lat="45.56282" lon="6.54653">
        <ele>1734.4493</ele>
        <time>2016-09-20T11:27:18Z</time>
      </trkpt>
      <trkpt lat="45.56273" lon="6.5465">
        <ele>1732.1189</ele>
        <time>2016-09-20T11:27:26Z</time>
      </trkpt>
      <trkpt lat="45.56264" lon="6.54645">
        <ele>1730.4701</ele>
        <time>2016-09-20T11:27:36Z</time>
      </trkpt>
      <trkpt lat="45.56257" lon="6.54635">
        <ele>1727.273</ele>
        <time>2016-09-20T11:27:47Z</time>
      </trkpt>
      <trkpt lat="45.56254" lon="6.54622">
        <ele>1724.7654</ele>
        <time>2016-09-20T11:27:57Z</time>
      </trkpt>
      <trkpt lat="45.56247" lon="6.54612">
        <ele>1722.2183</ele>
        <time>2016-09-20T11:28:06Z</time>
      </trkpt>
      <trkpt lat="45.56239" lon="6.54606">
        <ele>1721.4917</ele>
        <time>2016-09-20T11:28:14Z</time>
      </trkpt>
      <trkpt lat="45.56233" lon="6.54595">
        <ele>1720.5299</ele>
        <time>2016-09-20T11:28:21Z</time>
      </trkpt>
      <trkpt lat="45.56224" lon="6.54587">
        <ele>1718.0936</ele>
        <time>2016-09-20T11:28:32Z</time>
      </trkpt>
      <trkpt lat="45.56218" lon="6.54577">
        <ele>1715.8108</ele>
        <time>2016-09-20T11:28:42Z</time>
      </trkpt>
      <trkpt lat="45.56217" lon="6.54564">
        <ele>1714.8358</ele>
        <time>2016-09-20T11:28:51Z</time>
      </trkpt>
      <trkpt lat="45.56211" lon="6.54555">
        <ele>1713.504</ele>
        <time>2016-09-20T11:28:59Z</time>
      </trkpt>
      <trkpt lat="45.56203" lon="6.54548">
        <ele>1712.2041</ele>
        <time>2016-09-20T11:29:07Z</time>
      </trkpt>
      <trkpt lat="45.56194" lon="6.5454">
        <ele>1711.9425</ele>
        <time>2016-09-20T11:29:15Z</time>
      </trkpt>
      <trkpt lat="45.56185" lon="6.54537">
        <ele>1712.9281</ele>
        <time>2016-09-20T11:29:24Z</time>
      </trkpt>
      <trkpt lat="45.56177" lon="6.5453">
        <ele>1713.4697</ele>
        <time>2016-09-20T11:29:32Z</time>
      </trkpt>
      <trkpt lat="45.56168" lon="6.54525">
        <ele>1713.5094</ele>
        <time>2016-09-20T11:29:40Z</time>
      </trkpt>
      <trkpt lat="45.56159" lon="6.5452">
        <ele>1714.2333</ele>
        <time>2016-09-20T11:29:48Z</time>
      </trkpt>
      <trkpt lat="45.56152" lon="6.54504">
        <ele>1714.6191</ele>
        <time>2016-09-20T11:30:16Z</time>
      </trkpt>
      <trkpt lat="45.56144" lon="6.54495">
        <ele>1712.9808</ele>
        <time>2016-09-20T11:30:24Z</time>
      </trkpt>
      <trkpt lat="45.56138" lon="6.54486">
        <ele>1710.735</ele>
        <time>2016-09-20T11:30:31Z</time>
      </trkpt>
      <trkpt lat="45.56131" lon="6.54477">
        <ele>1711.1207</ele>
        <time>2016-09-20T11:30:38Z</time>
      </trkpt>
      <trkpt lat="45.56122" lon="6.54469">
        <ele>1710.3518</ele>
        <time>2016-09-20T11:30:46Z</time>
      </trkpt>
      <trkpt lat="45.56113" lon="6.54466">
        <ele>1709.5883</ele>
        <time>2016-09-20T11:30:52Z</time>
      </trkpt>
      <trkpt lat="45.56104" lon="6.54465">
        <ele>1708.4811</ele>
        <time>2016-09-20T11:30:59Z</time>
      </trkpt>
      <trkpt lat="45.56093" lon="6.54465">
        <ele>1707.6858</ele>
        <time>2016-09-20T11:31:07Z</time>
      </trkpt>
      <trkpt lat="45.56084" lon="6.54461">
        <ele>1705.6116</ele>
        <time>2016-09-20T11:31:14Z</time>
      </trkpt>
      <trkpt lat="45.56075" lon="6.54451">
        <ele>1703.762</ele>
        <time>2016-09-20T11:31:43Z</time>
      </trkpt>
      <trkpt lat="45.56067" lon="6.54443">
        <ele>1702.1476</ele>
        <time>2016-09-20T11:31:53Z</time>
      </trkpt>
      <trkpt lat="45.56062" lon="6.54431">
        <ele>1700.0919</ele>
        <time>2016-09-20T11:32:03Z</time>
      </trkpt>
      <trkpt lat="45.56057" lon="6.54421">
        <ele>1698.3347</ele>
        <time>2016-09-20T11:32:12Z</time>
      </trkpt>
      <trkpt lat="45.56051" lon="6.5441">
        <ele>1696.5222</ele>
        <time>2016-09-20T11:32:22Z</time>
      </trkpt>
      <trkpt lat="45.56038" lon="6.54408">
        <ele>1693.7346</ele>
        <time>2016-09-20T11:33:26Z</time>
      </trkpt>
      <trkpt lat="45.56028" lon="6.54404">
        <ele>1693.2114</ele>
        <time>2016-09-20T11:33:35Z</time>
      </trkpt>
      <trkpt lat="45.56025" lon="6.54394">
        <ele>1692.8441</ele>
        <time>2016-09-20T11:33:55Z</time>
      </trkpt>
      <trkpt lat="45.56015" lon="6.54393">
        <ele>1692.6406</ele>
        <time>2016-09-20T11:34:22Z</time>
      </trkpt>
      <trkpt lat="45.56005" lon="6.54391">
        <ele>1691.6552</ele>
        <time>2016-09-20T11:34:32Z</time>
      </trkpt>
      <trkpt lat="45.55994" lon="6.54392">
        <ele>1691.5125</ele>
        <time>2016-09-20T11:34:40Z</time>
      </trkpt>
      <trkpt lat="45.55985" lon="6.54397">
        <ele>1691.1636</ele>
        <time>2016-09-20T11:34:47Z</time>
      </trkpt>
      <trkpt lat="45.55978" lon="6.54387">
        <ele>1690.6616</ele>
        <time>2016-09-20T11:34:57Z</time>
      </trkpt>
      <trkpt lat="45.55971" lon="6.54378">
        <ele>1690.4185</ele>
        <time>2016-09-20T11:35:04Z</time>
      </trkpt>
      <trkpt lat="45.55962" lon="6.54371">
        <ele>1691.3936</ele>
        <time>2016-09-20T11:35:11Z</time>
      </trkpt>
      <trkpt lat="45.55956" lon="6.54361">
        <ele>1690.6959</ele>
        <time>2016-09-20T11:35:19Z</time>
      </trkpt>
      <trkpt lat="45.55949" lon="6.54352">
        <ele>1689.8398</ele>
        <time>2016-09-20T11:35:28Z</time>
      </trkpt>
      <trkpt lat="45.55943" lon="6.54341">
        <ele>1688.7671</ele>
        <time>2016-09-20T11:35:37Z</time>
      </trkpt>
      <trkpt lat="45.55933" lon="6.54338">
        <ele>1688.1198</ele>
        <time>2016-09-20T11:35:45Z</time>
      </trkpt>
      <trkpt lat="45.55934" lon="6.54326">
        <ele>1688.1515</ele>
        <time>2016-09-20T11:37:02Z</time>
      </trkpt>
      <trkpt lat="45.55933" lon="6.54312">
        <ele>1686.8383</ele>
        <time>2016-09-20T11:38:08Z</time>
      </trkpt>
      <trkpt lat="45.55936" lon="6.54298">
        <ele>1687.2002</ele>
        <time>2016-09-20T11:38:19Z</time>
      </trkpt>
      <trkpt lat="45.55938" lon="6.54284">
        <ele>1685.9135</ele>
        <time>2016-09-20T11:38:29Z</time>
      </trkpt>
      <trkpt lat="45.55939" lon="6.54275">
        <ele>1684.9385</ele>
        <time>2016-09-20T11:38:49Z</time>
      </trkpt>
      <trkpt lat="45.55938" lon="6.54259">
        <ele>1682.7163</ele>
        <time>2016-09-20T11:38:57Z</time>
      </trkpt>
      <trkpt lat="45.5594" lon="6.54246">
        <ele>1681.7201</ele>
        <time>2016-09-20T11:39:05Z</time>
      </trkpt>
      <trkpt lat="45.5594" lon="6.54231">
        <ele>1679.4398</ele>
        <time>2016-09-20T11:39:13Z</time>
      </trkpt>
      <trkpt lat="45.5594" lon="6.54217">
        <ele>1679.2814</ele>
        <time>2016-09-20T11:39:21Z</time>
      </trkpt>
      <trkpt lat="45.55937" lon="6.54205">
        <ele>1677.5745</ele>
        <time>2016-09-20T11:39:28Z</time>
      </trkpt>
      <trkpt lat="45.55933" lon="6.54194">
        <ele>1677.5665</ele>
        <time>2016-09-20T11:39:34Z</time>
      </trkpt>
      <trkpt lat="45.55928" lon="6.54183">
        <ele>1676.0314</ele>
        <time>2016-09-20T11:39:40Z</time>
      </trkpt>
      <trkpt lat="45.55921" lon="6.54173">
        <ele>1675.051</ele>
        <time>2016-09-20T11:39:48Z</time>
      </trkpt>
      <trkpt lat="45.55916" lon="6.54162">
        <ele>1673.4816</ele>
        <time>2016-09-20T11:39:55Z</time>
      </trkpt>
      <trkpt lat="45.5591" lon="6.54151">
        <ele>1672.1974</ele>
        <time>2016-09-20T11:40:05Z</time>
      </trkpt>
      <trkpt lat="45.55907" lon="6.54139">
        <ele>1671.188</ele>
        <time>2016-09-20T11:40:11Z</time>
      </trkpt>
      <trkpt lat="45.55905" lon="6.54125">
        <ele>1669.1165</ele>
        <time>2016-09-20T11:40:22Z</time>
      </trkpt>
      <trkpt lat="45.55902" lon="6.54113">
        <ele>1666.9155</ele>
        <time>2016-09-20T11:40:29Z</time>
      </trkpt>
      <trkpt lat="45.55895" lon="6.54104">
        <ele>1665.2615</ele>
        <time>2016-09-20T11:40:37Z</time>
      </trkpt>
      <trkpt lat="45.55887" lon="6.54096">
        <ele>1664.0433</ele>
        <time>2016-09-20T11:40:44Z</time>
      </trkpt>
      <trkpt lat="45.55879" lon="6.54088">
        <ele>1661.8185</ele>
        <time>2016-09-20T11:40:53Z</time>
      </trkpt>
      <trkpt lat="45.55872" lon="6.54079">
        <ele>1662.4712</ele>
        <time>2016-09-20T11:41:02Z</time>
      </trkpt>
      <trkpt lat="45.55864" lon="6.54071">
        <ele>1659.7285</ele>
        <time>2016-09-20T11:41:11Z</time>
      </trkpt>
      <trkpt lat="45.55858" lon="6.54063">
        <ele>1659.7946</ele>
        <time>2016-09-20T11:41:18Z</time>
      </trkpt>
      <trkpt lat="45.55857" lon="6.54061">
        <ele>1659.1604</ele>
        <time>2016-09-20T11:41:19Z</time>
      </trkpt>
      <trkpt lat="45.55849" lon="6.54055">
        <ele>1658.1484</ele>
        <time>2016-09-20T11:41:29Z</time>
      </trkpt>
      <trkpt lat="45.55841" lon="6.54046">
        <ele>1656.6741</ele>
        <time>2016-09-20T11:41:40Z</time>
      </trkpt>
      <trkpt lat="45.55832" lon="6.54041">
        <ele>1656.0504</ele>
        <time>2016-09-20T11:41:48Z</time>
      </trkpt>
      <trkpt lat="45.55822" lon="6.54042">
        <ele>1655.7783</ele>
        <time>2016-09-20T11:41:56Z</time>
      </trkpt>
      <trkpt lat="45.55812" lon="6.54041">
        <ele>1654.9116</ele>
        <time>2016-09-20T11:42:03Z</time>
      </trkpt>
      <trkpt lat="45.55807" lon="6.5403">
        <ele>1652.2615</ele>
        <time>2016-09-20T11:42:11Z</time>
      </trkpt>
      <trkpt lat="45.55808" lon="6.54016">
        <ele>1651.0406</ele>
        <time>2016-09-20T11:42:18Z</time>
      </trkpt>
      <trkpt lat="45.55805" lon="6.54004">
        <ele>1648.7578</ele>
        <time>2016-09-20T11:42:31Z</time>
      </trkpt>
      <trkpt lat="45.55805" lon="6.54004">
        <ele>1648.7578</ele>
        <time>2016-09-20T11:42:31Z</time>
      </trkpt>
      <trkpt lat="45.55805" lon="6.54004">
        <ele>1648.7578</ele>
        <time>2016-09-20T11:42:31Z</time>
      </trkpt>
      <trkpt lat="45.55805" lon="6.54004">
        <ele>1648.7578</ele>
        <time>2016-09-20T11:42:31Z</time>
      </trkpt>
      <trkpt lat="45.55805" lon="6.54004">
        <ele>1648.7578</ele>
        <time>2016-09-20T11:42:31Z</time>
      </trkpt>
      <trkpt lat="45.55805" lon="6.54004">
        <ele>1648.7578</ele>
        <time>2016-09-20T11:42:31Z</time>
      </trkpt>
      <trkpt lat="45.55805" lon="6.53991">
        <ele>1646.8368</ele>
        <time>2016-09-20T11:42:42Z</time>
      </trkpt>
      <trkpt lat="45.55804" lon="6.53978">
        <ele>1644.8446</ele>
        <time>2016-09-20T11:42:53Z</time>
      </trkpt>
      <trkpt lat="45.55802" lon="6.53965">
        <ele>1642.1521</ele>
        <time>2016-09-20T11:43:04Z</time>
      </trkpt>
      <trkpt lat="45.55801" lon="6.53951">
        <ele>1640.2946</ele>
        <time>2016-09-20T11:43:18Z</time>
      </trkpt>
      <trkpt lat="45.55801" lon="6.53938">
        <ele>1638.1702</ele>
        <time>2016-09-20T11:43:27Z</time>
      </trkpt>
      <trkpt lat="45.558" lon="6.53925">
        <ele>1636.0723</ele>
        <time>2016-09-20T11:43:36Z</time>
      </trkpt>
      <trkpt lat="45.55803" lon="6.53909">
        <ele>1633.8527</ele>
        <time>2016-09-20T11:43:45Z</time>
      </trkpt>
      <trkpt lat="45.55806" lon="6.53895">
        <ele>1632.727</ele>
        <time>2016-09-20T11:43:52Z</time>
      </trkpt>
      <trkpt lat="45.55811" lon="6.53883">
        <ele>1631.6887</ele>
        <time>2016-09-20T11:44:00Z</time>
      </trkpt>
      <trkpt lat="45.55818" lon="6.53873">
        <ele>1628.9196</ele>
        <time>2016-09-20T11:44:10Z</time>
      </trkpt>
      <trkpt lat="45.55824" lon="6.53882">
        <ele>1625.8334</ele>
        <time>2016-09-20T11:44:22Z</time>
      </trkpt>
      <trkpt lat="45.55829" lon="6.53896">
        <ele>1623.3734</ele>
        <time>2016-09-20T11:44:29Z</time>
      </trkpt>
      <trkpt lat="45.55837" lon="6.53901">
        <ele>1625.5745</ele>
        <time>2016-09-20T11:44:38Z</time>
      </trkpt>
      <trkpt lat="45.55846" lon="6.53894">
        <ele>1624.2401</ele>
        <time>2016-09-20T11:44:56Z</time>
      </trkpt>
      <trkpt lat="45.55855" lon="6.53888">
        <ele>1625.2336</ele>
        <time>2016-09-20T11:45:06Z</time>
      </trkpt>
      <trkpt lat="45.55864" lon="6.53884">
        <ele>1626.5072</ele>
        <time>2016-09-20T11:45:15Z</time>
      </trkpt>
      <trkpt lat="45.55874" lon="6.53883">
        <ele>1627.329</ele>
        <time>2016-09-20T11:45:25Z</time>
      </trkpt>
      <trkpt lat="45.55884" lon="6.53884">
        <ele>1627.4928</ele>
        <time>2016-09-20T11:45:34Z</time>
      </trkpt>
      <trkpt lat="45.55893" lon="6.53888">
        <ele>1627.0304</ele>
        <time>2016-09-20T11:45:43Z</time>
      </trkpt>
      <trkpt lat="45.55903" lon="6.5389">
        <ele>1624.4092</ele>
        <time>2016-09-20T11:45:52Z</time>
      </trkpt>
      <trkpt lat="45.55912" lon="6.53893">
        <ele>1623.2783</ele>
        <time>2016-09-20T11:46:00Z</time>
      </trkpt>
      <trkpt lat="45.55922" lon="6.53897">
        <ele>1624.3193</ele>
        <time>2016-09-20T11:46:10Z</time>
      </trkpt>
      <trkpt lat="45.55932" lon="6.53894">
        <ele>1622.5332</ele>
        <time>2016-09-20T11:46:17Z</time>
      </trkpt>
      <trkpt lat="45.5594" lon="6.53898">
        <ele>1620.3296</ele>
        <time>2016-09-20T11:46:25Z</time>
      </trkpt>
      <trkpt lat="45.55949" lon="6.53899">
        <ele>1619.8724</ele>
        <time>2016-09-20T11:46:32Z</time>
      </trkpt>
      <trkpt lat="45.55959" lon="6.53899">
        <ele>1620.2344</ele>
        <time>2016-09-20T11:46:39Z</time>
      </trkpt>
      <trkpt lat="45.55968" lon="6.53899">
        <ele>1618.2131</ele>
        <time>2016-09-20T11:46:47Z</time>
      </trkpt>
      <trkpt lat="45.55977" lon="6.53896">
        <ele>1618.945</ele>
        <time>2016-09-20T11:46:58Z</time>
      </trkpt>
      <trkpt lat="45.55985" lon="6.53888">
        <ele>1618.5063</ele>
        <time>2016-09-20T11:47:08Z</time>
      </trkpt>
      <trkpt lat="45.55993" lon="6.5388">
        <ele>1616.9633</ele>
        <time>2016-09-20T11:47:16Z</time>
      </trkpt>
      <trkpt lat="45.56001" lon="6.53872">
        <ele>1615.7557</ele>
        <time>2016-09-20T11:47:24Z</time>
      </trkpt>
      <trkpt lat="45.5601" lon="6.53865">
        <ele>1613.8534</ele>
        <time>2016-09-20T11:47:32Z</time>
      </trkpt>
      <trkpt lat="45.56019" lon="6.53858">
        <ele>1615.0239</ele>
        <time>2016-09-20T11:47:39Z</time>
      </trkpt>
      <trkpt lat="45.56027" lon="6.53852">
        <ele>1614.0436</ele>
        <time>2016-09-20T11:47:46Z</time>
      </trkpt>
      <trkpt lat="45.56035" lon="6.53843">
        <ele>1613.7688</ele>
        <time>2016-09-20T11:47:54Z</time>
      </trkpt>
      <trkpt lat="45.5604" lon="6.53833">
        <ele>1613.2351</ele>
        <time>2016-09-20T11:48:02Z</time>
      </trkpt>
      <trkpt lat="45.56043" lon="6.5382">
        <ele>1613.1743</ele>
        <time>2016-09-20T11:48:12Z</time>
      </trkpt>
      <trkpt lat="45.56045" lon="6.53806">
        <ele>1613.3777</ele>
        <time>2016-09-20T11:48:18Z</time>
      </trkpt>
      <trkpt lat="45.56049" lon="6.53794">
        <ele>1609.6125</ele>
        <time>2016-09-20T11:48:25Z</time>
      </trkpt>
      <trkpt lat="45.56052" lon="6.53782">
        <ele>1610.1066</ele>
        <time>2016-09-20T11:48:32Z</time>
      </trkpt>
      <trkpt lat="45.5606" lon="6.53773">
        <ele>1609.6469</ele>
        <time>2016-09-20T11:48:39Z</time>
      </trkpt>
      <trkpt lat="45.56064" lon="6.53761">
        <ele>1607.9214</ele>
        <time>2016-09-20T11:48:48Z</time>
      </trkpt>
      <trkpt lat="45.56069" lon="6.53749">
        <ele>1605.3188</ele>
        <time>2016-09-20T11:48:57Z</time>
      </trkpt>
      <trkpt lat="45.56075" lon="6.5374">
        <ele>1602.6343</ele>
        <time>2016-09-20T11:49:06Z</time>
      </trkpt>
      <trkpt lat="45.5608" lon="6.53728">
        <ele>1601.7253</ele>
        <time>2016-09-20T11:49:14Z</time>
      </trkpt>
      <trkpt lat="45.56083" lon="6.53714">
        <ele>1599.4767</ele>
        <time>2016-09-20T11:49:26Z</time>
      </trkpt>
      <trkpt lat="45.56089" lon="6.53706">
        <ele>1598.766</ele>
        <time>2016-09-20T11:49:34Z</time>
      </trkpt>
      <trkpt lat="45.5609" lon="6.53696">
        <ele>1599.0011</ele>
        <time>2016-09-20T11:50:02Z</time>
      </trkpt>
      <trkpt lat="45.56096" lon="6.53687">
        <ele>1597.5823</ele>
        <time>2016-09-20T11:50:10Z</time>
      </trkpt>
      <trkpt lat="45.56101" lon="6.53684">
        <ele>1596.2426</ele>
        <time>2016-09-20T11:51:01Z</time>
      </trkpt>
      <trkpt lat="45.56118" lon="6.53678">
        <ele>1595.0482</ele>
        <time>2016-09-20T11:51:22Z</time>
      </trkpt>
      <trkpt lat="45.56128" lon="6.53674">
        <ele>1594.1472</ele>
        <time>2016-09-20T11:51:30Z</time>
      </trkpt>
      <trkpt lat="45.56137" lon="6.53671">
        <ele>1593.55</ele>
        <time>2016-09-20T11:51:40Z</time>
      </trkpt>
      <trkpt lat="45.56146" lon="6.53668">
        <ele>1591.2091</ele>
        <time>2016-09-20T11:51:47Z</time>
      </trkpt>
      <trkpt lat="45.56155" lon="6.53662">
        <ele>1590.3529</ele>
        <time>2016-09-20T11:51:55Z</time>
      </trkpt>
      <trkpt lat="45.56164" lon="6.53655">
        <ele>1587.8085</ele>
        <time>2016-09-20T11:52:03Z</time>
      </trkpt>
      <trkpt lat="45.56173" lon="6.53647">
        <ele>1587.7345</ele>
        <time>2016-09-20T11:52:11Z</time>
      </trkpt>
      <trkpt lat="45.56183" lon="6.53641">
        <ele>1586.453</ele>
        <time>2016-09-20T11:52:37Z</time>
      </trkpt>
      <trkpt lat="45.56189" lon="6.53631">
        <ele>1585.7395</ele>
        <time>2016-09-20T11:52:45Z</time>
      </trkpt>
      <trkpt lat="45.56195" lon="6.5362">
        <ele>1584.9125</ele>
        <time>2016-09-20T11:52:53Z</time>
      </trkpt>
      <trkpt lat="45.56201" lon="6.53608">
        <ele>1584.0696</ele>
        <time>2016-09-20T11:53:00Z</time>
      </trkpt>
      <trkpt lat="45.56206" lon="6.53597">
        <ele>1581.3983</ele>
        <time>2016-09-20T11:53:07Z</time>
      </trkpt>
      <trkpt lat="45.56208" lon="6.53583">
        <ele>1580.064</ele>
        <time>2016-09-20T11:53:14Z</time>
      </trkpt>
      <trkpt lat="45.56213" lon="6.53572">
        <ele>1578.2223</ele>
        <time>2016-09-20T11:53:22Z</time>
      </trkpt>
      <trkpt lat="45.56215" lon="6.53559">
        <ele>1575.5139</ele>
        <time>2016-09-20T11:53:31Z</time>
      </trkpt>
      <trkpt lat="45.56219" lon="6.53547">
        <ele>1573.35</ele>
        <time>2016-09-20T11:53:39Z</time>
      </trkpt>
      <trkpt lat="45.56223" lon="6.53535">
        <ele>1572.523</ele>
        <time>2016-09-20T11:53:49Z</time>
      </trkpt>
      <trkpt lat="45.56228" lon="6.53523">
        <ele>1570.7262</ele>
        <time>2016-09-20T11:53:56Z</time>
      </trkpt>
      <trkpt lat="45.56232" lon="6.53512">
        <ele>1568.9531</ele>
        <time>2016-09-20T11:54:04Z</time>
      </trkpt>
      <trkpt lat="45.56222" lon="6.53511">
        <ele>1566.1761</ele>
        <time>2016-09-20T11:54:17Z</time>
      </trkpt>
      <trkpt lat="45.56214" lon="6.53519">
        <ele>1565.4574</ele>
        <time>2016-09-20T11:54:26Z</time>
      </trkpt>
      <trkpt lat="45.56204" lon="6.53522">
        <ele>1563.1508</ele>
        <time>2016-09-20T11:54:35Z</time>
      </trkpt>
      <trkpt lat="45.56195" lon="6.53526">
        <ele>1561.8085</ele>
        <time>2016-09-20T11:54:44Z</time>
      </trkpt>
      <trkpt lat="45.56185" lon="6.5353">
        <ele>1561.0052</ele>
        <time>2016-09-20T11:54:52Z</time>
      </trkpt>
      <trkpt lat="45.56175" lon="6.53531">
        <ele>1558.8094</ele>
        <time>2016-09-20T11:55:00Z</time>
      </trkpt>
      <trkpt lat="45.56165" lon="6.53533">
        <ele>1558.2361</ele>
        <time>2016-09-20T11:55:08Z</time>
      </trkpt>
      <trkpt lat="45.56155" lon="6.53532">
        <ele>1558.3497</ele>
        <time>2016-09-20T11:55:16Z</time>
      </trkpt>
      <trkpt lat="45.56144" lon="6.53532">
        <ele>1556.4763</ele>
        <time>2016-09-20T11:55:24Z</time>
      </trkpt>
      <trkpt lat="45.56134" lon="6.53534">
        <ele>1554.1353</ele>
        <time>2016-09-20T11:55:32Z</time>
      </trkpt>
      <trkpt lat="45.56124" lon="6.53535">
        <ele>1553.4219</ele>
        <time>2016-09-20T11:55:40Z</time>
      </trkpt>
      <trkpt lat="45.56114" lon="6.53536">
        <ele>1552.8353</ele>
        <time>2016-09-20T11:55:47Z</time>
      </trkpt>
      <trkpt lat="45.56104" lon="6.53537">
        <ele>1551.3689</ele>
        <time>2016-09-20T11:55:55Z</time>
      </trkpt>
      <trkpt lat="45.56094" lon="6.53532">
        <ele>1549.7069</ele>
        <time>2016-09-20T11:56:03Z</time>
      </trkpt>
      <trkpt lat="45.56093" lon="6.53519">
        <ele>1548.8428</ele>
        <time>2016-09-20T11:56:08Z</time>
      </trkpt>
      <trkpt lat="45.561" lon="6.53509">
        <ele>1545.7012</ele>
        <time>2016-09-20T11:56:16Z</time>
      </trkpt>
      <trkpt lat="45.56107" lon="6.535">
        <ele>1545.0459</ele>
        <time>2016-09-20T11:56:24Z</time>
      </trkpt>
      <trkpt lat="45.56114" lon="6.53491">
        <ele>1546.6841</ele>
        <time>2016-09-20T11:56:31Z</time>
      </trkpt>
      <trkpt lat="45.56122" lon="6.53481">
        <ele>1543.3522</ele>
        <time>2016-09-20T11:56:39Z</time>
      </trkpt>
      <trkpt lat="45.56129" lon="6.53471">
        <ele>1542.06</ele>
        <time>2016-09-20T11:56:47Z</time>
      </trkpt>
      <trkpt lat="45.56136" lon="6.53462">
        <ele>1542.1342</ele>
        <time>2016-09-20T11:56:55Z</time>
      </trkpt>
      <trkpt lat="45.56143" lon="6.53451">
        <ele>1539.7904</ele>
        <time>2016-09-20T11:57:09Z</time>
      </trkpt>
      <trkpt lat="45.56149" lon="6.5344">
        <ele>1538.5327</ele>
        <time>2016-09-20T11:57:18Z</time>
      </trkpt>
      <trkpt lat="45.56157" lon="6.53432">
        <ele>1535.8956</ele>
        <time>2016-09-20T11:57:29Z</time>
      </trkpt>
      <trkpt lat="45.56165" lon="6.53424">
        <ele>1538.3821</ele>
        <time>2016-09-20T11:57:43Z</time>
      </trkpt>
      <trkpt lat="45.56164" lon="6.5341">
        <ele>1535.4121</ele>
        <time>2016-09-20T11:57:54Z</time>
      </trkpt>
      <trkpt lat="45.5616" lon="6.53398">
        <ele>1531.5835</ele>
        <time>2016-09-20T11:58:03Z</time>
      </trkpt>
      <trkpt lat="45.56157" lon="6.53386">
        <ele>1528.2833</ele>
        <time>2016-09-20T11:58:11Z</time>
      </trkpt>
      <trkpt lat="45.56155" lon="6.53372">
        <ele>1525.1549</ele>
        <time>2016-09-20T11:58:26Z</time>
      </trkpt>
      <trkpt lat="45.56155" lon="6.53358">
        <ele>1521.667</ele>
        <time>2016-09-20T11:58:36Z</time>
      </trkpt>
      <trkpt lat="45.56154" lon="6.53345">
        <ele>1518.2876</ele>
        <time>2016-09-20T11:58:46Z</time>
      </trkpt>
      <trkpt lat="45.5615" lon="6.53335">
        <ele>1516.4539</ele>
        <time>2016-09-20T11:59:37Z</time>
      </trkpt>
      <trkpt lat="45.56149" lon="6.53323">
        <ele>1516.7313</ele>
        <time>2016-09-20T11:59:46Z</time>
      </trkpt>
      <trkpt lat="45.56147" lon="6.5331">
        <ele>1513.8328</ele>
        <time>2016-09-20T11:59:54Z</time>
      </trkpt>
      <trkpt lat="45.56144" lon="6.53297">
        <ele>1514.0626</ele>
        <time>2016-09-20T12:00:02Z</time>
      </trkpt>
      <trkpt lat="45.56143" lon="6.53283">
        <ele>1512.945</ele>
        <time>2016-09-20T12:00:11Z</time>
      </trkpt>
      <trkpt lat="45.56143" lon="6.53269">
        <ele>1509.7821</ele>
        <time>2016-09-20T12:00:21Z</time>
      </trkpt>
      <trkpt lat="45.56137" lon="6.53259">
        <ele>1509.3857</ele>
        <time>2016-09-20T12:00:30Z</time>
      </trkpt>
      <trkpt lat="45.56135" lon="6.53246">
        <ele>1505.8503</ele>
        <time>2016-09-20T12:00:37Z</time>
      </trkpt>
      <trkpt lat="45.56133" lon="6.53234">
        <ele>1505.1766</ele>
        <time>2016-09-20T12:00:44Z</time>
      </trkpt>
      <trkpt lat="45.56126" lon="6.53217">
        <ele>1501.7338</ele>
        <time>2016-09-20T12:01:11Z</time>
      </trkpt>
      <trkpt lat="45.56124" lon="6.53204">
        <ele>1498.1085</ele>
        <time>2016-09-20T12:01:22Z</time>
      </trkpt>
      <trkpt lat="45.56125" lon="6.53191">
        <ele>1492.8081</ele>
        <time>2016-09-20T12:01:34Z</time>
      </trkpt>
      <trkpt lat="45.56125" lon="6.53177">
        <ele>1490.3376</ele>
        <time>2016-09-20T12:01:45Z</time>
      </trkpt>
      <trkpt lat="45.56119" lon="6.53166">
        <ele>1484.7069</ele>
        <time>2016-09-20T12:01:55Z</time>
      </trkpt>
      <trkpt lat="45.56113" lon="6.53155">
        <ele>1483.7637</ele>
        <time>2016-09-20T12:02:04Z</time>
      </trkpt>
      <trkpt lat="45.56109" lon="6.53143">
        <ele>1481.7079</ele>
        <time>2016-09-20T12:02:13Z</time>
      </trkpt>
      <trkpt lat="45.56103" lon="6.53132">
        <ele>1480.6246</ele>
        <time>2016-09-20T12:02:21Z</time>
      </trkpt>
      <trkpt lat="45.56097" lon="6.5312">
        <ele>1478.1012</ele>
        <time>2016-09-20T12:02:30Z</time>
      </trkpt>
      <trkpt lat="45.56092" lon="6.5311">
        <ele>1474.6213</ele>
        <time>2016-09-20T12:02:39Z</time>
      </trkpt>
      <trkpt lat="45.56092" lon="6.53097">
        <ele>1473.8181</ele>
        <time>2016-09-20T12:02:47Z</time>
      </trkpt>
      <trkpt lat="45.56099" lon="6.53088">
        <ele>1473.9264</ele>
        <time>2016-09-20T12:03:57Z</time>
      </trkpt>
      <trkpt lat="45.56104" lon="6.53077">
        <ele>1471.5721</ele>
        <time>2016-09-20T12:04:06Z</time>
      </trkpt>
      <trkpt lat="45.56097" lon="6.53067">
        <ele>1470.5629</ele>
        <time>2016-09-20T12:04:14Z</time>
      </trkpt>
      <trkpt lat="45.56088" lon="6.53067">
        <ele>1466.816</ele>
        <time>2016-09-20T12:04:23Z</time>
      </trkpt>
      <trkpt lat="45.56086" lon="6.53053">
        <ele>1463.4525</ele>
        <time>2016-09-20T12:04:32Z</time>
      </trkpt>
      <trkpt lat="45.56094" lon="6.53044">
        <ele>1464.4618</ele>
        <time>2016-09-20T12:04:42Z</time>
      </trkpt>
      <trkpt lat="45.56102" lon="6.53039">
        <ele>1462.4537</ele>
        <time>2016-09-20T12:04:50Z</time>
      </trkpt>
      <trkpt lat="45.5611" lon="6.53031">
        <ele>1460.8868</ele>
        <time>2016-09-20T12:04:59Z</time>
      </trkpt>
      <trkpt lat="45.56118" lon="6.53023">
        <ele>1461.0981</ele>
        <time>2016-09-20T12:05:14Z</time>
      </trkpt>
      <trkpt lat="45.56126" lon="6.53017">
        <ele>1458.8682</ele>
        <time>2016-09-20T12:05:22Z</time>
      </trkpt>
      <trkpt lat="45.56126" lon="6.53003">
        <ele>1456.4531</ele>
        <time>2016-09-20T12:05:37Z</time>
      </trkpt>
      <trkpt lat="45.56123" lon="6.52991">
        <ele>1454.7013</ele>
        <time>2016-09-20T12:05:48Z</time>
      </trkpt>
      <trkpt lat="45.56115" lon="6.52984">
        <ele>1452.9362</ele>
        <time>2016-09-20T12:05:58Z</time>
      </trkpt>
      <trkpt lat="45.56105" lon="6.52988">
        <ele>1450.1381</ele>
        <time>2016-09-20T12:06:10Z</time>
      </trkpt>
      <trkpt lat="45.56101" lon="6.52976">
        <ele>1446.2988</ele>
        <time>2016-09-20T12:06:18Z</time>
      </trkpt>
      <trkpt lat="45.56093" lon="6.52967">
        <ele>1444.0662</ele>
        <time>2016-09-20T12:06:30Z</time>
      </trkpt>
      <trkpt lat="45.56086" lon="6.52959">
        <ele>1440.8187</ele>
        <time>2016-09-20T12:06:43Z</time>
      </trkpt>
      <trkpt lat="45.5608" lon="6.52946">
        <ele>1437.2252</ele>
        <time>2016-09-20T12:06:55Z</time>
      </trkpt>
      <trkpt lat="45.5608" lon="6.52932">
        <ele>1435.2039</ele>
        <time>2016-09-20T12:07:08Z</time>
      </trkpt>
      <trkpt lat="45.56082" lon="6.52919">
        <ele>1433.3887</ele>
        <time>2016-09-20T12:07:17Z</time>
      </trkpt>
      <trkpt lat="45.56078" lon="6.52907">
        <ele>1430.9208</ele>
        <time>2016-09-20T12:07:25Z</time>
      </trkpt>
      <trkpt lat="45.56072" lon="6.52898">
        <ele>1429.087</ele>
        <time>2016-09-20T12:07:35Z</time>
      </trkpt>
      <trkpt lat="45.56064" lon="6.52889">
        <ele>1426.429</ele>
        <time>2016-09-20T12:07:46Z</time>
      </trkpt>
      <trkpt lat="45.56056" lon="6.52882">
        <ele>1424.4366</ele>
        <time>2016-09-20T12:07:57Z</time>
      </trkpt>
      <trkpt lat="45.56047" lon="6.52863">
        <ele>1421.8446</ele>
        <time>2016-09-20T12:08:35Z</time>
      </trkpt>
      <trkpt lat="45.56041" lon="6.52853">
        <ele>1420.4468</ele>
        <time>2016-09-20T12:08:44Z</time>
      </trkpt>
      <trkpt lat="45.56034" lon="6.52843">
        <ele>1418.4995</ele>
        <time>2016-09-20T12:08:53Z</time>
      </trkpt>
      <trkpt lat="45.5603" lon="6.5283">
        <ele>1418.0714</ele>
        <time>2016-09-20T12:09:01Z</time>
      </trkpt>
      <trkpt lat="45.56027" lon="6.52818">
        <ele>1415.0883</ele>
        <time>2016-09-20T12:09:08Z</time>
      </trkpt>
      <trkpt lat="45.56025" lon="6.52805">
        <ele>1413.6403</ele>
        <time>2016-09-20T12:09:15Z</time>
      </trkpt>
      <trkpt lat="45.56021" lon="6.52792">
        <ele>1412.9507</ele>
        <time>2016-09-20T12:09:22Z</time>
      </trkpt>
      <trkpt lat="45.56016" lon="6.52779">
        <ele>1411.9333</ele>
        <time>2016-09-20T12:09:30Z</time>
      </trkpt>
      <trkpt lat="45.56012" lon="6.52767">
        <ele>1408.7125</ele>
        <time>2016-09-20T12:09:40Z</time>
      </trkpt>
      <trkpt lat="45.56004" lon="6.52756">
        <ele>1405.9196</ele>
        <time>2016-09-20T12:09:50Z</time>
      </trkpt>
      <trkpt lat="45.55997" lon="6.52746">
        <ele>1402.8572</ele>
        <time>2016-09-20T12:09:59Z</time>
      </trkpt>
      <trkpt lat="45.55991" lon="6.52737">
        <ele>1401.3538</ele>
        <time>2016-09-20T12:10:07Z</time>
      </trkpt>
      <trkpt lat="45.55982" lon="6.52731">
        <ele>1397.9558</ele>
        <time>2016-09-20T12:10:19Z</time>
      </trkpt>
      <trkpt lat="45.55973" lon="6.52724">
        <ele>1395.2131</ele>
        <time>2016-09-20T12:10:30Z</time>
      </trkpt>
      <trkpt lat="45.55967" lon="6.52714">
        <ele>1392.4335</ele>
        <time>2016-09-20T12:10:42Z</time>
      </trkpt>
      <trkpt lat="45.55959" lon="6.52704">
        <ele>1389.601</ele>
        <time>2016-09-20T12:10:53Z</time>
      </trkpt>
      <trkpt lat="45.55957" lon="6.52692">
        <ele>1388.0155</ele>
        <time>2016-09-20T12:11:04Z</time>
      </trkpt>
      <trkpt lat="45.55956" lon="6.52678">
        <ele>1383.3625</ele>
        <time>2016-09-20T12:11:15Z</time>
      </trkpt>
      <trkpt lat="45.55958" lon="6.52663">
        <ele>1380.7308</ele>
        <time>2016-09-20T12:11:27Z</time>
      </trkpt>
      <trkpt lat="45.55958" lon="6.52651">
        <ele>1378.6434</ele>
        <time>2016-09-20T12:11:37Z</time>
      </trkpt>
      <trkpt lat="45.55966" lon="6.52642">
        <ele>1375.2006</ele>
        <time>2016-09-20T12:11:58Z</time>
      </trkpt>
      <trkpt lat="45.55975" lon="6.5264">
        <ele>1372.87</ele>
        <time>2016-09-20T12:12:10Z</time>
      </trkpt>
      <trkpt lat="45.55985" lon="6.52641">
        <ele>1369.163</ele>
        <time>2016-09-20T12:12:20Z</time>
      </trkpt>
      <trkpt lat="45.55992" lon="6.52648">
        <ele>1367.4824</ele>
        <time>2016-09-20T12:12:28Z</time>
      </trkpt>
      <trkpt lat="45.56" lon="6.5264">
        <ele>1367.6224</ele>
        <time>2016-09-20T12:12:36Z</time>
      </trkpt>
      <trkpt lat="45.55994" lon="6.52629">
        <ele>1363.1412</ele>
        <time>2016-09-20T12:12:48Z</time>
      </trkpt>
      <trkpt lat="45.55987" lon="6.5262">
        <ele>1360.4038</ele>
        <time>2016-09-20T12:12:59Z</time>
      </trkpt>
      <trkpt lat="45.5598" lon="6.52611">
        <ele>1359.043</ele>
        <time>2016-09-20T12:13:08Z</time>
      </trkpt>
      <trkpt lat="45.55975" lon="6.52599">
        <ele>1355.682</ele>
        <time>2016-09-20T12:13:22Z</time>
      </trkpt>
      <trkpt lat="45.55968" lon="6.5259">
        <ele>1353.7981</ele>
        <time>2016-09-20T12:13:32Z</time>
      </trkpt>
      <trkpt lat="45.55962" lon="6.5258">
        <ele>1350.4926</ele>
        <time>2016-09-20T12:13:41Z</time>
      </trkpt>
      <trkpt lat="45.55958" lon="6.52568">
        <ele>1348.9628</ele>
        <time>2016-09-20T12:13:49Z</time>
      </trkpt>
      <trkpt lat="45.55955" lon="6.52555">
        <ele>1346.7565</ele>
        <time>2016-09-20T12:13:59Z</time>
      </trkpt>
      <trkpt lat="45.55951" lon="6.52544">
        <ele>1345.039</ele>
        <time>2016-09-20T12:14:05Z</time>
      </trkpt>
      <trkpt lat="45.55944" lon="6.52534">
        <ele>1342.2408</ele>
        <time>2016-09-20T12:14:14Z</time>
      </trkpt>
      <trkpt lat="45.55936" lon="6.52524">
        <ele>1340.8616</ele>
        <time>2016-09-20T12:14:23Z</time>
      </trkpt>
      <trkpt lat="45.55931" lon="6.52513">
        <ele>1339.6434</ele>
        <time>2016-09-20T12:14:32Z</time>
      </trkpt>
      <trkpt lat="45.55926" lon="6.525">
        <ele>1338.0634</ele>
        <time>2016-09-20T12:14:41Z</time>
      </trkpt>
      <trkpt lat="45.55925" lon="6.52487">
        <ele>1336.766</ele>
        <time>2016-09-20T12:14:52Z</time>
      </trkpt>
      <trkpt lat="45.55923" lon="6.52472">
        <ele>1335.8809</ele>
        <time>2016-09-20T12:15:00Z</time>
      </trkpt>
      <trkpt lat="45.55922" lon="6.52459">
        <ele>1335.0856</ele>
        <time>2016-09-20T12:15:08Z</time>
      </trkpt>
      <trkpt lat="45.55918" lon="6.52445">
        <ele>1334.0392</ele>
        <time>2016-09-20T12:15:16Z</time>
      </trkpt>
      <trkpt lat="45.55916" lon="6.52431">
        <ele>1331.7324</ele>
        <time>2016-09-20T12:15:25Z</time>
      </trkpt>
      <trkpt lat="45.55915" lon="6.52418">
        <ele>1330.7733</ele>
        <time>2016-09-20T12:15:33Z</time>
      </trkpt>
      <trkpt lat="45.55913" lon="6.52403">
        <ele>1329.2778</ele>
        <time>2016-09-20T12:15:42Z</time>
      </trkpt>
      <trkpt lat="45.55904" lon="6.52407">
        <ele>1329.7877</ele>
        <time>2016-09-20T12:15:54Z</time>
      </trkpt>
      <trkpt lat="45.55899" lon="6.52396">
        <ele>1328.0808</ele>
        <time>2016-09-20T12:16:04Z</time>
      </trkpt>
      <trkpt lat="45.55897" lon="6.52382">
        <ele>1324.6116</ele>
        <time>2016-09-20T12:16:13Z</time>
      </trkpt>
      <trkpt lat="45.55904" lon="6.52364">
        <ele>1322.3234</ele>
        <time>2016-09-20T12:16:39Z</time>
      </trkpt>
      <trkpt lat="45.5591" lon="6.52352">
        <ele>1319.6652</ele>
        <time>2016-09-20T12:16:48Z</time>
      </trkpt>
      <trkpt lat="45.55905" lon="6.52341">
        <ele>1318.9518</ele>
        <time>2016-09-20T12:17:02Z</time>
      </trkpt>
      <trkpt lat="45.55904" lon="6.5234">
        <ele>1318.3837</ele>
        <time>2016-09-20T12:17:03Z</time>
      </trkpt>
      <trkpt lat="45.55904" lon="6.5234">
        <ele>1318.3837</ele>
        <time>2016-09-20T12:17:03Z</time>
      </trkpt>
    </trkseg>
  </trk>
</gpx>